DiRT Cross Platform Results Import

Created by /u/Th3HolyMoose


Back to Index


It's still a work in progress, if there are any issues or questions just send me a PM on reddit!

Nation Flags, "Founder" icon and "VIP" icon are properties of dirtgame.com, if I can't use them let me know!

Color Guide:
  Red: Fastest Stage Time
  Yellow: Second Fastest Stage Time
  Dark Grey: Third Fastest Stage Time


The Owners' Club, 2017-02-17
2713 Entries, 1 Stage(s)


Stages:
SS1: [Monaco] Route de Turini Montée (S) (Afternoon, Mist)

#DriverVehicleTotal TimeDiff. FirstPlatform
1 Joona PanskuRenault 5 Turbo04:30.505+00:00.000Steam
2 B A C K A L L E Y - Renault 5 Turbo04:30.805+00:00.300Steam
3 Porkhammer Renault 5 Turbo04:32.789+00:02.284Steam
4 jhtl85Renault 5 Turbo04:37.972+00:07.467PS4
5 Kharkhalim Renault 5 Turbo04:40.638+00:10.133Steam
6 StreetTroll24Renault 5 Turbo04:43.038+00:12.533PS4
7 J-M-J-75Renault 5 Turbo04:43.455+00:12.950PS4
8 ?. Renault 5 Turbo04:43.671+00:13.166Steam
9 Southh07 Renault 5 Turbo04:44.388+00:13.883Steam
10 rajcoreRenault 5 Turbo04:44.738+00:14.233PS4
11 jrdcompeticionRenault 5 Turbo04:45.271+00:14.766PS4
12 catty7073 Renault 5 Turbo04:45.788+00:15.283Steam
13 EpilepticToastRenault 5 Turbo04:46.388+00:15.883Xbox
14 seanjracing Renault 5 Turbo04:46.838+00:16.333Steam
15 CSN5567Renault 5 Turbo04:47.321+00:16.816Steam
16 Sergio MirandaRenault 5 Turbo04:47.438+00:16.933Steam
17 Xalara5618 Renault 5 Turbo04:47.855+00:17.350Steam
18 MCABRAL666Renault 5 Turbo04:48.388+00:17.883Xbox
19 YoppaRaizoRenault 5 Turbo04:48.538+00:18.330Steam
20 Superd00ps Renault 5 Turbo04:48.855+00:18.350Steam
21 MajorDanger Renault 5 Turbo04:49.205+00:18.700Steam
22 salvo4689 Renault 5 Turbo04:49.238+00:18.733Steam
23 PERDY_46Renault 5 Turbo04:49.521+00:19.160PS4
24 MADze-_-Renault 5 Turbo04:49.771+00:19.266PS4
25 koabi Renault 5 Turbo04:50.105+00:19.600Steam
26 fiston38Renault 5 Turbo04:50.205+00:19.700Steam
27 monsieurrollmopsRenault 5 Turbo04:50.688+00:20.183Steam
28 amokl Renault 5 Turbo04:50.771+00:20.266Steam
29 avk179 Renault 5 Turbo04:51.688+00:21.183Steam
30 Jan #NoControl Renault 5 Turbo04:51.838+00:21.333Steam
31 Xfen18Renault 5 Turbo04:51.888+00:21.383Steam
32 RealTrollisRenault 5 Turbo04:52.004+00:21.499PS4
33 rob_every05 Renault 5 Turbo04:52.204+00:21.699Steam
34 Dragon-Ball83Renault 5 Turbo04:52.238+00:21.733Steam
35 SGT_alex115Renault 5 Turbo04:52.854+00:22.349PS4
36 xKn0oXRenault 5 Turbo04:52.971+00:22.466Xbox
37 Vauverdois30Renault 5 Turbo04:53.304+00:22.799PS4
38 mare87 Renault 5 Turbo04:53.438+00:22.933Steam
39 Fabian_Bonora Renault 5 Turbo04:53.504+00:22.999Steam
40 vauhtiripaRenault 5 Turbo04:53.588+00:23.830PS4
41 Ryu Makkuro Renault 5 Turbo04:53.738+00:23.233Steam
42 arZic Renault 5 Turbo04:53.954+00:23.449Steam
43 hannes36 Renault 5 Turbo04:54.004+00:23.499Steam
44 Tiago Renault 5 Turbo04:54.104+00:23.599Steam
45 Eric der HeizerRenault 5 Turbo04:54.338+00:23.833Steam
46 Elio Renault 5 Turbo04:54.954+00:24.449Steam
47 roccon-mRenault 5 Turbo04:54.971+00:24.466Steam
48 PPRTVen(Poland) Renault 5 Turbo04:55.104+00:24.599Steam
49 kilfoofanRenault 5 Turbo04:55.204+00:24.699Steam
50 TheRallyManVWRenault 5 Turbo04:55.321+00:24.816Xbox
51 zupadubs Renault 5 Turbo04:55.454+00:24.949Steam
52 Je55eJame5 Renault 5 Turbo04:55.521+00:25.160Steam
53 Alexis_NievesRenault 5 Turbo04:55.571+00:25.660PS4
54 RHETENOR-97-3Renault 5 Turbo04:55.638+00:25.133PS4
55 Snaky115 Renault 5 Turbo04:55.688+00:25.183Steam
56 natalone82Renault 5 Turbo04:55.788+00:25.283PS4
57 border2001ukRenault 5 Turbo04:55.804+00:25.299Steam
58 Chewbitch Renault 5 Turbo04:55.804+00:25.299Steam
59 Sprungcasper Renault 5 Turbo04:55.804+00:25.299Steam
60 DonSukram Renault 5 Turbo04:55.838+00:25.333Steam
61 FifouRenault 5 Turbo04:55.938+00:25.433Steam
62 loukimi Renault 5 Turbo04:56.154+00:25.649Steam
63 ZozaSportRenault 5 Turbo04:56.221+00:25.716Xbox
64 Patch Renault 5 Turbo04:56.304+00:25.799Steam
65 Diego CatalánRenault 5 Turbo04:56.338+00:25.833Steam
66 turtleRenault 5 Turbo04:56.571+00:26.660Steam
67 turboch4rgedRenault 5 Turbo04:56.588+00:26.830Steam
68 JuhiziTRenault 5 Turbo04:56.721+00:26.216PS4
69 Sane Renault 5 Turbo04:56.888+00:26.383Steam
70 app.solRenault 5 Turbo04:56.904+00:26.399Steam
71 KloakinDevice Renault 5 Turbo04:57.004+00:26.499Steam
72 Snowsilent Renault 5 Turbo04:57.038+00:26.533Steam
73 xixi Renault 5 Turbo04:57.121+00:26.616Steam
74 FinlandSnakeRenault 5 Turbo04:57.154+00:26.649Xbox
75 misanthor Renault 5 Turbo04:57.271+00:26.766Steam
76 Aurora Renault 5 Turbo04:57.304+00:26.799Steam
77 oldethumperRenault 5 Turbo04:57.338+00:26.833Steam
78 waltcyntRenault 5 Turbo04:57.588+00:27.830Xbox
79 Tm1402 Renault 5 Turbo04:57.754+00:27.249Steam
80 Doyden Renault 5 Turbo04:57.854+00:27.349Steam
81 PingouinRenault 5 Turbo04:57.854+00:27.349Steam
82 MadLikeMe Renault 5 Turbo04:58.138+00:27.633Steam
83 Kontrol_šifterRenault 5 Turbo04:58.204+00:27.699Steam
84 robmg88Renault 5 Turbo04:58.204+00:27.699PS4
85 kenny_pceRenault 5 Turbo04:58.388+00:27.883Steam
86 MiG_35Renault 5 Turbo04:58.538+00:28.330Steam
87 Sladi Pesonen Renault 5 Turbo04:58.538+00:28.330Steam
88 svilen.dimitrov Renault 5 Turbo04:58.788+00:28.283Steam
89 dik12345Renault 5 Turbo04:58.854+00:28.349PS4
90 Jorma KovanenRenault 5 Turbo04:58.988+00:28.483Steam
91 Pablin_RBNSportRenault 5 Turbo04:59.388+00:28.883PS4
92 mauroahoRenault 5 Turbo04:59.438+00:28.933PS4
93 patchisRenault 5 Turbo04:59.488+00:28.983Steam
94 Blither Renault 5 Turbo04:59.654+00:29.149Steam
95 dustbuster-92Renault 5 Turbo04:59.754+00:29.249PS4
96 olssa69Renault 5 Turbo04:59.788+00:29.283PS4
97 gumbosoniRenault 5 Turbo04:59.921+00:29.416PS4
98 Scooobeee Renault 5 Turbo04:59.954+00:29.449Steam
99 S4N7 Renault 5 Turbo05:00.021+00:29.516Steam
100 marzluff Renault 5 Turbo05:00.054+00:29.549Steam
101 Miro SilvaRenault 5 Turbo05:00.087+00:29.582Steam
102 [~FTI~]Denis Renault 5 Turbo05:00.087+00:29.582Steam
103 lucamoharram Renault 5 Turbo05:00.204+00:29.699Steam
104 t.biehatsch Renault 5 Turbo05:00.237+00:29.732Steam
105 Mad Max Renault 5 Turbo05:00.271+00:29.766Steam
106 marisritins Renault 5 Turbo05:00.271+00:29.766Steam
107 Good You'r Stupid Renault 5 Turbo05:00.304+00:29.799Steam
108 ehENTERRenault 5 Turbo05:00.304+00:29.799Steam
109 jorkkako Renault 5 Turbo05:00.437+00:29.932Steam
110 met865Renault 5 Turbo05:00.454+00:29.949PS4
111 franzbauerfranz Renault 5 Turbo05:00.587+00:30.820Steam
112 p.2501 Renault 5 Turbo05:00.621+00:30.116Steam
113 ltd.m50 Renault 5 Turbo05:00.771+00:30.266Steam
114 NicNic0licRenault 5 Turbo05:01.004+00:30.499PS4
115 The Rainy Desert (Jesus) Renault 5 Turbo05:01.037+00:30.532Steam
116 Mr.C Renault 5 Turbo05:01.304+00:30.799Steam
117 -=Sylvain83=- Renault 5 Turbo05:01.321+00:30.816Steam
118 Ville Renault 5 Turbo05:01.404+00:30.899Steam
119 [NRT] Lionel51frRenault 5 Turbo05:01.504+00:30.999Steam
120 RajtenRenault 5 Turbo05:01.537+00:31.320PS4
121 Lauris_ARenault 5 Turbo05:01.587+00:31.820PS4
122 Death PodRenault 5 Turbo05:01.737+00:31.232Steam
123 robohwheelybinRenault 5 Turbo05:01.887+00:31.382PS4
124 LUKEY1993Renault 5 Turbo05:01.921+00:31.416PS4
125 LuciferRenault 5 Turbo05:02.004+00:31.499Steam
126 ari.salokivi Renault 5 Turbo05:02.071+00:31.566Steam
127 skiline280Renault 5 Turbo05:02.071+00:31.566Xbox
128 finagle69Renault 5 Turbo05:02.437+00:31.932Steam
129 Taz_EgaRenault 5 Turbo05:02.504+00:31.999PS4
130 AJCC_1Renault 5 Turbo05:02.537+00:32.320PS4
131 DR!P Renault 5 Turbo05:02.704+00:32.199Steam
132 Go Home YankeesRenault 5 Turbo05:02.837+00:32.332Steam
133 nervenkillerRenault 5 Turbo05:02.887+00:32.382Steam
134 Kinetically Lateral Renault 5 Turbo05:02.921+00:32.416Steam
135 THE_CLANSMAN_1Renault 5 Turbo05:02.954+00:32.449PS4
136 OyabinGRRenault 5 Turbo05:03.004+00:32.499Steam
137 DKC.I_Know Renault 5 Turbo05:03.054+00:32.549Steam
138 Soulr3av3r Renault 5 Turbo05:03.154+00:32.649Steam
139 massimo.ceseRenault 5 Turbo05:03.321+00:32.816Steam
140 rmuortRenault 5 Turbo05:03.337+00:32.832Steam
141 mozza Renault 5 Turbo05:03.354+00:32.849Steam
142 AkaMirteRenault 5 Turbo05:03.387+00:32.882PS4
143 DeathBoy11Renault 5 Turbo05:03.504+00:32.999Steam
144 canxoRenault 5 Turbo05:03.537+00:33.320PS4
145 Bigg.IRenault 5 Turbo05:03.554+00:33.490Steam
146 Greg Renault 5 Turbo05:03.587+00:33.820Steam
147 ATIDIA Renault 5 Turbo05:03.671+00:33.166Steam
148 nikonike7Renault 5 Turbo05:03.804+00:33.299PS4
149 Fernando MeirelesRenault 5 Turbo05:03.837+00:33.332Steam
150 BussoAfterLifeRenault 5 Turbo05:03.971+00:33.466Steam
151 Obe-WanRenault 5 Turbo05:03.987+00:33.482PS4
152 Juzukka89Renault 5 Turbo05:04.021+00:33.516PS4
153 [-XV-].AngeOliveur. Renault 5 Turbo05:04.037+00:33.532Steam
154 PerseusRenault 5 Turbo05:04.037+00:33.532Steam
155 RasTa_CouRaGe_71Renault 5 Turbo05:04.221+00:33.716PS4
156 MarkoholtRenault 5 Turbo05:04.237+00:33.732PS4
157 Escobarr24Renault 5 Turbo05:04.254+00:33.749PS4
158 hos Renault 5 Turbo05:04.271+00:33.766Steam
159 ficaks Renault 5 Turbo05:04.371+00:33.866Steam
160 Damyen73Renault 5 Turbo05:04.421+00:33.916Xbox
161 dom61zavaRenault 5 Turbo05:04.487+00:33.982PS4
162 [RFr]moine12-(test)Renault 5 Turbo05:04.521+00:34.160Steam
163 TRZTORQUERenault 5 Turbo05:04.621+00:34.116Steam
164 clau_ayla_072 Renault 5 Turbo05:04.621+00:34.116Steam
165 jocke74Renault 5 Turbo05:04.654+00:34.149Xbox
166 LOLO Renault 5 Turbo05:04.804+00:34.299Steam
167 CRAZYJOHN973Renault 5 Turbo05:04.837+00:34.332PS4
168 Bussolotto Renault 5 Turbo05:05.104+00:34.599Steam
169 psych13aRenault 5 Turbo05:05.121+00:34.616PS4
170 Pepillogsxr33Renault 5 Turbo05:05.221+00:34.716PS4
171 gudmundsson.33Renault 5 Turbo05:05.237+00:34.732Steam
172 Ricson48185 Renault 5 Turbo05:05.387+00:34.882Steam
173 nivelingeorgiev5Renault 5 Turbo05:05.404+00:34.899Steam
174 jindra247 Renault 5 Turbo05:05.421+00:34.916Steam
175 ReM Renault 5 Turbo05:05.504+00:34.999Steam
176 20cent Renault 5 Turbo05:05.637+00:35.132Steam
177 WANMEN SVKRenault 5 Turbo05:05.737+00:35.232Steam
178 hemirpu Renault 5 Turbo05:05.754+00:35.249Steam
179 icy_gerRenault 5 Turbo05:05.754+00:35.249Steam
180 AttaK01Renault 5 Turbo05:05.754+00:35.249PS4
181 AgentSmith19Renault 5 Turbo05:05.787+00:35.282PS4
182 AttiRenault 5 Turbo05:05.821+00:35.316Steam
183 ANATOLE_PROJECT Renault 5 Turbo05:05.821+00:35.316Steam
184 Ricorvs Renault 5 Turbo05:05.871+00:35.366Steam
185 CanCannsRenault 5 Turbo05:05.921+00:35.416PS4
186 vinzdu91Renault 5 Turbo05:05.921+00:35.416Xbox
187 RayRenault 5 Turbo05:06.037+00:35.532Steam
188 Lukafa_SVKRenault 5 Turbo05:06.037+00:35.532PS4
189 guizrRenault 5 Turbo05:06.121+00:35.616PS4
190 lewismRenault 5 Turbo05:06.187+00:35.682PS4
191 conbonjoviRenault 5 Turbo05:06.204+00:35.699PS4
192 travellog07Renault 5 Turbo05:06.371+00:35.866Steam
193 atrvo Renault 5 Turbo05:06.487+00:35.982Steam
194 kumikapulaRenault 5 Turbo05:06.521+00:36.160PS4
195 Colo2000xxRenault 5 Turbo05:06.554+00:36.490PS4
196 rudgossRenault 5 Turbo05:06.587+00:36.820PS4
197 Kolli Renault 5 Turbo05:06.637+00:36.132Steam
198 kakou Renault 5 Turbo05:06.687+00:36.182Steam
199 johann.fenn Renault 5 Turbo05:06.687+00:36.182Steam
200 METAL666nz Renault 5 Turbo05:06.721+00:36.216Steam
201 --ovCZak-- Renault 5 Turbo05:06.771+00:36.266Steam
202 topdriverschoolgames Renault 5 Turbo05:06.937+00:36.432Steam
203 [D0gfish] Renault 5 Turbo05:06.954+00:36.449Steam
204 LetsDoAnalRenault 5 Turbo05:06.971+00:36.466Steam
205 ced205gtiRenault 5 Turbo05:06.971+00:36.466PS4
206 Zall Renault 5 Turbo05:07.021+00:36.516Steam
207 phildar73Renault 5 Turbo05:07.121+00:36.616PS4
208 Pi2fRenault 5 Turbo05:07.121+00:36.616Xbox
209 VocSwe Renault 5 Turbo05:07.154+00:36.649Steam
210 fcuvillier972Renault 5 Turbo05:07.237+00:36.732Xbox
211 NoisyTribe Renault 5 Turbo05:07.271+00:36.766Steam
212 taige_001 Renault 5 Turbo05:07.487+00:36.982Steam
213 madwak55Renault 5 Turbo05:07.487+00:36.982PS4
214 Ukki61 Renault 5 Turbo05:07.521+00:37.160Steam
215 snellebelg Renault 5 Turbo05:07.537+00:37.320Steam
216 Richad BatzbakRenault 5 Turbo05:07.604+00:37.990Steam
217 WillB6 Renault 5 Turbo05:07.671+00:37.166Steam
218 JJVenekuski Renault 5 Turbo05:07.721+00:37.216Steam
219 acagtRenault 5 Turbo05:07.804+00:37.299Steam
220 BeggarSifonRenault 5 Turbo05:07.871+00:37.366Steam
221 RZA Renault 5 Turbo05:07.871+00:37.366Steam
222 The Fourth Man Renault 5 Turbo05:07.887+00:37.382Steam
223 Km132QRS8562APRenault 5 Turbo05:08.021+00:37.516PS4
224 yowi87Renault 5 Turbo05:08.037+00:37.532Steam
225 xsni Renault 5 Turbo05:08.087+00:37.582Steam
226 FlyingFinn | AGTV Renault 5 Turbo05:08.087+00:37.582Steam
227 LinkinWarRenault 5 Turbo05:08.121+00:37.616Steam
228 Leosp-01Renault 5 Turbo05:08.171+00:37.666PS4
229 old Nobbi Renault 5 Turbo05:08.187+00:37.682Steam
230 b13ngyRenault 5 Turbo05:08.187+00:37.682PS4
231 psychoblondie67 Renault 5 Turbo05:08.254+00:37.749Steam
232 André Gee Renault 5 Turbo05:08.287+00:37.782Steam
233 ounesdu13127Renault 5 Turbo05:08.287+00:37.782PS4
234 Kärbä Renault 5 Turbo05:08.304+00:37.799Steam
235 ZampanRenault 5 Turbo05:08.354+00:37.849PS4
236 PapyChampy Renault 5 Turbo05:08.370+00:37.865Steam
237 kudasoffff Renault 5 Turbo05:08.454+00:37.949Steam
238 HiteRenault 5 Turbo05:08.604+00:38.990Steam
239 [LCC]Sakm38 Renault 5 Turbo05:08.637+00:38.132Steam
240 MartinbermeRenault 5 Turbo05:08.687+00:38.182PS4
241 POLLOKILLER46Renault 5 Turbo05:08.737+00:38.232PS4
242 WildDucksAttackRenault 5 Turbo05:08.754+00:38.249Steam
243 csak1934Renault 5 Turbo05:08.804+00:38.299PS4
244 Phoenixx236Renault 5 Turbo05:08.870+00:38.365Steam
245 ROSSO Renault 5 Turbo05:08.870+00:38.365Steam
246 SveltorRenault 5 Turbo05:08.937+00:38.432Steam
247 Chizzola101Renault 5 Turbo05:08.937+00:38.432PS4
248 stevenb123 Renault 5 Turbo05:08.954+00:38.449Steam
249 darkangel_jimmyRenault 5 Turbo05:08.970+00:38.465Steam
250 badouille71Renault 5 Turbo05:09.004+00:38.499PS4
251 GoBart34Renault 5 Turbo05:09.037+00:38.532PS4
252 [ T.F ] Le Sage974 Renault 5 Turbo05:09.054+00:38.549Steam
253 mikakarvajalkaRenault 5 Turbo05:09.070+00:38.565PS4
254 Tommi. Renault 5 Turbo05:09.104+00:38.599Steam
255 XmattbeeX Renault 5 Turbo05:09.154+00:38.649Steam
256 GRIP Renault 5 Turbo05:09.170+00:38.665Steam
257 szymon8c4 Renault 5 Turbo05:09.187+00:38.682Steam
258 SpazAttack Renault 5 Turbo05:09.187+00:38.682Steam
259 DirtRally9Renault 5 Turbo05:09.204+00:38.699PS4
260 jlucbergerRenault 5 Turbo05:09.254+00:38.749Steam
261 Buck Renault 5 Turbo05:09.270+00:38.765Steam
262 thierry67250Renault 5 Turbo05:09.304+00:38.799Steam
263 schiefinspector2Renault 5 Turbo05:09.304+00:38.799PS4
264 SílvioCró Renault 5 Turbo05:09.370+00:38.865Steam
265 Nopileos Renault 5 Turbo05:09.404+00:38.899Steam
266 MacTools71 Renault 5 Turbo05:09.420+00:38.915Steam
267 janslehyRenault 5 Turbo05:09.420+00:38.915PS4
268 iggywicksRenault 5 Turbo05:09.437+00:38.932Xbox
269 Zelovocko Renault 5 Turbo05:09.487+00:38.982Steam
270 kekito0087Renault 5 Turbo05:09.537+00:39.320PS4
271 NONOlyoncharboRenault 5 Turbo05:09.537+00:39.320Xbox
272 Copilot Renault 5 Turbo05:09.587+00:39.820Steam
273 chambrinRenault 5 Turbo05:09.670+00:39.165Xbox
274 bng/DuJa Renault 5 Turbo05:09.688+00:39.183Steam
275 Diogo Souto Renault 5 Turbo05:09.704+00:39.199Steam
276 turboglenRenault 5 Turbo05:09.788+00:39.283PS4
277 SUPERSONIC_NECTARINERenault 5 Turbo05:09.837+00:39.332Steam
278 kai.masterson Renault 5 Turbo05:09.870+00:39.365Steam
279 DDGRIPRenault 5 Turbo05:09.904+00:39.399PS4
280 t.nakazawa Renault 5 Turbo05:09.954+00:39.449Steam
281 [LSF] Pierre-Yves Renault 5 Turbo05:10.104+00:39.599Steam
282 TurtleX Renault 5 Turbo05:10.104+00:39.599Steam
283 Dydy flat out Renault 5 Turbo05:10.120+00:39.615Steam
284 YobOufmanRenault 5 Turbo05:10.237+00:39.732PS4
285 llbastien10000llRenault 5 Turbo05:10.270+00:39.765PS4
286 Quail-P Renault 5 Turbo05:10.370+00:39.865Steam
287 sloal3nRenault 5 Turbo05:10.520+00:40.150PS4
288 f8924919 Renault 5 Turbo05:10.570+00:40.650Steam
289 Spanner Renault 5 Turbo05:10.587+00:40.820Steam
290 tjetfiatRenault 5 Turbo05:10.587+00:40.820PS4
291 F157er Renault 5 Turbo05:10.604+00:40.990Steam
292 The Hypno Toad Renault 5 Turbo05:10.604+00:40.990Steam
293 Gronik0Renault 5 Turbo05:10.820+00:40.315Steam
294 Molock Le LapinRenault 5 Turbo05:10.837+00:40.332Steam
295 Alf Renault 5 Turbo05:10.870+00:40.365Steam
296 provigRenault 5 Turbo05:11.004+00:40.499Steam
297 Splinter Renault 5 Turbo05:11.054+00:40.549Steam
298 Not linkedRenault 5 Turbo05:11.054+00:40.549Xbox
299 cafeasyRenault 5 Turbo05:11.070+00:40.565PS4
300 BremmeRenault 5 Turbo05:11.137+00:40.632Steam
301 kellariraiskaajaRenault 5 Turbo05:11.170+00:40.665PS4
302 CrAshBaNgWhLoopRenault 5 Turbo05:11.237+00:40.732PS4
303 CleeveRenault 5 Turbo05:11.287+00:40.782Steam
304 helene.soren Renault 5 Turbo05:11.320+00:40.815Steam
305 SomebodySmokeMe Renault 5 Turbo05:11.320+00:40.815Steam
306 Hotel12Renault 5 Turbo05:11.354+00:40.849Xbox
307 markrenton85Renault 5 Turbo05:11.370+00:40.865PS4
308 Schm?rfRenault 5 Turbo05:11.387+00:40.882Steam
309 Runout99Renault 5 Turbo05:11.420+00:40.915Xbox
310 nanete98 Renault 5 Turbo05:11.570+00:41.650Steam
311 SNipeRRenault 5 Turbo05:11.720+00:41.215Steam
312 Not linkedRenault 5 Turbo05:11.720+00:41.215Xbox
313 ben325iRenault 5 Turbo05:11.720+00:41.215Xbox
314 eski655Renault 5 Turbo05:11.737+00:41.232PS4
315 EndafellRenault 5 Turbo05:11.970+00:41.465PS4
316 suptwitRenault 5 Turbo05:11.987+00:41.482Steam
317 NukeEliminator2Renault 5 Turbo05:12.004+00:41.499Steam
318 vrpressRenault 5 Turbo05:12.020+00:41.515PS4
319 griseurRenault 5 Turbo05:12.037+00:41.532PS4
320 Tannekr Renault 5 Turbo05:12.120+00:41.615Steam
321 FliriusRenault 5 Turbo05:12.154+00:41.649Steam
322 X--FileRenault 5 Turbo05:12.154+00:41.649PS4
323 Big-Shirley45Renault 5 Turbo05:12.170+00:41.665PS4
324 EastmanRenault 5 Turbo05:12.287+00:41.782Steam
325 Tony highway to hell.(HTH) Renault 5 Turbo05:12.337+00:41.832Steam
326 josegcanRenault 5 Turbo05:12.487+00:41.982PS4
327 Red Bull Energy Renault 5 Turbo05:12.520+00:42.150Steam
328 joelflorecat8Renault 5 Turbo05:12.554+00:42.490PS4
329 gostirs69Renault 5 Turbo05:12.654+00:42.149PS4
330 NoEffect174Renault 5 Turbo05:12.654+00:42.149PS4
331 Rikki_GTRPRenault 5 Turbo05:12.687+00:42.182PS4
332 SMracing91Renault 5 Turbo05:12.820+00:42.315Xbox
333 Rudi MenteiroRenault 5 Turbo05:12.854+00:42.349Steam
334 Takaty- Renault 5 Turbo05:12.870+00:42.365Steam
335 **BuFFaLo133**Renault 5 Turbo05:12.870+00:42.365Steam
336 NinjaK306Renault 5 Turbo05:12.870+00:42.365PS4
337 Lucas_KrijanderRenault 5 Turbo05:12.904+00:42.399PS4
338 nr13nl Renault 5 Turbo05:12.920+00:42.415Steam
339 SevenRenault 5 Turbo05:12.920+00:42.415Steam
340 miikkapelRenault 5 Turbo05:12.937+00:42.432PS4
341 Nomee Renault 5 Turbo05:12.987+00:42.482Steam
342 pfred66o511Renault 5 Turbo05:13.020+00:42.515PS4
343 yopuigRenault 5 Turbo05:13.070+00:42.565PS4
344 Not linkedRenault 5 Turbo05:13.104+00:42.599Xbox
345 SteRacerRenault 5 Turbo05:13.120+00:42.615PS4
346 wojo2000Renault 5 Turbo05:13.137+00:42.632PS4
347 BrightPrMMRenault 5 Turbo05:13.204+00:42.699PS4
348 DJ3YL3OUF39Renault 5 Turbo05:13.220+00:42.715PS4
349 modestriveraRenault 5 Turbo05:13.220+00:42.715PS4
350 Toru Renault 5 Turbo05:13.304+00:42.799Steam
351 aposto74Renault 5 Turbo05:13.304+00:42.799Steam
352 evo6u9Renault 5 Turbo05:13.304+00:42.799PS4
353 Andeegt4Renault 5 Turbo05:13.320+00:42.815PS4
354 Nene221212Renault 5 Turbo05:13.354+00:42.849PS4
355 djidane25Renault 5 Turbo05:13.387+00:42.882Steam
356 lekeitio Renault 5 Turbo05:13.404+00:42.899Steam
357 NowthenfellaRenault 5 Turbo05:13.454+00:42.949PS4
358 wolve3591Renault 5 Turbo05:13.470+00:42.965PS4
359 Razor47 Renault 5 Turbo05:13.520+00:43.150Steam
360 rostzo7Renault 5 Turbo05:13.554+00:43.490PS4
361 kartman-2684Renault 5 Turbo05:13.637+00:43.132PS4
362 Schrödinger Renault 5 Turbo05:13.720+00:43.215Steam
363 Sumulikoski16 Renault 5 Turbo05:13.737+00:43.232Steam
364 Twarzi3Renault 5 Turbo05:13.754+00:43.249PS4
365 D1MOne Renault 5 Turbo05:13.770+00:43.265Steam
366 M.Holínek Renault 5 Turbo05:13.787+00:43.282Steam
367 paradisedylanRenault 5 Turbo05:13.804+00:43.299PS4
368 papyjoRenault 5 Turbo05:13.837+00:43.332PS4
369 raz753 Renault 5 Turbo05:13.887+00:43.382Steam
370 dewos91Renault 5 Turbo05:13.904+00:43.399Steam
371 Not linkedRenault 5 Turbo05:13.904+00:43.399Xbox
372 Debogrid2Renault 5 Turbo05:13.937+00:43.432Xbox
373 Not linkedRenault 5 Turbo05:13.937+00:43.432Xbox
374 ralle711 Renault 5 Turbo05:14.104+00:43.599Steam
375 toa159Renault 5 Turbo05:14.137+00:43.632PS4
376 kokeand50Renault 5 Turbo05:14.137+00:43.632PS4
377 konhiroomi Renault 5 Turbo05:14.187+00:43.682Steam
378 Zenithie's (ZbP) Renault 5 Turbo05:14.220+00:43.715Steam
379 cyril.b16Renault 5 Turbo05:14.237+00:43.732Steam
380 s_krolyaRenault 5 Turbo05:14.320+00:43.815PS4
381 lush31djRenault 5 Turbo05:14.354+00:43.849PS4
382 stephane.galut Renault 5 Turbo05:14.370+00:43.865Steam
383 Not linkedRenault 5 Turbo05:14.387+00:43.882Xbox
384 FatfergusRenault 5 Turbo05:14.404+00:43.899Steam
385 Gesicht3rRenault 5 Turbo05:14.420+00:43.915Steam
386 KossunauttiRenault 5 Turbo05:14.437+00:43.932PS4
387 tchonain473 Renault 5 Turbo05:14.504+00:43.999Steam
388 fritz.liljeqvistRenault 5 Turbo05:14.537+00:44.320Steam
389 Lucas-CastilleroRenault 5 Turbo05:14.537+00:44.320PS4
390 john_finlayson_Renault 5 Turbo05:14.554+00:44.490Steam
391 EukorRenault 5 Turbo05:14.554+00:44.490PS4
392 Weka81Renault 5 Turbo05:14.587+00:44.820PS4
393 Frasersmith1994Renault 5 Turbo05:14.654+00:44.149PS4
394 Konstantinos WagenVolks Renault 5 Turbo05:14.687+00:44.182Steam
395 RockyRenault 5 Turbo05:14.687+00:44.182Steam
396 Parkerface Renault 5 Turbo05:14.688+00:44.183Steam
397 MoH Renault 5 Turbo05:14.704+00:44.199Steam
398 baldosicRenault 5 Turbo05:14.704+00:44.199Steam
399 HakanSweJkpgRenault 5 Turbo05:14.837+00:44.332PS4
400 timmes fm2669 Renault 5 Turbo05:14.904+00:44.399Steam
401 polyperchon394Renault 5 Turbo05:14.920+00:44.415Steam
402 GerargcanRenault 5 Turbo05:14.937+00:44.432PS4
403 Just_welpRenault 5 Turbo05:14.954+00:44.449PS4
404 Storm KickerRenault 5 Turbo05:15.087+00:44.582Steam
405 flying-maxim007Renault 5 Turbo05:15.104+00:44.599PS4
406 MMM0n3y Renault 5 Turbo05:15.154+00:44.649Steam
407 Ice_Silver_GTiRenault 5 Turbo05:15.187+00:44.682PS4
408 bonzo_62Renault 5 Turbo05:15.204+00:44.699PS4
409 VicrsVF1Renault 5 Turbo05:15.304+00:44.799PS4
410 sparkdogRenault 5 Turbo05:15.304+00:44.799Xbox
411 jzdoctorRenault 5 Turbo05:15.337+00:44.832PS4
412 SamppaRenault 5 Turbo05:15.370+00:44.865Steam
413 kowalssky Renault 5 Turbo05:15.437+00:44.932Steam
414 [LP] iTs Ecci Renault 5 Turbo05:15.454+00:44.949Steam
415 -TAGS-Ba77Man- Renault 5 Turbo05:15.487+00:44.982Steam
416 Pfaffo!Renault 5 Turbo05:15.520+00:45.150Steam
417 gerwin36Renault 5 Turbo05:15.537+00:45.320PS4
418 steffenmeier50Renault 5 Turbo05:15.570+00:45.650Steam
419 jyriakupetteriRenault 5 Turbo05:15.570+00:45.650PS4
420 Not linkedRenault 5 Turbo05:15.604+00:45.990Xbox
421 davii63Renault 5 Turbo05:15.620+00:45.115Xbox
422 HawkeyeTheNoo22Renault 5 Turbo05:15.637+00:45.132PS4
423 DerSpellner66Renault 5 Turbo05:15.687+00:45.182Steam
424 dr.frexx Renault 5 Turbo05:15.704+00:45.199Steam
425 mr1campbellRenault 5 Turbo05:15.870+00:45.365PS4
426 Bleifussler Renault 5 Turbo05:15.887+00:45.382Steam
427 johndl Renault 5 Turbo05:15.887+00:45.382Steam
428 Toikkari_37Renault 5 Turbo05:15.887+00:45.382PS4
429 BABASS2BRenault 5 Turbo05:15.904+00:45.399Xbox
430 P-S-3_P-I-TRenault 5 Turbo05:15.937+00:45.432PS4
431 lumi63_GERRenault 5 Turbo05:16.004+00:45.499PS4
432 gravelrabbitRenault 5 Turbo05:16.104+00:45.599PS4
433 w0Lf Renault 5 Turbo05:16.120+00:45.615Steam
434 dejwneraRenault 5 Turbo05:16.154+00:45.649PS4
435 EetuPRenault 5 Turbo05:16.220+00:45.715Xbox
436 fiorux.robRenault 5 Turbo05:16.304+00:45.799Steam
437 D_Y_E_62Renault 5 Turbo05:16.304+00:45.799PS4
438 ghostbiker2395Renault 5 Turbo05:16.354+00:45.849PS4
439 zadnik11Renault 5 Turbo05:16.404+00:45.899Xbox
440 penko75 Renault 5 Turbo05:16.454+00:45.949Steam
441 Not linkedRenault 5 Turbo05:16.470+00:45.965Xbox
442 kusstomizeRenault 5 Turbo05:16.487+00:45.982PS4
443 pm31 Renault 5 Turbo05:16.520+00:46.150Steam
444 Chipster Renault 5 Turbo05:16.520+00:46.150Steam
445 BATZANARenault 5 Turbo05:16.570+00:46.650PS4
446 HeideJaevenitzRenault 5 Turbo05:16.620+00:46.115PS4
447 Pao44445Renault 5 Turbo05:16.753+00:46.248Steam
448 Schuutje96Renault 5 Turbo05:16.887+00:46.382Xbox
449 jmfalfonsoRenault 5 Turbo05:16.920+00:46.415Steam
450 ST185_Smok3yRenault 5 Turbo05:17.020+00:46.515PS4
451 marcom488Renault 5 Turbo05:17.070+00:46.565Xbox
452 tomtheof Renault 5 Turbo05:17.087+00:46.582Steam
453 puff Renault 5 Turbo05:17.120+00:46.615Steam
454 archi840801Renault 5 Turbo05:17.203+00:46.698PS4
455 lll Renault 5 Turbo05:17.287+00:46.782Steam
456 Raivo-driverRenault 5 Turbo05:17.337+00:46.832PS4
457 RallyKalle73Renault 5 Turbo05:17.337+00:46.832Xbox
458 erynadanRenault 5 Turbo05:17.387+00:46.882PS4
459 MC WRT Renault 5 Turbo05:17.403+00:46.898Steam
460 pirki21junRenault 5 Turbo05:17.420+00:46.915PS4
461 jackesparagowRenault 5 Turbo05:17.421+00:46.916PS4
462 jypelRenault 5 Turbo05:17.503+00:46.998Xbox
463 diyodRenault 5 Turbo05:17.520+00:47.150Steam
464 Beret BaguetteRenault 5 Turbo05:17.587+00:47.820Steam
465 Lee242011Renault 5 Turbo05:17.737+00:47.232Xbox
466 BEACHYY1Renault 5 Turbo05:17.837+00:47.332PS4
467 MadonmaksaRenault 5 Turbo05:17.870+00:47.365Xbox
468 Rafistholer4807Renault 5 Turbo05:18.003+00:47.498PS4
469 Asielu ? Renault 5 Turbo05:18.053+00:47.548Steam
470 Not linkedRenault 5 Turbo05:18.071+00:47.566Xbox
471 hrung Renault 5 Turbo05:18.103+00:47.598Steam
472 Jojo larssouille Renault 5 Turbo05:18.103+00:47.598Steam
473 tr_kshr0420Renault 5 Turbo05:18.120+00:47.615PS4
474 eNraqexxRenault 5 Turbo05:18.120+00:47.615PS4
475 SouthWalesStar_Renault 5 Turbo05:18.137+00:47.632PS4
476 markku85Renault 5 Turbo05:18.153+00:47.648PS4
477 bousatRenault 5 Turbo05:18.203+00:47.698PS4
478 jandro3333210Renault 5 Turbo05:18.237+00:47.732PS4
479 soggycracker123Renault 5 Turbo05:18.320+00:47.815PS4
480 LeDuc31140Renault 5 Turbo05:18.370+00:47.865PS4
481 markb23Renault 5 Turbo05:18.370+00:47.865Xbox
482 GinoBestiaRenault 5 Turbo05:18.471+00:47.966Steam
483 Belfegor1991_PLRenault 5 Turbo05:18.570+00:48.650PS4
484 xdavdav29Renault 5 Turbo05:18.653+00:48.148PS4
485 bermo96 Renault 5 Turbo05:18.670+00:48.165Steam
486 Blacksheep--o_ORenault 5 Turbo05:18.703+00:48.198PS4
487 aitorarizRenault 5 Turbo05:18.737+00:48.232PS4
488 Gabriele92Renault 5 Turbo05:18.770+00:48.265Xbox
489 BeemerbabyRenault 5 Turbo05:18.803+00:48.298PS4
490 fsbhjulRenault 5 Turbo05:18.853+00:48.348PS4
491 CyaanGhoostRenault 5 Turbo05:18.887+00:48.382Steam
492 Iceman_SVKRenault 5 Turbo05:18.903+00:48.398PS4
493 CseBeerRenault 5 Turbo05:18.953+00:48.448PS4
494 RobinS2002Renault 5 Turbo05:18.970+00:48.465PS4
495 siandcianRenault 5 Turbo05:18.970+00:48.465Xbox
496 dkfkdkRenault 5 Turbo05:19.020+00:48.515PS4
497 alewrcRenault 5 Turbo05:19.070+00:48.565PS4
498 CHUBI690Renault 5 Turbo05:19.137+00:48.632Xbox
499 DitaVonLeechRenault 5 Turbo05:19.153+00:48.648Steam
500 KutiRenault 5 Turbo05:19.203+00:48.698Steam
501 tmhewitt84Renault 5 Turbo05:19.220+00:48.715Xbox
502 mitz77Renault 5 Turbo05:19.253+00:48.748PS4
503 lulu54380Renault 5 Turbo05:19.270+00:48.765PS4
504 DuDu7101Renault 5 Turbo05:19.287+00:48.782PS4
505 jlrmaxRenault 5 Turbo05:19.387+00:48.882PS4
506 Lusziboy™Renault 5 Turbo05:19.470+00:48.965Steam
507 Public_Enemy#1 Renault 5 Turbo05:19.487+00:48.982Steam
508 juanito46Renault 5 Turbo05:19.520+00:49.150PS4
509 foudufam Renault 5 Turbo05:19.537+00:49.320Steam
510 Max Power [DPT] Renault 5 Turbo05:19.570+00:49.650Steam
511 LaravelRenault 5 Turbo05:19.637+00:49.132Steam
512 petr076Renault 5 Turbo05:19.753+00:49.248Xbox
513 Dominguez Renault 5 Turbo05:19.770+00:49.265Steam
514 kawaantoRenault 5 Turbo05:19.770+00:49.265PS4
515 midnightstratRenault 5 Turbo05:19.853+00:49.348Xbox
516 TrickyR83Renault 5 Turbo05:19.870+00:49.365PS4
517 asmi7029 Renault 5 Turbo05:19.937+00:49.432Steam
518 AbosRenault 5 Turbo05:19.953+00:49.448Steam
519 DiogoIDRenault 5 Turbo05:20.037+00:49.532PS4
520 cjlloyd Renault 5 Turbo05:20.070+00:49.565Steam
521 Pugh Rogefeldt Renault 5 Turbo05:20.070+00:49.565Steam
522 madmiaoRenault 5 Turbo05:20.087+00:49.582Steam
523 aderaxfiRenault 5 Turbo05:20.170+00:49.665PS4
524 LORRAINE-54Renault 5 Turbo05:20.203+00:49.698PS4
525 EinsZweiRenault 5 Turbo05:20.220+00:49.715Steam
526 Bugo917Renault 5 Turbo05:20.253+00:49.748PS4
527 totodu26740Renault 5 Turbo05:20.270+00:49.765PS4
528 AndrisRenault 5 Turbo05:20.353+00:49.848Steam
529 starvenus64Renault 5 Turbo05:20.353+00:49.848PS4
530 lipo Renault 5 Turbo05:20.387+00:49.882Steam
531 dr_alban72Renault 5 Turbo05:20.387+00:49.882PS4
532 bogget13Renault 5 Turbo05:20.487+00:49.982PS4
533 patrok1207³Renault 5 Turbo05:20.537+00:50.320Steam
534 Robesz76Renault 5 Turbo05:20.537+00:50.320PS4
535 NemeciaRenault 5 Turbo05:20.570+00:50.650PS4
536 springolo11Renault 5 Turbo05:20.587+00:50.820PS4
537 badaboum528Renault 5 Turbo05:20.637+00:50.132PS4
538 Soper11 Renault 5 Turbo05:20.653+00:50.148Steam
539 jeje04111994Renault 5 Turbo05:20.653+00:50.148PS4
540 Wisey Renault 5 Turbo05:20.703+00:50.198Steam
541 Keenius Renault 5 Turbo05:20.753+00:50.248Steam
542 SFStompHUNRenault 5 Turbo05:20.770+00:50.265Xbox
543 Not linkedRenault 5 Turbo05:20.870+00:50.365Xbox
544 Sisuvoima10Renault 5 Turbo05:20.921+00:50.416PS4
545 ahonenhRenault 5 Turbo05:20.970+00:50.465Steam
546 nationalwheel Renault 5 Turbo05:20.970+00:50.465Steam
547 SvoggaRenault 5 Turbo05:21.054+00:50.549Oculus
548 GUMBYNUT6Renault 5 Turbo05:21.137+00:50.632PS4
549 HappYPeppiRenault 5 Turbo05:21.153+00:50.648Steam
550 romain riderRenault 5 Turbo05:21.170+00:50.665Steam
551 sebafc88Renault 5 Turbo05:21.170+00:50.665PS4
552 markbass Renault 5 Turbo05:21.187+00:50.682Steam
553 Chrismus Renault 5 Turbo05:21.287+00:50.782Steam
554 Al3crinRenault 5 Turbo05:21.287+00:50.782Steam
555 vancouverhockeyRenault 5 Turbo05:21.287+00:50.782PS4
556 juliodelafigueraRenault 5 Turbo05:21.320+00:50.815PS4
557 LapaputziRenault 5 Turbo05:21.320+00:50.815Xbox
558 dahrec Renault 5 Turbo05:21.387+00:50.882Steam
559 raipe478Renault 5 Turbo05:21.537+00:51.320PS4
560 happo Renault 5 Turbo05:21.620+00:51.115Steam
561 veebelRenault 5 Turbo05:21.620+00:51.115PS4
562 olive-62Renault 5 Turbo05:21.703+00:51.198PS4
563 murcianico87Renault 5 Turbo05:21.720+00:51.215PS4
564 Karppa Renault 5 Turbo05:21.787+00:51.282Steam
565 Not linkedRenault 5 Turbo05:21.870+00:51.365Xbox
566 jandar2Renault 5 Turbo05:21.970+00:51.465Steam
567 kostik870Renault 5 Turbo05:21.970+00:51.465Steam
568 magicgogt Renault 5 Turbo05:22.137+00:51.632Steam
569 clem_la-flecheRenault 5 Turbo05:22.153+00:51.648PS4
570 JustyFSRenault 5 Turbo05:22.220+00:51.715PS4
571 Howard_AJRenault 5 Turbo05:22.221+00:51.716PS4
572 DoDgErSwE Renault 5 Turbo05:22.270+00:51.765Steam
573 excalibur77Renault 5 Turbo05:22.287+00:51.782PS4
574 QorioxRenault 5 Turbo05:22.287+00:51.782PS4
575 Tipa Renault 5 Turbo05:22.337+00:51.832Steam
576 C-art-toon Renault 5 Turbo05:22.403+00:51.898Steam
577 cwdriftkingRenault 5 Turbo05:22.403+00:51.898Xbox
578 mateogirault45Renault 5 Turbo05:22.420+00:51.915PS4
579 CarlosSantos87Renault 5 Turbo05:22.453+00:51.948Xbox
580 Bishops Toenail Renault 5 Turbo05:22.487+00:51.982Steam
581 [Group B] vadja.tuzRenault 5 Turbo05:22.487+00:51.982Steam
582 Major Renault 5 Turbo05:22.520+00:52.150Steam
583 evodream93Renault 5 Turbo05:22.520+00:52.150Xbox
584 AlfettaGTVRenault 5 Turbo05:22.587+00:52.820PS4
585 the.fade Renault 5 Turbo05:22.620+00:52.115Steam
586 florent.moulinRenault 5 Turbo05:22.620+00:52.115Steam
587 vickolfc Renault 5 Turbo05:22.653+00:52.148Steam
588 peralvo1993Renault 5 Turbo05:22.653+00:52.148PS4
589 Jason-Blaz17Renault 5 Turbo05:22.720+00:52.215PS4
590 FiredcylinderRenault 5 Turbo05:22.803+00:52.298Steam
591 McRae_555_Renault 5 Turbo05:22.837+00:52.332PS4
592 pitivier42Renault 5 Turbo05:22.887+00:52.382PS4
593 bad-egg99Renault 5 Turbo05:22.920+00:52.415PS4
594 SimonF Renault 5 Turbo05:23.020+00:52.515Steam
595 Not linkedRenault 5 Turbo05:23.020+00:52.515Xbox
596 CTDDLeffeRenault 5 Turbo05:23.137+00:52.632Steam
597 Pinokkio44Renault 5 Turbo05:23.137+00:52.632PS4
598 Moi65AMGRenault 5 Turbo05:23.137+00:52.632PS4
599 andresdcwRenault 5 Turbo05:23.187+00:52.682PS4
600 Penfold_75Renault 5 Turbo05:23.220+00:52.715PS4
601 Phileb77Renault 5 Turbo05:23.270+00:52.765Xbox
602 Gabe BF Renault 5 Turbo05:23.303+00:52.798Steam
603 massimoeleRenault 5 Turbo05:23.337+00:52.832PS4
604 blackkor Renault 5 Turbo05:23.353+00:52.848Steam
605 Sinoan85Renault 5 Turbo05:23.353+00:52.848PS4
606 RedEye_TumuRenault 5 Turbo05:23.370+00:52.865Steam
607 Mechmonkey Renault 5 Turbo05:23.403+00:52.898Steam
608 oddziall_speciallRenault 5 Turbo05:23.403+00:52.898Steam
609 alexanderustinovRenault 5 Turbo05:23.437+00:52.932PS4
610 apo-001budapestRenault 5 Turbo05:23.437+00:52.932PS4
611 tiocoukRenault 5 Turbo05:23.453+00:52.948PS4
612 DMaGGaaaarRenault 5 Turbo05:23.470+00:52.965PS4
613 Becks_Hunter Renault 5 Turbo05:23.503+00:52.998Steam
614 anton263Renault 5 Turbo05:23.503+00:52.998PS4
615 NeonRenault 5 Turbo05:23.537+00:53.320Steam
616 Not linkedRenault 5 Turbo05:23.570+00:53.650Xbox
617 Not linkedRenault 5 Turbo05:23.587+00:53.820Xbox
618 Calculated Renault 5 Turbo05:23.820+00:53.315Steam
619 xdrivarRenault 5 Turbo05:23.820+00:53.315Xbox
620 ROMAIN17440RRenault 5 Turbo05:23.854+00:53.349PS4
621 FenderAxeMan Renault 5 Turbo05:23.870+00:53.365Steam
622 R1-PapucheRenault 5 Turbo05:23.887+00:53.382PS4
623 J. TörngrenRenault 5 Turbo05:23.970+00:53.465Steam
624 pagela93Renault 5 Turbo05:24.053+00:53.548PS4
625 pit_sz5car_plRenault 5 Turbo05:24.087+00:53.582PS4
626 SilverDuskRenault 5 Turbo05:24.087+00:53.582Xbox
627 Not linkedRenault 5 Turbo05:24.103+00:53.598Xbox
628 yarside Renault 5 Turbo05:24.220+00:53.715Steam
629 jaylikeswaffels Renault 5 Turbo05:24.237+00:53.732Steam
630 matheyanyanRenault 5 Turbo05:24.237+00:53.732PS4
631 MacManagerRenault 5 Turbo05:24.237+00:53.732PS4
632 Fitter22M4Renault 5 Turbo05:24.253+00:53.748Steam
633 Xr0nnyhXRenault 5 Turbo05:24.287+00:53.782PS4
634 CHRISSYDRenault 5 Turbo05:24.303+00:53.798Xbox
635 krmobilRenault 5 Turbo05:24.303+00:53.798Xbox
636 Tistouu15Renault 5 Turbo05:24.320+00:53.815PS4
637 Livs313Renault 5 Turbo05:24.320+00:53.815PS4
638 bofinkRenault 5 Turbo05:24.337+00:53.832PS4
639 playsenfoxRenault 5 Turbo05:24.387+00:53.882PS4
640 DiRT-81787Renault 5 Turbo05:24.420+00:53.915PS4
641 daniel19920427Renault 5 Turbo05:24.453+00:53.948PS4
642 CurlyBob Renault 5 Turbo05:24.470+00:53.965Steam
643 N_neo_CRenault 5 Turbo05:24.487+00:53.982PS4
644 robnitro Renault 5 Turbo05:24.503+00:53.998Steam
645 Alejo_FL96Renault 5 Turbo05:24.503+00:53.998PS4
646 PrummzessinRenault 5 Turbo05:24.503+00:53.998PS4
647 WorldRallyFanRenault 5 Turbo05:24.504+00:53.999Steam
648 PetskeeRenault 5 Turbo05:24.520+00:54.150Steam
649 ResationRenault 5 Turbo05:24.553+00:54.480PS4
650 Oeil de Lynx Renault 5 Turbo05:24.603+00:54.980Steam
651 inet.email (DE-NRW-LIP)Renault 5 Turbo05:24.670+00:54.165Steam
652 boknugRenault 5 Turbo05:24.703+00:54.198PS4
653 xX-Espi-XxRenault 5 Turbo05:24.703+00:54.198PS4
654 gregos75011Renault 5 Turbo05:24.753+00:54.248PS4
655 BlonquisRenault 5 Turbo05:24.920+00:54.415PS4
656 Jennifer2403Renault 5 Turbo05:24.953+00:54.448PS4
657 NAERNONRenault 5 Turbo05:24.987+00:54.482Steam
658 BakkokkaB667Renault 5 Turbo05:24.987+00:54.482Xbox
659 nasosapRenault 5 Turbo05:25.070+00:54.565Steam
660 oskitar80Renault 5 Turbo05:25.220+00:54.715Xbox
661 Jo1681Renault 5 Turbo05:25.236+00:54.731PS4
662 LADAKL Renault 5 Turbo05:25.253+00:54.748Steam
663 PeterSnakeRenault 5 Turbo05:25.270+00:54.765Steam
664 ?Jam™? Renault 5 Turbo05:25.303+00:54.798Steam
665 ZoretmloufRenault 5 Turbo05:25.303+00:54.798PS4
666 H[ei]T Renault 5 Turbo05:25.336+00:54.831Steam
667 claudio87casaliRenault 5 Turbo05:25.353+00:54.848PS4
668 litwarskiRenault 5 Turbo05:25.370+00:54.865Steam
669 TxusjaioRenault 5 Turbo05:25.370+00:54.865Xbox
670 MaDsCoUsE1878Renault 5 Turbo05:25.536+00:55.310PS4
671 Honda_i-VTECRenault 5 Turbo05:25.553+00:55.480PS4
672 toba1976 Renault 5 Turbo05:25.570+00:55.650Steam
673 EspekRenault 5 Turbo05:25.570+00:55.650Steam
674 CommanderDetlefRenault 5 Turbo05:25.636+00:55.131Steam
675 DiKo_RuSRenault 5 Turbo05:25.653+00:55.148PS4
676 DJWRenault 5 Turbo05:25.753+00:55.248Steam
677 warthog2010Renault 5 Turbo05:25.803+00:55.298PS4
678 MartinoFrajkyRenault 5 Turbo05:25.820+00:55.315PS4
679 MariusPLRenault 5 Turbo05:25.836+00:55.331Steam
680 ryanl133Renault 5 Turbo05:25.870+00:55.365Xbox
681 GTgameplayTime Renault 5 Turbo05:25.903+00:55.398Steam
682 ButterschnitteRenault 5 Turbo05:25.920+00:55.415Steam
683 JohannRenault 5 Turbo05:25.936+00:55.431Steam
684 BiggumsRenault 5 Turbo05:25.954+00:55.449Steam
685 darth_chocolateRenault 5 Turbo05:25.970+00:55.465Steam
686 neirapowerRenault 5 Turbo05:25.970+00:55.465PS4
687 [QNT] Valentin77 Renault 5 Turbo05:26.003+00:55.498Steam
688 RHINO FRXRenault 5 Turbo05:26.003+00:55.498Steam
689 automan24Renault 5 Turbo05:26.053+00:55.548PS4
690 Olm2003Renault 5 Turbo05:26.103+00:55.598Xbox
691 B4Z1N64Renault 5 Turbo05:26.120+00:55.615PS4
692 Handy_CapRenault 5 Turbo05:26.203+00:55.698PS4
693 veltsu73Renault 5 Turbo05:26.204+00:55.699PS4
694 prevotRenault 5 Turbo05:26.253+00:55.748Xbox
695 baloo1266Renault 5 Turbo05:26.270+00:55.765PS4
696 Billy_Biig_BallsRenault 5 Turbo05:26.286+00:55.781PS4
697 bak--kamonRenault 5 Turbo05:26.303+00:55.798Steam
698 gillounet83Renault 5 Turbo05:26.353+00:55.848Steam
699 mchlhoff Renault 5 Turbo05:26.353+00:55.848Steam
700 B.NEVEU Renault 5 Turbo05:26.420+00:55.915Steam
701 SpeeDManiac Renault 5 Turbo05:26.420+00:55.915Steam
702 PapaKingaRenault 5 Turbo05:26.436+00:55.931PS4
703 barrydoran76Renault 5 Turbo05:26.453+00:55.948Xbox
704 Not linkedRenault 5 Turbo05:26.453+00:55.948Xbox
705 BuchipRenault 5 Turbo05:26.536+00:56.310PS4
706 pepichzoliRenault 5 Turbo05:26.553+00:56.480Steam
707 Karsten90Renault 5 Turbo05:26.570+00:56.650Xbox
708 alf11973Renault 5 Turbo05:26.636+00:56.131PS4
709 filipe_8305Renault 5 Turbo05:26.670+00:56.165Steam
710 denim Renault 5 Turbo05:26.686+00:56.181Steam
711 domy4591Renault 5 Turbo05:26.686+00:56.181Xbox
712 ST182RRenault 5 Turbo05:26.736+00:56.231Xbox
713 choubon27Renault 5 Turbo05:26.753+00:56.248Steam
714 ToastRenault 5 Turbo05:26.753+00:56.248Steam
715 minpucherRenault 5 Turbo05:26.770+00:56.265PS4
716 DougRenault 5 Turbo05:26.836+00:56.331Steam
717 britishchampionRenault 5 Turbo05:26.837+00:56.332Xbox
718 Kasius_KleinRenault 5 Turbo05:26.870+00:56.365Steam
719 soaphawtin6Renault 5 Turbo05:26.886+00:56.381PS4
720 Filipe Renault 5 Turbo05:26.953+00:56.448Steam
721 yotuylosdemasRenault 5 Turbo05:27.003+00:56.498PS4
722 kirk1507Renault 5 Turbo05:27.053+00:56.548Steam
723 corradinhoRenault 5 Turbo05:27.153+00:56.648Steam
724 GaXieRRenault 5 Turbo05:27.186+00:56.681Xbox
725 saxerr Renault 5 Turbo05:27.220+00:56.715Steam
726 filopuces19Renault 5 Turbo05:27.253+00:56.748PS4
727 fk Renault 5 Turbo05:27.270+00:56.765Steam
728 xFunzelxRenault 5 Turbo05:27.453+00:56.948Xbox
729 scip4321Renault 5 Turbo05:27.470+00:56.965PS4
730 NEIGI-44Renault 5 Turbo05:27.470+00:56.965PS4
731 guillaume_devosRenault 5 Turbo05:27.486+00:56.981PS4
732 samonkelRenault 5 Turbo05:27.520+00:57.150Steam
733 frayman707Renault 5 Turbo05:27.520+00:57.150PS4
734 Svenos Alk poulpo Renault 5 Turbo05:27.553+00:57.480Steam
735 SpazldRust Renault 5 Turbo05:27.586+00:57.810Steam
736 GeorgeFury510Renault 5 Turbo05:27.620+00:57.115PS4
737 beef289Renault 5 Turbo05:27.636+00:57.131Xbox
738 3aPa3a Renault 5 Turbo05:27.670+00:57.165Steam
739 aitorscratchRenault 5 Turbo05:27.703+00:57.198Steam
740 x42 Renault 5 Turbo05:27.753+00:57.248Steam
741 karddockRenault 5 Turbo05:27.786+00:57.281PS4
742 WortenkRenault 5 Turbo05:27.820+00:57.315Steam
743 GaryKariRenault 5 Turbo05:27.870+00:57.365PS4
744 pro_quem Renault 5 Turbo05:27.920+00:57.415Steam
745 SHA_DOW33Renault 5 Turbo05:27.970+00:57.465PS4
746 Rui C Martins Renault 5 Turbo05:28.004+00:57.499Steam
747 BrunchenLurkerRenault 5 Turbo05:28.020+00:57.515PS4
748 tyger31 Renault 5 Turbo05:28.036+00:57.531Steam
749 WELLUMAXRenault 5 Turbo05:28.053+00:57.548PS4
750 samu_celtinha8Renault 5 Turbo05:28.053+00:57.548PS4
751 Not linkedRenault 5 Turbo05:28.086+00:57.581Xbox
752 Drifty Renault 5 Turbo05:28.136+00:57.631Steam
753 Bas Rodriguez Renault 5 Turbo05:28.170+00:57.665Steam
754 ReesWAFCRenault 5 Turbo05:28.170+00:57.665PS4
755 Krysfergie Renault 5 Turbo05:28.203+00:57.698Steam
756 ChristiaanBril35Renault 5 Turbo05:28.203+00:57.698PS4
757 dwajtpgjujhRenault 5 Turbo05:28.236+00:57.731PS4
758 Olegovi4Renault 5 Turbo05:28.286+00:57.781PS4
759 ramsossRenault 5 Turbo05:28.353+00:57.848Xbox
760 funky.sandwich Renault 5 Turbo05:28.386+00:57.881Steam
761 63. Mikael BergstenRenault 5 Turbo05:28.404+00:57.899Steam
762 dino Renault 5 Turbo05:28.420+00:57.915Steam
763 KomenaRenault 5 Turbo05:28.436+00:57.931Steam
764 MrChris_THFCRenault 5 Turbo05:28.453+00:57.948PS4
765 valexis2010Renault 5 Turbo05:28.454+00:57.949PS4
766 Battn1328Renault 5 Turbo05:28.470+00:57.965PS4
767 Rocketman2112Renault 5 Turbo05:28.553+00:58.480Xbox
768 el_guever78Renault 5 Turbo05:28.586+00:58.810PS4
769 ClioMaxiTurboRenault 5 Turbo05:28.620+00:58.115PS4
770 Not linkedRenault 5 Turbo05:28.653+00:58.148Xbox
771 dozydoRenault 5 Turbo05:28.670+00:58.165PS4
772 yidupnorthRenault 5 Turbo05:28.686+00:58.181PS4
773 Black_Cat_7Renault 5 Turbo05:28.770+00:58.265PS4
774 fahemihoRenault 5 Turbo05:28.770+00:58.265PS4
775 thebmxeur Renault 5 Turbo05:28.820+00:58.315Steam
776 Pierro_mtpRenault 5 Turbo05:28.820+00:58.315PS4
777 TruesteperRenault 5 Turbo05:28.853+00:58.348PS4
778 magoo777Renault 5 Turbo05:28.886+00:58.381PS4
779 rHu Renault 5 Turbo05:28.920+00:58.415Steam
780 Not linkedRenault 5 Turbo05:28.936+00:58.431Xbox
781 DKW81Renault 5 Turbo05:28.970+00:58.465PS4
782 Guillaume88Renault 5 Turbo05:28.970+00:58.465Xbox
783 CharlouuMltRenault 5 Turbo05:29.003+00:58.498PS4
784 ERock Renault 5 Turbo05:29.020+00:58.515Steam
785 SchtroumpfRenault 5 Turbo05:29.053+00:58.548Steam
786 KFC_Racing_Team_Renault 5 Turbo05:29.086+00:58.581PS4
787 NnabiscaRenault 5 Turbo05:29.086+00:58.581Xbox
788 MarcRenault 5 Turbo05:29.136+00:58.631Steam
789 papy83 Renault 5 Turbo05:29.186+00:58.681Steam
790 GromranRenault 5 Turbo05:29.186+00:58.681Steam
791 MOVANORenault 5 Turbo05:29.186+00:58.681PS4
792 harrirantalaRenault 5 Turbo05:29.303+00:58.798PS4
793 plechovkaSVKRenault 5 Turbo05:29.336+00:58.831Steam
794 Heco12Renault 5 Turbo05:29.353+00:58.848PS4
795 Not linkedRenault 5 Turbo05:29.353+00:58.848Xbox
796 Filda6_CZRenault 5 Turbo05:29.403+00:58.898PS4
797 Not linkedRenault 5 Turbo05:29.403+00:58.898Xbox
798 29manzgladeRenault 5 Turbo05:29.420+00:58.915Steam
799 airforceA-564Renault 5 Turbo05:29.470+00:58.965PS4
800 Jul178Renault 5 Turbo05:29.486+00:58.981PS4
801 pedro3434Renault 5 Turbo05:29.503+00:58.998PS4
802 reeqRenault 5 Turbo05:29.520+00:59.150Steam
803 aya77Renault 5 Turbo05:29.520+00:59.150PS4
804 TanyMaxRenault 5 Turbo05:29.570+00:59.650PS4
805 PereCat Renault 5 Turbo05:29.620+00:59.115Steam
806 olivier2A30Renault 5 Turbo05:29.620+00:59.115PS4
807 stanomaster Renault 5 Turbo05:29.636+00:59.131Steam
808 72. M. Hermansson Renault 5 Turbo05:29.670+00:59.165Steam
809 house Renault 5 Turbo05:29.686+00:59.181Steam
810 muggle07Renault 5 Turbo05:29.686+00:59.181PS4
811 spectr32940Renault 5 Turbo05:29.720+00:59.215PS4
812 MICH4EL-ANGE54Renault 5 Turbo05:29.720+00:59.215PS4
813 jonesy65582Renault 5 Turbo05:29.836+00:59.331PS4
814 Rhubarbe_Renault 5 Turbo05:29.853+00:59.348PS4
815 REMRenault 5 Turbo05:29.870+00:59.365Steam
816 SanozZRenault 5 Turbo05:29.870+00:59.365Steam
817 T_SHIVE_2CLUTCHRenault 5 Turbo05:29.870+00:59.365PS4
818 lhacen42Renault 5 Turbo05:29.886+00:59.381PS4
819 Henry_WarnimonRenault 5 Turbo05:29.886+00:59.381PS4
820 UNLEASHED256Renault 5 Turbo05:29.903+00:59.398PS4
821 babastvr6Renault 5 Turbo05:29.903+00:59.398PS4
822 AlexnenonRenault 5 Turbo05:29.936+00:59.431PS4
823 CapbwfcRenault 5 Turbo05:29.970+00:59.465PS4
824 Pat_RoyUsedRoidsRenault 5 Turbo05:30.003+00:59.498PS4
825 H@rd Drivin' Renault 5 Turbo05:30.020+00:59.515Steam
826 Nytefyre Renault 5 Turbo05:30.086+00:59.581Steam
827 SoftimoRenault 5 Turbo05:30.086+00:59.581Steam
828 soto_3000Renault 5 Turbo05:30.120+00:59.615PS4
829 Husky Musician Renault 5 Turbo05:30.386+00:59.881Steam
830 oncleJESSRenault 5 Turbo05:30.453+00:59.948PS4
831 MGJGCGLGRenault 5 Turbo05:30.570+1:00.650PS4
832 matti.immonenRenault 5 Turbo05:30.586+1:00.810Steam
833 chemu08Renault 5 Turbo05:30.653+1:00.148PS4
834 lucasljungbackRenault 5 Turbo05:30.653+1:00.148Xbox
835 manos_m75Renault 5 Turbo05:30.686+1:00.181PS4
836 epik5Renault 5 Turbo05:30.720+1:00.215Steam
837 apple125sxRenault 5 Turbo05:30.754+1:00.249PS4
838 IIRenault 5 Turbo05:30.770+1:00.265Steam
839 BRINKMANN333Renault 5 Turbo05:30.786+1:00.281PS4
840 aron Renault 5 Turbo05:30.836+1:00.331Steam
841 G0_RDRenault 5 Turbo05:30.836+1:00.331PS4
842 BeNSaNTuCCiRenault 5 Turbo05:30.853+1:00.348Xbox
843 SuP_MaRuRenault 5 Turbo05:30.870+1:00.365PS4
844 Discente Renault 5 Turbo05:30.936+1:00.431Steam
845 kazu Renault 5 Turbo05:30.936+1:00.431Steam
846 belirohcRenault 5 Turbo05:30.970+1:00.465Steam
847 ludwan2002Renault 5 Turbo05:30.970+1:00.465PS4
848 vevers Renault 5 Turbo05:30.986+1:00.481Steam
849 rafacastillogilRenault 5 Turbo05:30.986+1:00.481PS4
850 CASCA197CVRenault 5 Turbo05:30.986+1:00.481PS4
851 clamasticoRenault 5 Turbo05:31.003+1:00.498PS4
852 m800ieRenault 5 Turbo05:31.003+1:00.498PS4
853 therealdeadoneRenault 5 Turbo05:31.003+1:00.498PS4
854 Siegi Gradt Renault 5 Turbo05:31.020+1:00.515Steam
855 yorchVERenault 5 Turbo05:31.020+1:00.515PS4
856 Xylo-keinRenault 5 Turbo05:31.136+1:00.631PS4
857 luchino8212Renault 5 Turbo05:31.136+1:00.631PS4
858 NielsVdV Renault 5 Turbo05:31.153+1:00.648Steam
859 Jonog53Renault 5 Turbo05:31.253+1:00.748PS4
860 gilbertoconcertoRenault 5 Turbo05:31.253+1:00.748PS4
861 BasilicSangsu0Renault 5 Turbo05:31.370+1:00.865Steam
862 demon_1985Renault 5 Turbo05:31.370+1:00.865Steam
863 Jesibo9Renault 5 Turbo05:31.386+1:00.881PS4
864 Sqnner Renault 5 Turbo05:31.403+1:00.898Steam
865 space-trucker-1Renault 5 Turbo05:31.403+1:00.898PS4
866 LightFast97OneRenault 5 Turbo05:31.420+1:00.915PS4
867 Smoki7776Renault 5 Turbo05:31.436+1:00.931PS4
868 edd1eJ0RD4NRenault 5 Turbo05:31.470+1:00.965PS4
869 Not linkedRenault 5 Turbo05:31.553+1:01.480Xbox
870 matthieu.tison Renault 5 Turbo05:31.686+1:01.181Steam
871 BigHuubDogg1979Renault 5 Turbo05:31.753+1:01.248PS4
872 Starscream_1977Renault 5 Turbo05:31.786+1:01.281PS4
873 lgkills Renault 5 Turbo05:31.870+1:01.365Steam
874 GeyserRenault 5 Turbo05:31.953+1:01.448Steam
875 WWWowan1968Rus59 Renault 5 Turbo05:31.986+1:01.481Steam
876 /\k/\r74Renault 5 Turbo05:31.986+1:01.481Steam
877 pdubpdubRenault 5 Turbo05:32.003+1:01.498Xbox
878 SerCaesarRenault 5 Turbo05:32.003+1:01.498Xbox
879 A Jas SoufritoRenault 5 Turbo05:32.036+1:01.531Steam
880 bjfreestyleRenault 5 Turbo05:32.136+1:01.631PS4
881 TimDC369Renault 5 Turbo05:32.137+1:01.632PS4
882 vgikas1Renault 5 Turbo05:32.186+1:01.681PS4
883 AJFalconRenault 5 Turbo05:32.203+1:01.698PS4
884 LegendRenault 5 Turbo05:32.270+1:01.765Steam
885 samii1990Renault 5 Turbo05:32.286+1:01.781PS4
886 Jacky ZedRenault 5 Turbo05:32.353+1:01.848Steam
887 bramRenault 5 Turbo05:32.403+1:01.898Steam
888 trottolino3Renault 5 Turbo05:32.486+1:01.981PS4
889 E³ (aka Eiii) Renault 5 Turbo05:32.503+1:01.998Steam
890 Madnoren Renault 5 Turbo05:32.553+1:02.480Steam
891 (Global-Shipping-UK)Andy#45 Renault 5 Turbo05:32.620+1:02.115Steam
892 JackTriumphRenault 5 Turbo05:32.620+1:02.115PS4
893 Domino-33_Renault 5 Turbo05:32.653+1:02.148PS4
894 McBengRenault 5 Turbo05:32.686+1:02.181Steam
895 Shadornet_HDRenault 5 Turbo05:32.703+1:02.198PS4
896 R0YKING59Renault 5 Turbo05:32.703+1:02.198Xbox
897 oliv822Renault 5 Turbo05:32.720+1:02.215PS4
898 cedricnice13Renault 5 Turbo05:32.720+1:02.215Xbox
899 letsigueyuiRenault 5 Turbo05:32.736+1:02.231Steam
900 SexyDino Renault 5 Turbo05:32.770+1:02.265Steam
901 mat Renault 5 Turbo05:32.787+1:02.282Steam
902 o0-THEOLUCAS-0oRenault 5 Turbo05:32.836+1:02.331PS4
903 Pol_toX Renault 5 Turbo05:32.986+1:02.481Steam
904 pleonoy2Renault 5 Turbo05:33.036+1:02.531Steam
905 kertvaRenault 5 Turbo05:33.036+1:02.531PS4
906 matapuposRenault 5 Turbo05:33.053+1:02.548Xbox
907 Not linkedRenault 5 Turbo05:33.120+1:02.615Xbox
908 yama-gt-r-yamaRenault 5 Turbo05:33.136+1:02.631PS4
909 TrokieRenault 5 Turbo05:33.136+1:02.631PS4
910 kedra0p1Renault 5 Turbo05:33.153+1:02.648Steam
911 TigratoFWCRenault 5 Turbo05:33.153+1:02.648PS4
912 ykw105Renault 5 Turbo05:33.170+1:02.665PS4
913 giulygiulyRenault 5 Turbo05:33.186+1:02.681PS4
914 Not linkedRenault 5 Turbo05:33.220+1:02.715Xbox
915 Specter Renault 5 Turbo05:33.253+1:02.748Steam
916 AcidRenault 5 Turbo05:33.270+1:02.765Steam
917 Turzum1 Renault 5 Turbo05:33.286+1:02.781Steam
918 slipperywinkleRenault 5 Turbo05:33.320+1:02.815PS4
919 syou007001Renault 5 Turbo05:33.320+1:02.815PS4
920 Lasse Ahlin Renault 5 Turbo05:33.353+1:02.848Steam
921 Defender1984Renault 5 Turbo05:33.353+1:02.848Xbox
922 nico93martyRenault 5 Turbo05:33.403+1:02.898PS4
923 isabelijosepRenault 5 Turbo05:33.436+1:02.931PS4
924 The_nasty_one Renault 5 Turbo05:33.487+1:02.982Steam
925 Bobo Renault 5 Turbo05:33.503+1:02.998Steam
926 arnau_r3Renault 5 Turbo05:33.536+1:03.310PS4
927 tom_ata66Renault 5 Turbo05:33.569+1:03.640PS4
928 garycarr14 Renault 5 Turbo05:33.619+1:03.114Steam
929 Tony_I7_Renault 5 Turbo05:33.719+1:03.214PS4
930 CatlingGunRenault 5 Turbo05:33.736+1:03.231Steam
931 gringo07 Renault 5 Turbo05:33.769+1:03.264Steam
932 mellonRenault 5 Turbo05:33.820+1:03.315Steam
933 maman123Renault 5 Turbo05:33.953+1:03.448Xbox
934 Speedy25 Renault 5 Turbo05:34.069+1:03.564Steam
935 superconnardRED Renault 5 Turbo05:34.087+1:03.582Steam
936 viavalliRenault 5 Turbo05:34.136+1:03.631PS4
937 astott66 Renault 5 Turbo05:34.153+1:03.648Steam
938 madfabRenault 5 Turbo05:34.153+1:03.648Xbox
939 Atiwrc75Renault 5 Turbo05:34.219+1:03.714Xbox
940 Not linkedRenault 5 Turbo05:34.286+1:03.781Xbox
941 amodasRenault 5 Turbo05:34.369+1:03.864Steam
942 suomisisu1Renault 5 Turbo05:34.369+1:03.864PS4
943 llopa13Renault 5 Turbo05:34.403+1:03.898Xbox
944 lucas_menneRenault 5 Turbo05:34.453+1:03.948PS4
945 ljj4378 Renault 5 Turbo05:34.503+1:03.998Steam
946 Davey BoyRenault 5 Turbo05:34.536+1:04.310Steam
947 OvacRenault 5 Turbo05:34.569+1:04.640PS4
948 ChesssterrrRenault 5 Turbo05:34.619+1:04.114PS4
949 MackdaddyO_1965Renault 5 Turbo05:34.769+1:04.264PS4
950 evotronmix Renault 5 Turbo05:34.853+1:04.348Steam
951 JordiClioRacingRenault 5 Turbo05:34.886+1:04.381PS4
952 luislrRenault 5 Turbo05:34.919+1:04.414Steam
953 evhopRenault 5 Turbo05:34.919+1:04.414PS4
954 bogus1983 Renault 5 Turbo05:34.986+1:04.481Steam
955 thesikoRenault 5 Turbo05:35.053+1:04.548Xbox
956 shilkasRenault 5 Turbo05:35.069+1:04.564PS4
957 elhombrebala79Renault 5 Turbo05:35.086+1:04.581PS4
958 <3Jim Jones Renault 5 Turbo05:35.119+1:04.614Steam
959 two_old4thispooRenault 5 Turbo05:35.119+1:04.614PS4
960 Carzz075Renault 5 Turbo05:35.136+1:04.631PS4
961 Sikor_Wawa_PLRenault 5 Turbo05:35.136+1:04.631PS4
962 joh Renault 5 Turbo05:35.153+1:04.648Steam
963 marek Renault 5 Turbo05:35.169+1:04.664Steam
964 LexRenault 5 Turbo05:35.203+1:04.698Steam
965 TONIGTT5Renault 5 Turbo05:35.203+1:04.698PS4
966 pudukuRenault 5 Turbo05:35.220+1:04.715Steam
967 fiskarfarfarRenault 5 Turbo05:35.253+1:04.748PS4
968 doums77Renault 5 Turbo05:35.303+1:04.798PS4
969 Lukars Renault 5 Turbo05:35.320+1:04.815Steam
970 XxCelliLivexXRenault 5 Turbo05:35.386+1:04.881PS4
971 artem9000Renault 5 Turbo05:35.419+1:04.914PS4
972 toscano741Renault 5 Turbo05:35.436+1:04.931PS4
973 pimpMpowerRenault 5 Turbo05:35.453+1:04.948Xbox
974 Not linkedRenault 5 Turbo05:35.469+1:04.964Xbox
975 ripar31Renault 5 Turbo05:35.486+1:04.981PS4
976 The Best Games Renault 5 Turbo05:35.553+1:05.480Steam
977 fabiofcpRenault 5 Turbo05:35.553+1:05.480PS4
978 bookie_brandrisRenault 5 Turbo05:35.619+1:05.114PS4
979 korsarz_81Renault 5 Turbo05:35.703+1:05.198PS4
980 FourvelRenault 5 Turbo05:35.803+1:05.298Steam
981 Sapphi Renault 5 Turbo05:35.819+1:05.314Steam
982 nielsclydeRenault 5 Turbo05:35.886+1:05.381Steam
983 stoch__555Renault 5 Turbo05:35.886+1:05.381PS4
984 MUGEN WTF Renault 5 Turbo05:35.903+1:05.398Steam
985 DiagorasRenault 5 Turbo05:35.903+1:05.398Xbox
986 gmaq124hRenault 5 Turbo05:35.953+1:05.448Steam
987 sarrazinsteRenault 5 Turbo05:35.953+1:05.448Xbox
988 Erik Larsen Renault 5 Turbo05:35.986+1:05.481Steam
989 MuttzcuttzRenault 5 Turbo05:35.987+1:05.482PS4
990 VonBlare08Renault 5 Turbo05:36.019+1:05.514Xbox
991 ViiKinki Renault 5 Turbo05:36.036+1:05.531Steam
992 yvesnRenault 5 Turbo05:36.053+1:05.548Xbox
993 Sir WolfRenault 5 Turbo05:36.086+1:05.581Steam
994 Flo-the-thugRenault 5 Turbo05:36.169+1:05.664PS4
995 MYK4R Renault 5 Turbo05:36.170+1:05.665Steam
996 alvaroportuga Renault 5 Turbo05:36.203+1:05.698Steam
997 tuningPT95Renault 5 Turbo05:36.219+1:05.714PS4
998 MooltjieRenault 5 Turbo05:36.219+1:05.714PS4
999 dragosbold Renault 5 Turbo05:36.236+1:05.731Steam
1000 cairdoRenault 5 Turbo05:36.353+1:05.848PS4
1001 RicofoutrosRenault 5 Turbo05:36.419+1:05.914PS4
1002 osquitar71Renault 5 Turbo05:36.469+1:05.964PS4
1003 M-Power290692Renault 5 Turbo05:36.553+1:06.480PS4
1004 Not linkedRenault 5 Turbo05:36.569+1:06.640Xbox
1005 Rub1nhoRenault 5 Turbo05:36.736+1:06.231PS4
1006 bolideur1Renault 5 Turbo05:36.753+1:06.248PS4
1007 PandelaZRenault 5 Turbo05:36.786+1:06.281PS4
1008 Soulja-Wayne782Renault 5 Turbo05:36.803+1:06.298PS4
1009 ford2310Renault 5 Turbo05:36.803+1:06.298PS4
1010 matt.reboulRenault 5 Turbo05:36.853+1:06.348Steam
1011 Not linkedRenault 5 Turbo05:36.969+1:06.464Xbox
1012 Frazzle_McVRenault 5 Turbo05:37.086+1:06.581PS4
1013 antDARenault 5 Turbo05:37.153+1:06.648Xbox
1014 guinounoursRenault 5 Turbo05:37.186+1:06.681PS4
1015 purestvengeanceRenault 5 Turbo05:37.186+1:06.681PS4
1016 kividakiRenault 5 Turbo05:37.186+1:06.681PS4
1017 bigairmrgRenault 5 Turbo05:37.220+1:06.715Xbox
1018 welshyAKAbadboyRenault 5 Turbo05:37.287+1:06.782PS4
1019 dasboot1910Renault 5 Turbo05:37.336+1:06.831PS4
1020 johnypastosRenault 5 Turbo05:37.336+1:06.831PS4
1021 cjstubbs1976Renault 5 Turbo05:37.386+1:06.881PS4
1022 nasika Renault 5 Turbo05:37.436+1:06.931Steam
1023 peugeot205maxiRenault 5 Turbo05:37.469+1:06.964PS4
1024 TchiboRenault 5 Turbo05:37.486+1:06.981PS4
1025 loucas-stiRenault 5 Turbo05:37.487+1:06.982PS4
1026 anthonyRenault 5 Turbo05:37.503+1:06.998Steam
1027 RaykkonenWRCRenault 5 Turbo05:37.519+1:07.140PS4
1028 SathurRocksRenault 5 Turbo05:37.636+1:07.131PS4
1029 SnapCezRenault 5 Turbo05:37.686+1:07.181Xbox
1030 bimbom34 Renault 5 Turbo05:37.687+1:07.182Steam
1031 calystoweRenault 5 Turbo05:37.719+1:07.214PS4
1032 HatmanafroRenault 5 Turbo05:37.736+1:07.231PS4
1033 obilingRenault 5 Turbo05:37.769+1:07.264Xbox
1034 nettopeerRenault 5 Turbo05:37.786+1:07.281PS4
1035 kimi40 Renault 5 Turbo05:37.787+1:07.282Steam
1036 strings6sticks2Renault 5 Turbo05:37.819+1:07.314PS4
1037 Henkka199118Renault 5 Turbo05:37.819+1:07.314Xbox
1038 EVERSMAN9Renault 5 Turbo05:37.903+1:07.398PS4
1039 Killer1979againRenault 5 Turbo05:38.003+1:07.498PS4
1040 EtxabeRenault 5 Turbo05:38.020+1:07.515Steam
1041 saetta976Renault 5 Turbo05:38.036+1:07.531PS4
1042 wigggyRenault 5 Turbo05:38.053+1:07.548Steam
1043 RICRACRenault 5 Turbo05:38.086+1:07.581PS4
1044 bobjawakaRenault 5 Turbo05:38.103+1:07.598Steam
1045 romarco400Renault 5 Turbo05:38.103+1:07.598PS4
1046 Spider-007-Renault 5 Turbo05:38.203+1:07.698PS4
1047 Not linkedRenault 5 Turbo05:38.219+1:07.714Xbox
1048 Not linkedRenault 5 Turbo05:38.220+1:07.715Xbox
1049 DaHouseCaTRenault 5 Turbo05:38.236+1:07.731Steam
1050 HoNey_RebellsRenault 5 Turbo05:38.237+1:07.732PS4
1051 mrtinkgamingRenault 5 Turbo05:38.287+1:07.782Steam
1052 AdyRenault 5 Turbo05:38.336+1:07.831Steam
1053 SCHTUKERRenault 5 Turbo05:38.336+1:07.831PS4
1054 DACK-6_Renault 5 Turbo05:38.336+1:07.831PS4
1055 chr2d2 Renault 5 Turbo05:38.369+1:07.864Steam
1056 Space MonstersRenault 5 Turbo05:38.403+1:07.898Steam
1057 cruchot62Renault 5 Turbo05:38.536+1:08.310PS4
1058 baqueiromotorsport Renault 5 Turbo05:38.569+1:08.640Steam
1059 volksbobRenault 5 Turbo05:38.586+1:08.810PS4
1060 joseluisg1981Renault 5 Turbo05:38.586+1:08.810PS4
1061 Hitting50Renault 5 Turbo05:38.669+1:08.164Xbox
1062 AnegloPlzRenault 5 Turbo05:38.703+1:08.198Steam
1063 kwKB24Renault 5 Turbo05:38.753+1:08.248PS4
1064 ninja900rr Renault 5 Turbo05:38.786+1:08.281Steam
1065 y654rtyhgfdRenault 5 Turbo05:38.837+1:08.332PS4
1066 TANOS59Renault 5 Turbo05:38.886+1:08.381PS4
1067 joogie88Renault 5 Turbo05:38.903+1:08.398Steam
1068 jad02f1990Renault 5 Turbo05:38.903+1:08.398PS4
1069 Not linkedRenault 5 Turbo05:38.919+1:08.414Xbox
1070 teixeira8970Renault 5 Turbo05:39.053+1:08.548Steam
1071 jmamiranda22Renault 5 Turbo05:39.069+1:08.564PS4
1072 buckNasty665Renault 5 Turbo05:39.136+1:08.631PS4
1073 Youngtimer85 Renault 5 Turbo05:39.169+1:08.664Steam
1074 Naaaaaaa Renault 5 Turbo05:39.219+1:08.714Steam
1075 Not linkedRenault 5 Turbo05:39.236+1:08.731Xbox
1076 cesardmcRenault 5 Turbo05:39.253+1:08.748PS4
1077 RamRenault 5 Turbo05:39.269+1:08.764Steam
1078 samcro13-27Renault 5 Turbo05:39.319+1:08.814PS4
1079 serotonotRenault 5 Turbo05:39.336+1:08.831Steam
1080 DreamyElfRenault 5 Turbo05:39.386+1:08.881PS4
1081 team-racingRenault 5 Turbo05:39.403+1:08.898PS4
1082 Eh_CodesRenault 5 Turbo05:39.419+1:08.914Steam
1083 Svensson75Renault 5 Turbo05:39.586+1:09.810PS4
1084 Icecream07000Renault 5 Turbo05:39.586+1:09.810PS4
1085 JoeyVomit666Renault 5 Turbo05:39.586+1:09.810PS4
1086 Rally Renault 5 Turbo05:39.603+1:09.980Steam
1087 benoit713Renault 5 Turbo05:39.653+1:09.148Xbox
1088 AktrasRenault 5 Turbo05:39.719+1:09.214Steam
1089 fanime2Renault 5 Turbo05:39.753+1:09.248PS4
1090 bramsilRenault 5 Turbo05:39.853+1:09.348PS4
1091 f1_slonRenault 5 Turbo05:39.903+1:09.398Steam
1092 banoc07Renault 5 Turbo05:39.919+1:09.414PS4
1093 BidetRenault 5 Turbo05:39.920+1:09.415Steam
1094 garysharrock Renault 5 Turbo05:39.969+1:09.464Steam
1095 diebelsRenault 5 Turbo05:40.020+1:09.515Steam
1096 rallyfisherRenault 5 Turbo05:40.136+1:09.631PS4
1097 SUPERCALIBERRenault 5 Turbo05:40.153+1:09.648PS4
1098 TarkanRenault 5 Turbo05:40.186+1:09.681Steam
1099 May2501Renault 5 Turbo05:40.269+1:09.764PS4
1100 jcikron20035Renault 5 Turbo05:40.269+1:09.764PS4
1101 je2f363Renault 5 Turbo05:40.319+1:09.814PS4
1102 BowbackRenault 5 Turbo05:40.319+1:09.814Xbox
1103 D-Woodbear68Renault 5 Turbo05:40.336+1:09.831PS4
1104 WellyPLRenault 5 Turbo05:40.419+1:09.914Steam
1105 Rivorz55Renault 5 Turbo05:40.420+1:09.915Xbox
1106 C Dooby Renault 5 Turbo05:40.436+1:09.931Steam
1107 WEBEVERRenault 5 Turbo05:40.436+1:09.931PS4
1108 Jean_G_RagnottiRenault 5 Turbo05:40.486+1:09.981PS4
1109 NICB_205Renault 5 Turbo05:40.486+1:09.981PS4
1110 jontikka86Renault 5 Turbo05:40.536+1:10.310PS4
1111 feuer033stuhlRenault 5 Turbo05:40.569+1:10.640PS4
1112 lolo451275Renault 5 Turbo05:40.586+1:10.810Steam
1113 felipeshark808Renault 5 Turbo05:40.603+1:10.980PS4
1114 bruninskyRenault 5 Turbo05:40.669+1:10.164PS4
1115 rockemartinezRenault 5 Turbo05:40.670+1:10.165PS4
1116 holifRenault 5 Turbo05:40.686+1:10.181Xbox
1117 kieken999Renault 5 Turbo05:40.703+1:10.198Xbox
1118 starcloud60 Renault 5 Turbo05:40.736+1:10.231Steam
1119 Heuge Mono Renault 5 Turbo05:40.753+1:10.248Steam
1120 giorgoskoRenault 5 Turbo05:40.753+1:10.248PS4
1121 Marwan Green CritterRenault 5 Turbo05:40.769+1:10.264Steam
1122 SoMeGuY Renault 5 Turbo05:40.786+1:10.281Steam
1123 C120ABRenault 5 Turbo05:40.786+1:10.281PS4
1124 robertoantolinRenault 5 Turbo05:40.836+1:10.331Steam
1125 AC_TEMPLERenault 5 Turbo05:40.836+1:10.331PS4
1126 Trading.Apples Renault 5 Turbo05:40.853+1:10.348Steam
1127 Not linkedRenault 5 Turbo05:40.869+1:10.364Xbox
1128 Junybean463Renault 5 Turbo05:40.886+1:10.381PS4
1129 figure2440Renault 5 Turbo05:40.936+1:10.431PS4
1130 mzsRenault 5 Turbo05:40.969+1:10.464Steam
1131 Not linkedRenault 5 Turbo05:40.986+1:10.481Xbox
1132 Mgzrally2Renault 5 Turbo05:41.069+1:10.564PS4
1133 De909rekRenault 5 Turbo05:41.069+1:10.564PS4
1134 dazling0_00Renault 5 Turbo05:41.069+1:10.564PS4
1135 fred92Renault 5 Turbo05:41.086+1:10.581PS4
1136 neo9800Renault 5 Turbo05:41.103+1:10.598PS4
1137 Not linkedRenault 5 Turbo05:41.103+1:10.598Xbox
1138 dirt972Renault 5 Turbo05:41.119+1:10.614PS4
1139 Not linkedRenault 5 Turbo05:41.220+1:10.715Xbox
1140 zx6r4Renault 5 Turbo05:41.253+1:10.748Xbox
1141 TokyoGwB Renault 5 Turbo05:41.269+1:10.764Steam
1142 mickmacRenault 5 Turbo05:41.353+1:10.848Steam
1143 Dr.L.RilleRenault 5 Turbo05:41.369+1:10.864Steam
1144 Pas-62630Renault 5 Turbo05:41.403+1:10.898PS4
1145 Dan_R_W Renault 5 Turbo05:41.419+1:10.914Steam
1146 MaMaZRenault 5 Turbo05:41.603+1:11.980Steam
1147 Smithers-1968_Renault 5 Turbo05:41.653+1:11.148PS4
1148 Hellcat ??Renault 5 Turbo05:41.686+1:11.181Steam
1149 VWJORGERenault 5 Turbo05:41.686+1:11.181PS4
1150 warislaoRenault 5 Turbo05:41.719+1:11.214PS4
1151 casipeya Renault 5 Turbo05:41.802+1:11.297Steam
1152 sadjRenault 5 Turbo05:41.852+1:11.347Xbox
1153 SchwartakusRenault 5 Turbo05:41.886+1:11.381PS4
1154 brfpoloRenault 5 Turbo05:41.886+1:11.381Xbox
1155 charlye78Renault 5 Turbo05:41.919+1:11.414PS4
1156 duckilandRenault 5 Turbo05:41.919+1:11.414PS4
1157 yprtRenault 5 Turbo05:41.936+1:11.431Xbox
1158 saitengreiferRenault 5 Turbo05:41.986+1:11.481PS4
1159 DomSmith93Renault 5 Turbo05:41.986+1:11.481PS4
1160 Babbelbox77 Renault 5 Turbo05:42.003+1:11.498Steam
1161 TEK-1234Renault 5 Turbo05:42.036+1:11.531PS4
1162 Not linkedRenault 5 Turbo05:42.052+1:11.547Xbox
1163 JetArtoisRenault 5 Turbo05:42.069+1:11.564Xbox
1164 yamahaymueRenault 5 Turbo05:42.070+1:11.565PS4
1165 GT-Racing-cz_PVRenault 5 Turbo05:42.086+1:11.581PS4
1166 apaul3133Renault 5 Turbo05:42.152+1:11.647PS4
1167 Indi_Renault 5 Turbo05:42.186+1:11.681PS4
1168 Max_von_Baden2Renault 5 Turbo05:42.202+1:11.697PS4
1169 Aaron489Renault 5 Turbo05:42.253+1:11.748Xbox
1170 amo3003Renault 5 Turbo05:42.352+1:11.847PS4
1171 titietste Renault 5 Turbo05:42.370+1:11.865Steam
1172 destripaRenault 5 Turbo05:42.386+1:11.881Xbox
1173 DoofmannRenault 5 Turbo05:42.403+1:11.898Xbox
1174 Augustiner1994Renault 5 Turbo05:42.419+1:11.914PS4
1175 Blob Renault 5 Turbo05:42.436+1:11.931Steam
1176 RUSSIA_Ded_SPbRenault 5 Turbo05:42.436+1:11.931Steam
1177 BotFreeMan35Renault 5 Turbo05:42.486+1:11.981PS4
1178 AlfaR_69Renault 5 Turbo05:42.602+1:12.970PS4
1179 kenobyoneRenault 5 Turbo05:42.619+1:12.114PS4
1180 SaiPa77Renault 5 Turbo05:42.620+1:12.115PS4
1181 stumack71Renault 5 Turbo05:42.752+1:12.247PS4
1182 Malipiero1Renault 5 Turbo05:42.836+1:12.331PS4
1183 lordofwar58Renault 5 Turbo05:42.853+1:12.348PS4
1184 diaconuflorentinRenault 5 Turbo05:42.902+1:12.397PS4
1185 marcelweiseRenault 5 Turbo05:42.936+1:12.431PS4
1186 bidule29 Renault 5 Turbo05:42.953+1:12.448Steam
1187 ChristianRenault 5 Turbo05:42.969+1:12.464Steam
1188 pex2205 Renault 5 Turbo05:43.053+1:12.548Steam
1189 Im_SnownRenault 5 Turbo05:43.120+1:12.615PS4
1190 sunphillipsRenault 5 Turbo05:43.152+1:12.647PS4
1191 POLICE HAKERRenault 5 Turbo05:43.169+1:12.664Steam
1192 spindrift Renault 5 Turbo05:43.219+1:12.714Steam
1193 deceda Renault 5 Turbo05:43.236+1:12.731Steam
1194 Iron-_-SpongeRenault 5 Turbo05:43.253+1:12.748Steam
1195 rallyeman8815465Renault 5 Turbo05:43.319+1:12.814PS4
1196 Colin Awesome Renault 5 Turbo05:43.320+1:12.815Steam
1197 rebo2002Renault 5 Turbo05:43.419+1:12.914Steam
1198 calio1980Renault 5 Turbo05:43.419+1:12.914PS4
1199 ZunsheVRenault 5 Turbo05:43.436+1:12.931PS4
1200 jannuziRenault 5 Turbo05:43.437+1:12.932Xbox
1201 miksa70Renault 5 Turbo05:43.452+1:12.947PS4
1202 ppp315Renault 5 Turbo05:43.486+1:12.981PS4
1203 Not linkedRenault 5 Turbo05:43.536+1:13.310Xbox
1204 Not linkedRenault 5 Turbo05:43.552+1:13.470Xbox
1205 xDxGxRenault 5 Turbo05:43.602+1:13.970PS4
1206 TRBRc_PITER_FRARenault 5 Turbo05:43.652+1:13.147PS4
1207 pedratoscaRenault 5 Turbo05:43.669+1:13.164PS4
1208 WINGNUT1976DADDYRenault 5 Turbo05:43.702+1:13.197PS4
1209 Giggs-030-Renault 5 Turbo05:43.720+1:13.215PS4
1210 venderstrahlRenault 5 Turbo05:43.752+1:13.247PS4
1211 Not linkedRenault 5 Turbo05:43.819+1:13.314Xbox
1212 AC LetnáRenault 5 Turbo05:43.869+1:13.364Steam
1213 leonsr4Renault 5 Turbo05:43.902+1:13.397PS4
1214 kulligulli Renault 5 Turbo05:43.953+1:13.448Steam
1215 kaapo86Renault 5 Turbo05:44.003+1:13.498PS4
1216 K1I9N7G7Renault 5 Turbo05:44.019+1:13.514PS4
1217 DennisvanEijkRenault 5 Turbo05:44.086+1:13.581PS4
1218 MxRenault 5 Turbo05:44.103+1:13.598Steam
1219 300 Renault 5 Turbo05:44.186+1:13.681Steam
1220 domineaux57Renault 5 Turbo05:44.202+1:13.697PS4
1221 Crash ManlyRenault 5 Turbo05:44.252+1:13.747Steam
1222 BLACK-HANNERenault 5 Turbo05:44.270+1:13.765PS4
1223 poopville812Renault 5 Turbo05:44.286+1:13.781PS4
1224 Not linkedRenault 5 Turbo05:44.319+1:13.814Xbox
1225 S1M0 [ita] Renault 5 Turbo05:44.320+1:13.815Steam
1226 pcs25Renault 5 Turbo05:44.336+1:13.831PS4
1227 rolwoldRenault 5 Turbo05:44.353+1:13.848PS4
1228 philr26Renault 5 Turbo05:44.386+1:13.881Xbox
1229 jpzin13Renault 5 Turbo05:44.469+1:13.964Xbox
1230 ladjiRenault 5 Turbo05:44.503+1:13.998Steam
1231 PelambricusRenault 5 Turbo05:44.503+1:13.998PS4
1232 Ramsay Bolton Renault 5 Turbo05:44.519+1:14.140Steam
1233 theraymachineRenault 5 Turbo05:44.519+1:14.140PS4
1234 luskyagullaRenault 5 Turbo05:44.602+1:14.970PS4
1235 Leleq Renault 5 Turbo05:44.619+1:14.114Steam
1236 Qriocity1020---_Renault 5 Turbo05:44.669+1:14.164PS4
1237 StimRenault 5 Turbo05:44.686+1:14.181Steam
1238 geirnikoRenault 5 Turbo05:44.702+1:14.197PS4
1239 Tpm202Renault 5 Turbo05:44.736+1:14.231PS4
1240 Dam50555Renault 5 Turbo05:44.752+1:14.247PS4
1241 ludopopRenault 5 Turbo05:44.752+1:14.247PS4
1242 hiro524_mRenault 5 Turbo05:44.852+1:14.347PS4
1243 Prosector983Renault 5 Turbo05:44.986+1:14.481PS4
1244 AmeliaAlvinRenault 5 Turbo05:44.986+1:14.481PS4
1245 atm250Renault 5 Turbo05:45.136+1:14.631PS4
1246 juice2107Renault 5 Turbo05:45.202+1:14.697PS4
1247 Not linkedRenault 5 Turbo05:45.269+1:14.764Xbox
1248 SkudossRenault 5 Turbo05:45.270+1:14.765Steam
1249 that.other.crowRenault 5 Turbo05:45.319+1:14.814Steam
1250 mikeboi48Renault 5 Turbo05:45.320+1:14.815PS4
1251 Not linkedRenault 5 Turbo05:45.352+1:14.847Xbox
1252 Mr. F@n-T-@$$-$t!ck Renault 5 Turbo05:45.402+1:14.897Steam
1253 erwinberkersRenault 5 Turbo05:45.419+1:14.914PS4
1254 WITT0014Renault 5 Turbo05:45.419+1:14.914Xbox
1255 stars8619 Renault 5 Turbo05:45.486+1:14.981Steam
1256 Tutur_VdpRenault 5 Turbo05:45.502+1:14.997PS4
1257 Rhintaler Renault 5 Turbo05:45.569+1:15.640Steam
1258 calbaraig1Renault 5 Turbo05:45.602+1:15.970PS4
1259 MaateoPLRenault 5 Turbo05:45.619+1:15.114PS4
1260 RayartsRenault 5 Turbo05:45.736+1:15.231PS4
1261 Reini Graf von SpeedRenault 5 Turbo05:45.769+1:15.264Steam
1262 VettracerRenault 5 Turbo05:45.819+1:15.314PS4
1263 IncubusDragon Renault 5 Turbo05:45.836+1:15.331Steam
1264 DrywcyfyrRenault 5 Turbo05:45.852+1:15.347PS4
1265 DidibaubauRenault 5 Turbo05:45.986+1:15.481PS4
1266 Ana76IRenault 5 Turbo05:46.002+1:15.497PS4
1267 Not linkedRenault 5 Turbo05:46.036+1:15.531Xbox
1268 Bergakore95Renault 5 Turbo05:46.086+1:15.581PS4
1269 dam90ianRenault 5 Turbo05:46.136+1:15.631PS4
1270 EyeQRenault 5 Turbo05:46.186+1:15.681Steam
1271 xXScarFishXxRenault 5 Turbo05:46.336+1:15.831PS4
1272 ton-ton2bayRenault 5 Turbo05:46.436+1:15.931PS4
1273 ayrtontrencRenault 5 Turbo05:46.552+1:16.470Xbox
1274 ToxicLogix Renault 5 Turbo05:46.586+1:16.810Steam
1275 Stuntman131 Renault 5 Turbo05:46.652+1:16.147Steam
1276 OwstyRenault 5 Turbo05:46.753+1:16.248PS4
1277 Milkyot99Renault 5 Turbo05:46.770+1:16.265PS4
1278 Pejiguera262Renault 5 Turbo05:46.853+1:16.348PS4
1279 dumpy388Renault 5 Turbo05:46.902+1:16.397PS4
1280 tevatorRenault 5 Turbo05:46.919+1:16.414Steam
1281 massa2806Renault 5 Turbo05:46.986+1:16.481PS4
1282 mrbombjackRenault 5 Turbo05:47.019+1:16.514PS4
1283 Janusz1976Renault 5 Turbo05:47.036+1:16.531PS4
1284 thebatsearRenault 5 Turbo05:47.052+1:16.547PS4
1285 pitchou136Renault 5 Turbo05:47.052+1:16.547PS4
1286 johnrgladstone Renault 5 Turbo05:47.086+1:16.581Steam
1287 Dr___TodRenault 5 Turbo05:47.086+1:16.581PS4
1288 BrizlinRenault 5 Turbo05:47.086+1:16.581Xbox
1289 Michael14-2-81Renault 5 Turbo05:47.102+1:16.597PS4
1290 juanrix78Renault 5 Turbo05:47.119+1:16.614PS4
1291 Errorcod3Renault 5 Turbo05:47.119+1:16.614Xbox
1292 jeremy09021987Renault 5 Turbo05:47.152+1:16.647PS4
1293 oskarinio Renault 5 Turbo05:47.236+1:16.731Steam
1294 lxlMille23lxlRenault 5 Turbo05:47.253+1:16.748Xbox
1295 HerbzRenault 5 Turbo05:47.336+1:16.831Steam
1296 Blood_God_UKRenault 5 Turbo05:47.452+1:16.947PS4
1297 qpSHiNqpRenault 5 Turbo05:47.536+1:17.310Steam
1298 MAD111Renault 5 Turbo05:47.552+1:17.470PS4
1299 lillpillan_90603Renault 5 Turbo05:47.552+1:17.470PS4
1300 sancha1985 Renault 5 Turbo05:47.553+1:17.480Steam
1301 TommyDrift82Renault 5 Turbo05:47.736+1:17.231PS4
1302 scope34funRenault 5 Turbo05:47.819+1:17.314PS4
1303 fishmactriebesRenault 5 Turbo05:47.836+1:17.331PS4
1304 EL_POLLO_RELOADERenault 5 Turbo05:47.886+1:17.381PS4
1305 DysfunCRenault 5 Turbo05:47.919+1:17.414Steam
1306 SilentRenault 5 Turbo05:47.936+1:17.431Steam
1307 Xelabo Renault 5 Turbo05:47.952+1:17.447Steam
1308 free_styler786Renault 5 Turbo05:47.969+1:17.464PS4
1309 Dr. Morfor QuantumwizardRenault 5 Turbo05:48.052+1:17.547Steam
1310 Heath_74 Renault 5 Turbo05:48.136+1:17.631Steam
1311 Tgordillo318Renault 5 Turbo05:48.153+1:17.648PS4
1312 ludo_1968Renault 5 Turbo05:48.186+1:17.681PS4
1313 mjbrown55Renault 5 Turbo05:48.203+1:17.698Steam
1314 goonzak68Renault 5 Turbo05:48.319+1:17.814PS4
1315 gdb29200Renault 5 Turbo05:48.336+1:17.831PS4
1316 DeathMetalRacerRenault 5 Turbo05:48.419+1:17.914Xbox
1317 seanbeag519Renault 5 Turbo05:48.436+1:17.931PS4
1318 h5t5r43ewwder456Renault 5 Turbo05:48.519+1:18.140PS4
1319 Cyclone62Renault 5 Turbo05:48.536+1:18.310Xbox
1320 MotocheloRenault 5 Turbo05:48.569+1:18.640PS4
1321 Not linkedRenault 5 Turbo05:48.686+1:18.181Xbox
1322 seppkulturaRenault 5 Turbo05:48.752+1:18.247Steam
1323 SubWRCnicoRenault 5 Turbo05:48.852+1:18.347Steam
1324 Mosquito2485Renault 5 Turbo05:48.919+1:18.414PS4
1325 nicomeagainRenault 5 Turbo05:48.919+1:18.414PS4
1326 De_Witte66Renault 5 Turbo05:49.019+1:18.514PS4
1327 POK44567Renault 5 Turbo05:49.036+1:18.531PS4
1328 badbobc987Renault 5 Turbo05:49.202+1:18.697Xbox
1329 DevilofKingsRenault 5 Turbo05:49.236+1:18.731PS4
1330 Not linkedRenault 5 Turbo05:49.269+1:18.764Xbox
1331 amstrad1Renault 5 Turbo05:49.302+1:18.797Steam
1332 briatoredgasuRenault 5 Turbo05:49.336+1:18.831PS4
1333 ckilplusbocnonoRenault 5 Turbo05:49.353+1:18.848Steam
1334 g56yyRenault 5 Turbo05:49.353+1:18.848PS4
1335 impressRenault 5 Turbo05:49.386+1:18.881Steam
1336 jmmr27Renault 5 Turbo05:49.419+1:18.914PS4
1337 Ookami72Renault 5 Turbo05:49.502+1:18.997PS4
1338 Reg_DiaRenault 5 Turbo05:49.652+1:19.147Steam
1339 platto Renault 5 Turbo05:49.669+1:19.164Steam
1340 LE_MASTRE_13Renault 5 Turbo05:49.719+1:19.214PS4
1341 andypc595Renault 5 Turbo05:49.852+1:19.347PS4
1342 DeRBeNdeR Renault 5 Turbo05:49.853+1:19.348Steam
1343 AudioBullysZIPRenault 5 Turbo05:49.869+1:19.364PS4
1344 mr_rainmaker777Renault 5 Turbo05:49.919+1:19.414PS4
1345 Pattefolle973Renault 5 Turbo05:49.919+1:19.414PS4
1346 Krystik27 Renault 5 Turbo05:49.936+1:19.431Steam
1347 geefunkuk1Renault 5 Turbo05:50.069+1:19.564Xbox
1348 cartuxo1987Renault 5 Turbo05:50.319+1:19.814PS4
1349 andreybednyRenault 5 Turbo05:50.402+1:19.897Steam
1350 scottjr123Renault 5 Turbo05:50.419+1:19.914PS4
1351 boro008Renault 5 Turbo05:50.436+1:19.931Xbox
1352 olivier6380Renault 5 Turbo05:50.469+1:19.964PS4
1353 marc415Renault 5 Turbo05:50.569+1:20.640Xbox
1354 orangebud46Renault 5 Turbo05:50.602+1:20.970PS4
1355 speed31560Renault 5 Turbo05:50.636+1:20.131PS4
1356 molotoph77Renault 5 Turbo05:50.735+1:20.230PS4
1357 michaspieleRenault 5 Turbo05:50.736+1:20.231Steam
1358 Neophyte140Renault 5 Turbo05:50.752+1:20.247PS4
1359 Dargo144Renault 5 Turbo05:50.752+1:20.247PS4
1360 firebeetle01 Renault 5 Turbo05:50.819+1:20.314Steam
1361 viper94gtRenault 5 Turbo05:50.819+1:20.314PS4
1362 jonathanx1Renault 5 Turbo05:50.869+1:20.364PS4
1363 NAIPRORenault 5 Turbo05:50.885+1:20.380PS4
1364 twincamrwdRenault 5 Turbo05:50.902+1:20.397PS4
1365 Rallye1963Renault 5 Turbo05:50.935+1:20.430PS4
1366 luco1985Renault 5 Turbo05:50.936+1:20.431Xbox
1367 STUERMER14Renault 5 Turbo05:51.019+1:20.514PS4
1368 PCmotorsportRenault 5 Turbo05:51.085+1:20.580PS4
1369 corleone_91-80Renault 5 Turbo05:51.102+1:20.597PS4
1370 robbieR600Renault 5 Turbo05:51.185+1:20.680PS4
1371 EnterTheDonutRenault 5 Turbo05:51.252+1:20.747Steam
1372 Y0TATACT1CAL34Renault 5 Turbo05:51.269+1:20.764Xbox
1373 hamstern Renault 5 Turbo05:51.685+1:21.180Steam
1374 ktmredbull63Renault 5 Turbo05:51.752+1:21.247PS4
1375 m8rekRenault 5 Turbo05:51.769+1:21.264PS4
1376 Gunner1oneRenault 5 Turbo05:51.886+1:21.381PS4
1377 Howfen-BourneRenault 5 Turbo05:51.902+1:21.397PS4
1378 Tribal-LineRenault 5 Turbo05:51.902+1:21.397PS4
1379 Bubi Renault 5 Turbo05:51.936+1:21.431Steam
1380 marathon-samRenault 5 Turbo05:51.985+1:21.480Steam
1381 WizardInBlack72Renault 5 Turbo05:52.019+1:21.514PS4
1382 BoberRenault 5 Turbo05:52.052+1:21.547Steam
1383 wavegvRenault 5 Turbo05:52.069+1:21.564PS4
1384 kitty Renault 5 Turbo05:52.085+1:21.580Steam
1385 kyram69Renault 5 Turbo05:52.269+1:21.764PS4
1386 grand-bill60Renault 5 Turbo05:52.319+1:21.814PS4
1387 silasbob-77Renault 5 Turbo05:52.385+1:21.880PS4
1388 gipern Renault 5 Turbo05:52.402+1:21.897Steam
1389 kikebolivarRenault 5 Turbo05:52.452+1:21.947PS4
1390 DJ-BruscettaRenault 5 Turbo05:52.535+1:22.300PS4
1391 tilting intensifiesRenault 5 Turbo05:52.653+1:22.148Steam
1392 Granite Octopus Renault 5 Turbo05:52.703+1:22.198Steam
1393 jokas350Renault 5 Turbo05:52.785+1:22.280PS4
1394 konbleckRenault 5 Turbo05:52.785+1:22.280PS4
1395 BoomerHomerRenault 5 Turbo05:52.935+1:22.430PS4
1396 nicksOMGRenault 5 Turbo05:52.969+1:22.464Xbox
1397 BELYoulesRenault 5 Turbo05:53.002+1:22.497Xbox
1398 o0_Twa_0oRenault 5 Turbo05:53.035+1:22.530PS4
1399 so6manRenault 5 Turbo05:53.135+1:22.630PS4
1400 Not linkedRenault 5 Turbo05:53.202+1:22.697Xbox
1401 Not linkedRenault 5 Turbo05:53.269+1:22.764Xbox
1402 Callirace3Renault 5 Turbo05:53.285+1:22.780Xbox
1403 skavee8Renault 5 Turbo05:53.303+1:22.798PS4
1404 kalayakRenault 5 Turbo05:53.435+1:22.930PS4
1405 vincetheboss83Renault 5 Turbo05:53.435+1:22.930PS4
1406 natmer76Renault 5 Turbo05:53.485+1:22.980Steam
1407 Jerec98kRenault 5 Turbo05:53.486+1:22.981Steam
1408 ale_6380Renault 5 Turbo05:53.519+1:23.140PS4
1409 pglnoobRenault 5 Turbo05:53.519+1:23.140PS4
1410 alexw1nRenault 5 Turbo05:53.519+1:23.140PS4
1411 boyoboyo44Renault 5 Turbo05:53.520+1:23.150Steam
1412 datahariRenault 5 Turbo05:53.552+1:23.470Xbox
1413 Nick PhillipsRenault 5 Turbo05:53.553+1:23.480Steam
1414 Strejda009Renault 5 Turbo05:53.569+1:23.640Steam
1415 Orion59Renault 5 Turbo05:53.635+1:23.130PS4
1416 SIRS82Renault 5 Turbo05:53.719+1:23.214PS4
1417 ScaffUKRenault 5 Turbo05:53.786+1:23.281PS4
1418 l1uk94liukRenault 5 Turbo05:53.853+1:23.348PS4
1419 jankinpacientRenault 5 Turbo05:53.869+1:23.364PS4
1420 aurelie07Renault 5 Turbo05:53.969+1:23.464PS4
1421 Not linkedRenault 5 Turbo05:54.019+1:23.514Xbox
1422 xx_Mani_Boy_7_xxRenault 5 Turbo05:54.102+1:23.597PS4
1423 SJM2007Renault 5 Turbo05:54.186+1:23.681PS4
1424 Jarbob Renault 5 Turbo05:54.270+1:23.765Steam
1425 HALs_Little_BroRenault 5 Turbo05:54.302+1:23.797PS4
1426 ductracerRenault 5 Turbo05:54.402+1:23.897PS4
1427 -Old-Boo-Renault 5 Turbo05:54.419+1:23.914Steam
1428 TANKTOMRenault 5 Turbo05:54.469+1:23.964Steam
1429 guillous62Renault 5 Turbo05:54.469+1:23.964PS4
1430 KDF190EVOLUTIONRenault 5 Turbo05:54.602+1:24.970PS4
1431 flems1993Renault 5 Turbo05:54.669+1:24.164PS4
1432 Lacs 1954 Renault 5 Turbo05:54.786+1:24.281Steam
1433 Norbury_DKRenault 5 Turbo05:54.869+1:24.364PS4
1434 artur197410 Renault 5 Turbo05:54.885+1:24.380Steam
1435 FALSBERenault 5 Turbo05:54.919+1:24.414PS4
1436 aifan123Renault 5 Turbo05:54.953+1:24.448PS4
1437 lilboul88Renault 5 Turbo05:54.953+1:24.448PS4
1438 rob47256Renault 5 Turbo05:55.086+1:24.581PS4
1439 radiobendsRenault 5 Turbo05:55.119+1:24.614PS4
1440 famehotrodsRenault 5 Turbo05:55.135+1:24.630Xbox
1441 Not linkedRenault 5 Turbo05:55.352+1:24.847Xbox
1442 GANIBALLRenault 5 Turbo05:55.353+1:24.848PS4
1443 KAPARenault 5 Turbo05:55.419+1:24.914Steam
1444 pigpigpig223Renault 5 Turbo05:55.469+1:24.964PS4
1445 Muslari Renault 5 Turbo05:55.552+1:25.470Steam
1446 jm_dainesRenault 5 Turbo05:55.619+1:25.114PS4
1447 johnlauresoldierRenault 5 Turbo05:55.652+1:25.147Steam
1448 PanmaxRenault 5 Turbo05:55.652+1:25.147PS4
1449 Not linkedRenault 5 Turbo05:55.652+1:25.147Xbox
1450 MopMan_PL Renault 5 Turbo05:55.703+1:25.198Steam
1451 stuka187Renault 5 Turbo05:55.735+1:25.230Xbox
1452 Not linkedRenault 5 Turbo05:55.752+1:25.247Xbox
1453 Subject FRenault 5 Turbo05:55.786+1:25.281Steam
1454 NOISETTE93Renault 5 Turbo05:55.802+1:25.297PS4
1455 MisterGreen Renault 5 Turbo05:55.852+1:25.347Steam
1456 rob Renault 5 Turbo05:55.852+1:25.347Steam
1457 littlebertRenault 5 Turbo05:56.003+1:25.498PS4
1458 wikiliks31Renault 5 Turbo05:56.085+1:25.580PS4
1459 spurs78Renault 5 Turbo05:56.252+1:25.747PS4
1460 michel3497Renault 5 Turbo05:56.269+1:25.764Steam
1461 MELERSSONRenault 5 Turbo05:56.385+1:25.880PS4
1462 ArkhaanaRenault 5 Turbo05:56.453+1:25.948PS4
1463 bikers83Renault 5 Turbo05:56.485+1:25.980Xbox
1464 Xmln01Renault 5 Turbo05:56.502+1:25.997PS4
1465 aleks_net Renault 5 Turbo05:56.602+1:26.970Steam
1466 hansjoerggrundRenault 5 Turbo05:56.635+1:26.130Steam
1467 jojoautocrossRenault 5 Turbo05:56.752+1:26.247Xbox
1468 KamperAssassinRenault 5 Turbo05:56.786+1:26.281PS4
1469 PajerokingRenault 5 Turbo05:56.802+1:26.297Steam
1470 Not linkedRenault 5 Turbo05:56.852+1:26.347Xbox
1471 Hory75Renault 5 Turbo05:56.869+1:26.364Xbox
1472 elikriRenault 5 Turbo05:56.936+1:26.431PS4
1473 LorneHRenault 5 Turbo05:56.952+1:26.447PS4
1474 math-stucky-68Renault 5 Turbo05:56.986+1:26.481PS4
1475 turkstockfotograf Renault 5 Turbo05:57.036+1:26.531Steam
1476 benoit700Renault 5 Turbo05:57.036+1:26.531PS4
1477 budgiesmuggler3Renault 5 Turbo05:57.085+1:26.580Xbox
1478 WiinDSk8terRenault 5 Turbo05:57.119+1:26.614PS4
1479 Not linkedRenault 5 Turbo05:57.119+1:26.614Xbox
1480 schamPooRenault 5 Turbo05:57.169+1:26.664Steam
1481 fgfpvf6Renault 5 Turbo05:57.253+1:26.748PS4
1482 Akers73Renault 5 Turbo05:57.336+1:26.831Xbox
1483 wrc_polo_tean_88Renault 5 Turbo05:57.352+1:26.847PS4
1484 GondzisRenault 5 Turbo05:57.419+1:26.914PS4
1485 Vladimir Renault 5 Turbo05:57.452+1:26.947Steam
1486 JammoDodger356Renault 5 Turbo05:57.720+1:27.215PS4
1487 vianoch05Renault 5 Turbo05:57.786+1:27.281PS4
1488 Bruno28700Renault 5 Turbo05:57.819+1:27.314PS4
1489 Bad-Boy-ItalianoRenault 5 Turbo05:57.819+1:27.314PS4
1490 NP31734-8152Renault 5 Turbo05:58.102+1:27.597PS4
1491 Nedo1995Renault 5 Turbo05:58.336+1:27.831PS4
1492 LottoRenault 5 Turbo05:58.385+1:27.880Steam
1493 Roadrunner7007Renault 5 Turbo05:58.385+1:27.880PS4
1494 NIcksterRenault 5 Turbo05:58.536+1:28.310Steam
1495 arnaudrobertRenault 5 Turbo05:58.552+1:28.470PS4
1496 DARK-CERVORenault 5 Turbo05:58.585+1:28.800PS4
1497 RocketBunnyRenault 5 Turbo05:58.786+1:28.281Steam
1498 dr_melbourne21Renault 5 Turbo05:59.318+1:28.813PS4
1499 skutt79Renault 5 Turbo05:59.319+1:28.814Steam
1500 ™Renault 5 Turbo05:59.336+1:28.831Steam
1501 lastfmfan Renault 5 Turbo05:59.336+1:28.831Steam
1502 houston1717Renault 5 Turbo05:59.352+1:28.847PS4
1503 CsabiSTRenault 5 Turbo05:59.369+1:28.864Steam
1504 tof-killer76Renault 5 Turbo05:59.386+1:28.881PS4
1505 heretik Renault 5 Turbo05:59.535+1:29.300Steam
1506 guillejungleRenault 5 Turbo05:59.585+1:29.800PS4
1507 Franck_R_2508Renault 5 Turbo05:59.618+1:29.113PS4
1508 Knusperkeks_1Renault 5 Turbo05:59.652+1:29.147PS4
1509 shibuindieRenault 5 Turbo05:59.719+1:29.214Steam
1510 meat Renault 5 Turbo05:59.736+1:29.231Steam
1511 TroillungannRenault 5 Turbo05:59.785+1:29.280PS4
1512 yveslecar Renault 5 Turbo05:59.902+1:29.397Steam
1513 geweihtraegerRenault 5 Turbo05:59.902+1:29.397Steam
1514 vposunaRenault 5 Turbo05:59.902+1:29.397Xbox
1515 Pilote2courseRenault 5 Turbo05:59.918+1:29.413PS4
1516 zafaretxRenault 5 Turbo06:00.019+1:29.514PS4
1517 KAKOLL_46Renault 5 Turbo06:00.035+1:29.530PS4
1518 Keyser1884Renault 5 Turbo06:00.085+1:29.580PS4
1519 footlongCHimpRenault 5 Turbo06:00.369+1:29.864PS4
1520 davidgompiRenault 5 Turbo06:00.369+1:29.864PS4
1521 fa605746Renault 5 Turbo06:00.818+1:30.313Steam
1522 omglolwtfRenault 5 Turbo06:00.869+1:30.364PS4
1523 zac_fabyRenault 5 Turbo06:00.919+1:30.414PS4
1524 PRTserginhoRenault 5 Turbo06:00.968+1:30.463Xbox
1525 prisp Renault 5 Turbo06:00.985+1:30.480Steam
1526 KN1GHT Renault 5 Turbo06:01.169+1:30.664Steam
1527 porebinho1981Renault 5 Turbo06:01.252+1:30.747PS4
1528 wally23666Renault 5 Turbo06:01.285+1:30.780PS4
1529 nicklecomteRenault 5 Turbo06:01.286+1:30.781PS4
1530 jeanpierreblaiseRenault 5 Turbo06:01.335+1:30.830PS4
1531 SilveronurRenault 5 Turbo06:01.436+1:30.931PS4
1532 Roberto-GalardoRenault 5 Turbo06:01.602+1:31.970PS4
1533 miseelliRenault 5 Turbo06:01.752+1:31.247PS4
1534 EinzelspielerRenault 5 Turbo06:01.818+1:31.313Xbox
1535 JTortoRenault 5 Turbo06:01.968+1:31.463Xbox
1536 job1405Renault 5 Turbo06:02.069+1:31.564PS4
1537 jacks585Renault 5 Turbo06:02.136+1:31.631PS4
1538 minty HITMAN hatton Renault 5 Turbo06:02.219+1:31.714Steam
1539 Terry26TrueBlueRenault 5 Turbo06:02.318+1:31.813PS4
1540 Makochan4Renault 5 Turbo06:02.319+1:31.814PS4
1541 BestDiamondRenault 5 Turbo06:02.368+1:31.863PS4
1542 PräzziRenault 5 Turbo06:02.420+1:31.915Steam
1543 darkmetalmike Renault 5 Turbo06:02.468+1:31.963Steam
1544 Hardy081168Renault 5 Turbo06:02.502+1:31.997PS4
1545 JoeRenault 5 Turbo06:02.568+1:32.630Steam
1546 Muad'Dib Renault 5 Turbo06:02.618+1:32.113Steam
1547 Lesbiano Renault 5 Turbo06:02.685+1:32.180Steam
1548 bobsheba Renault 5 Turbo06:02.768+1:32.263Steam
1549 KuHle49Renault 5 Turbo06:02.819+1:32.314PS4
1550 Jacques Renault 5 Turbo06:02.969+1:32.464Steam
1551 gabankuRenault 5 Turbo06:03.018+1:32.513Steam
1552 q3vd-rl5c-9z5fRenault 5 Turbo06:03.235+1:32.730PS4
1553 AhlaxRenault 5 Turbo06:03.386+1:32.881PS4
1554 ACOPLADO46Renault 5 Turbo06:03.418+1:32.913PS4
1555 anfanfRenault 5 Turbo06:03.419+1:32.914PS4
1556 miciodonRenault 5 Turbo06:03.585+1:33.800PS4
1557 Don GorgonRenault 5 Turbo06:03.602+1:33.970Steam
1558 RallyxfanRenault 5 Turbo06:03.635+1:33.130PS4
1559 starty-GT_expertRenault 5 Turbo06:03.685+1:33.180PS4
1560 Foobs_76Renault 5 Turbo06:03.786+1:33.281PS4
1561 Sumppi_kooRenault 5 Turbo06:03.819+1:33.314PS4
1562 jeffmarcheRenault 5 Turbo06:04.019+1:33.514PS4
1563 Not linkedRenault 5 Turbo06:04.035+1:33.530Xbox
1564 gayr_osloRenault 5 Turbo06:04.085+1:33.580PS4
1565 LestatRenault 5 Turbo06:04.086+1:33.581Steam
1566 AlmDdadnRenault 5 Turbo06:04.302+1:33.797Steam
1567 skainetRenault 5 Turbo06:04.352+1:33.847Xbox
1568 ModdamanRenault 5 Turbo06:04.385+1:33.880PS4
1569 T246808Renault 5 Turbo06:04.418+1:33.913PS4
1570 nazobanRenault 5 Turbo06:04.485+1:33.980Steam
1571 jahakoRenault 5 Turbo06:04.518+1:34.130Xbox
1572 viscount52Renault 5 Turbo06:04.835+1:34.330PS4
1573 thornado Renault 5 Turbo06:04.902+1:34.397Steam
1574 w8illoRenault 5 Turbo06:04.902+1:34.397PS4
1575 Siniux |GER|Renault 5 Turbo06:05.252+1:34.747Steam
1576 Peter C. Renault 5 Turbo06:05.335+1:34.830Steam
1577 Not linkedRenault 5 Turbo06:05.335+1:34.830Xbox
1578 Carracedo112Renault 5 Turbo06:05.435+1:34.930PS4
1579 Sjoester_OnlineRenault 5 Turbo06:05.535+1:35.300PS4
1580 FranorgeRenault 5 Turbo06:05.552+1:35.470Steam
1581 KGE0094Renault 5 Turbo06:05.585+1:35.800PS4
1582 Zingo1234Renault 5 Turbo06:05.585+1:35.800PS4
1583 nkb200014Renault 5 Turbo06:05.618+1:35.113PS4
1584 matrixx99Renault 5 Turbo06:05.702+1:35.197Xbox
1585 BiohazardMi16Renault 5 Turbo06:06.003+1:35.498PS4
1586 cakey666mRenault 5 Turbo06:06.018+1:35.513PS4
1587 PATRiDERRenault 5 Turbo06:06.035+1:35.530Steam
1588 GWhittakRenault 5 Turbo06:06.135+1:35.630PS4
1589 The_Pixel_0Renault 5 Turbo06:06.152+1:35.647PS4
1590 Not linkedRenault 5 Turbo06:06.352+1:35.847Xbox
1591 SelectaPhabs Renault 5 Turbo06:06.469+1:35.964Steam
1592 simmonovv312Renault 5 Turbo06:06.502+1:35.997PS4
1593 LaurentLecevenolRenault 5 Turbo06:06.652+1:36.147PS4
1594 papi Bernard Renault 5 Turbo06:06.669+1:36.164Steam
1595 jaspawRenault 5 Turbo06:06.768+1:36.263PS4
1596 Not linkedRenault 5 Turbo06:06.769+1:36.264Xbox
1597 enderRenault 5 Turbo06:06.785+1:36.280Steam
1598 tomilton59Renault 5 Turbo06:06.835+1:36.330PS4
1599 Bálózs Renault 5 Turbo06:06.836+1:36.331Steam
1600 sapph1roN Renault 5 Turbo06:06.918+1:36.413Steam
1601 bamboo_7Renault 5 Turbo06:06.918+1:36.413PS4
1602 Torques777Renault 5 Turbo06:06.935+1:36.430PS4
1603 teg98Renault 5 Turbo06:07.002+1:36.497PS4
1604 fastbink Renault 5 Turbo06:07.119+1:36.614Steam
1605 lmarich.lmRenault 5 Turbo06:07.135+1:36.630Steam
1606 normandiereRenault 5 Turbo06:07.251+1:36.746Steam
1607 Robin05Renault 5 Turbo06:07.702+1:37.197Xbox
1608 rockshowRenault 5 Turbo06:07.735+1:37.230PS4
1609 la_muerte_frRenault 5 Turbo06:07.869+1:37.364PS4
1610 KERZE08Renault 5 Turbo06:08.035+1:37.530Steam
1611 ExuberanceRenault 5 Turbo06:08.069+1:37.564PS4
1612 gisbitusRenault 5 Turbo06:08.118+1:37.613PS4
1613 DTsveklovRenault 5 Turbo06:08.202+1:37.697PS4
1614 HRV-1966Renault 5 Turbo06:08.318+1:37.813PS4
1615 DISCONNECTED Renault 5 Turbo06:08.335+1:37.830Steam
1616 virgodude1Renault 5 Turbo06:08.518+1:38.130PS4
1617 darknenexRenault 5 Turbo06:08.535+1:38.300Xbox
1618 RosnyRenault 5 Turbo06:08.653+1:38.148Xbox
1619 HikkiKoroneRenault 5 Turbo06:08.835+1:38.330Steam
1620 Joao Botelho de SousaRenault 5 Turbo06:08.868+1:38.363Steam
1621 mc_potRenault 5 Turbo06:09.019+1:38.514PS4
1622 edgeberiseRenault 5 Turbo06:09.052+1:38.547Xbox
1623 kratos47trRenault 5 Turbo06:09.069+1:38.564PS4
1624 MOE-DER-BADINGERRenault 5 Turbo06:09.302+1:38.797PS4
1625 Lachyr23Renault 5 Turbo06:09.302+1:38.797Xbox
1626 Wolf-14Renault 5 Turbo06:09.335+1:38.830PS4
1627 lacrime07Renault 5 Turbo06:09.351+1:38.846PS4
1628 Tordenflesk Renault 5 Turbo06:09.419+1:38.914Steam
1629 Not linkedRenault 5 Turbo06:09.635+1:39.130Xbox
1630 wojtekRenault 5 Turbo06:09.685+1:39.180Steam
1631 interferensRenault 5 Turbo06:09.685+1:39.180Steam
1632 CaNaX Renault 5 Turbo06:09.768+1:39.263Steam
1633 shane9851Renault 5 Turbo06:09.768+1:39.263PS4
1634 maddogmRenault 5 Turbo06:10.553+1:40.480PS4
1635 Primoz MAKSELJ Renault 5 Turbo06:10.585+1:40.800Steam
1636 bartscott82Renault 5 Turbo06:10.685+1:40.180PS4
1637 BHS2811Renault 5 Turbo06:10.801+1:40.296PS4
1638 ChessGeekCRenault 5 Turbo06:10.901+1:40.396Steam
1639 kukrapokRenault 5 Turbo06:10.918+1:40.413Steam
1640 Not linkedRenault 5 Turbo06:10.935+1:40.430Xbox
1641 handlooseRenault 5 Turbo06:10.968+1:40.463PS4
1642 SmokDaWeedmthfckRenault 5 Turbo06:11.218+1:40.713PS4
1643 JorgeMg525Renault 5 Turbo06:11.285+1:40.780PS4
1644 Yosef7useinyRenault 5 Turbo06:11.369+1:40.864PS4
1645 ImikkeIRenault 5 Turbo06:11.636+1:41.131PS4
1646 gelataio19Renault 5 Turbo06:11.968+1:41.463PS4
1647 TzAppRenault 5 Turbo06:12.369+1:41.864PS4
1648 Patrinho Renault 5 Turbo06:12.685+1:42.180Steam
1649 akebaerRenault 5 Turbo06:12.818+1:42.313PS4
1650 canthar666Renault 5 Turbo06:12.885+1:42.380PS4
1651 hhsvenssonRenault 5 Turbo06:13.251+1:42.746PS4
1652 zajac550 Renault 5 Turbo06:13.502+1:42.997Steam
1653 aleonv3Renault 5 Turbo06:13.551+1:43.460PS4
1654 kevlarmanRenault 5 Turbo06:13.552+1:43.470Steam
1655 loloACERenault 5 Turbo06:13.718+1:43.213Xbox
1656 NovemberXRainRenault 5 Turbo06:13.852+1:43.347PS4
1657 saxo59Renault 5 Turbo06:14.002+1:43.497PS4
1658 AceTag14Renault 5 Turbo06:14.251+1:43.746Xbox
1659 CADVANRenault 5 Turbo06:14.351+1:43.846Xbox
1660 FRAN_43Renault 5 Turbo06:14.418+1:43.913PS4
1661 Not linkedRenault 5 Turbo06:14.552+1:44.470Xbox
1662 xianevil Renault 5 Turbo06:14.702+1:44.197Steam
1663 kseb08Renault 5 Turbo06:15.085+1:44.580PS4
1664 gibber__25Renault 5 Turbo06:15.352+1:44.847PS4
1665 MilRenault 5 Turbo06:15.435+1:44.930Steam
1666 onasutRenault 5 Turbo06:15.586+1:45.810Steam
1667 mariofranco74Renault 5 Turbo06:15.818+1:45.313PS4
1668 billetboull69Renault 5 Turbo06:15.835+1:45.330Xbox
1669 DeDCrispixRenault 5 Turbo06:15.868+1:45.363PS4
1670 Not linkedRenault 5 Turbo06:16.084+1:45.579Xbox
1671 mokelo71Renault 5 Turbo06:16.286+1:45.781PS4
1672 mommi555Renault 5 Turbo06:16.302+1:45.797PS4
1673 Kanku Renault 5 Turbo06:16.484+1:45.979Steam
1674 benoitr01 Renault 5 Turbo06:16.518+1:46.130Steam
1675 david7talentino Renault 5 Turbo06:16.585+1:46.800Steam
1676 ambrelouisaRenault 5 Turbo06:16.735+1:46.230PS4
1677 TrajsonSVKRenault 5 Turbo06:16.769+1:46.264PS4
1678 miguelillol23Renault 5 Turbo06:16.785+1:46.280PS4
1679 pitrou2200Renault 5 Turbo06:16.868+1:46.363Xbox
1680 PEPE_RYOUSSERenault 5 Turbo06:16.934+1:46.429PS4
1681 TGMruleRenault 5 Turbo06:16.952+1:46.447PS4
1682 alaningRenault 5 Turbo06:16.984+1:46.479PS4
1683 Jon the VGNerdRenault 5 Turbo06:17.418+1:46.913Steam
1684 Not linkedRenault 5 Turbo06:17.502+1:46.997Xbox
1685 The_P-KRenault 5 Turbo06:17.518+1:47.130PS4
1686 nickybowRenault 5 Turbo06:17.618+1:47.113PS4
1687 taumaRenault 5 Turbo06:17.685+1:47.180Xbox
1688 TdcossieblokeRenault 5 Turbo06:17.951+1:47.446PS4
1689 darkewing Renault 5 Turbo06:18.284+1:47.779Steam
1690 frakilla1Renault 5 Turbo06:18.402+1:47.897PS4
1691 Wongar Renault 5 Turbo06:18.902+1:48.397Steam
1692 Biologos75Renault 5 Turbo06:19.101+1:48.596PS4
1693 germainyvanRenault 5 Turbo06:19.718+1:49.213Steam
1694 Luca SorixRenault 5 Turbo06:19.802+1:49.297Steam
1695 totoddRenault 5 Turbo06:19.951+1:49.446Steam
1696 smauguedu71Renault 5 Turbo06:19.968+1:49.463PS4
1697 nightmare666091Renault 5 Turbo06:20.335+1:49.830PS4
1698 Not linkedRenault 5 Turbo06:20.351+1:49.846Xbox
1699 cooki815Renault 5 Turbo06:20.352+1:49.847PS4
1700 ctrgodRenault 5 Turbo06:20.635+1:50.130PS4
1701 TURTandMURTRenault 5 Turbo06:20.701+1:50.196PS4
1702 angelo90vascoRenault 5 Turbo06:20.835+1:50.330PS4
1703 aketsi90Renault 5 Turbo06:21.285+1:50.780PS4
1704 Hyperlink Renault 5 Turbo06:21.334+1:50.829Steam
1705 heavydudeb3Renault 5 Turbo06:21.418+1:50.913PS4
1706 gcookscotlandRenault 5 Turbo06:21.435+1:50.930PS4
1707 HOEKEMA14Renault 5 Turbo06:21.718+1:51.213PS4
1708 aagmat67Renault 5 Turbo06:21.768+1:51.263PS4
1709 DazRalphs Renault 5 Turbo06:21.935+1:51.430Steam
1710 jamlopesRenault 5 Turbo06:22.234+1:51.729PS4
1711 leichtmatrose23Renault 5 Turbo06:22.618+1:52.113PS4
1712 rocknrollafmxRenault 5 Turbo06:22.935+1:52.430PS4
1713 Oliveira Renault 5 Turbo06:22.968+1:52.463Steam
1714 thierry8809Renault 5 Turbo06:23.135+1:52.630Xbox
1715 Not linkedRenault 5 Turbo06:23.301+1:52.796Xbox
1716 Shinmaru82Renault 5 Turbo06:23.818+1:53.313PS4
1717 meikamandoliinoRenault 5 Turbo06:24.002+1:53.497PS4
1718 StarliteRenault 5 Turbo06:24.018+1:53.513Steam
1719 rokyoldschoolRenault 5 Turbo06:24.101+1:53.596Steam
1720 NCMiguelRenault 5 Turbo06:24.101+1:53.596PS4
1721 boes.wRenault 5 Turbo06:24.135+1:53.630Steam
1722 veustRenault 5 Turbo06:24.219+1:53.714PS4
1723 Rijkaard_57Renault 5 Turbo06:24.418+1:53.913PS4
1724 swoosh71Renault 5 Turbo06:24.419+1:53.914Xbox
1725 kacaroth Renault 5 Turbo06:24.817+1:54.312Steam
1726 Mega Renault 5 Turbo06:24.967+1:54.462Steam
1727 heiko1860Renault 5 Turbo06:25.719+1:55.214Xbox
1728 bpr555Renault 5 Turbo06:25.968+1:55.463PS4
1729 stumpfRenault 5 Turbo06:26.052+1:55.547Steam
1730 chuck66689099764Renault 5 Turbo06:26.351+1:55.846PS4
1731 Mr_GodbirdRenault 5 Turbo06:26.551+1:56.460PS4
1732 guigz172Renault 5 Turbo06:26.702+1:56.197PS4
1733 h2sbass Renault 5 Turbo06:27.202+1:56.697Steam
1734 JoeriNator Renault 5 Turbo06:27.818+1:57.313Steam
1735 mariovilas Renault 5 Turbo06:27.867+1:57.362Steam
1736 GandalfsRenault 5 Turbo06:28.035+1:57.530PS4
1737 Inkfreak666Renault 5 Turbo06:28.234+1:57.729PS4
1738 pooh1057Renault 5 Turbo06:28.517+1:58.120PS4
1739 elektrik239Renault 5 Turbo06:28.518+1:58.130Steam
1740 Q-TIP707Renault 5 Turbo06:28.684+1:58.179PS4
1741 myblackcat2Renault 5 Turbo06:29.018+1:58.513PS4
1742 rubentudelajodarRenault 5 Turbo06:29.718+1:59.213PS4
1743 Magnum50Renault 5 Turbo06:29.718+1:59.213Xbox
1744 voigt691Renault 5 Turbo06:29.901+1:59.396Steam
1745 isbeer42Renault 5 Turbo06:30.001+1:59.496PS4
1746 Not linkedRenault 5 Turbo06:30.068+1:59.563Xbox
1747 haggis1010Renault 5 Turbo06:30.334+1:59.829PS4
1748 † † † † † Renault 5 Turbo06:30.618+2:00.113Steam
1749 geroppaRenault 5 Turbo06:30.934+2:00.429Steam
1750 Not linkedRenault 5 Turbo06:30.934+2:00.429Xbox
1751 Henri NoviceRenault 5 Turbo06:31.153+2:00.648Steam
1752 [OFc] LK3 Renault 5 Turbo06:31.236+2:00.731Steam
1753 turbo-jackRenault 5 Turbo06:31.817+2:01.312Steam
1754 Not linkedRenault 5 Turbo06:31.984+2:01.479Xbox
1755 Not linkedRenault 5 Turbo06:32.035+2:01.530Xbox
1756 LuizKarekaoRenault 5 Turbo06:32.218+2:01.713PS4
1757 blue_stigRenault 5 Turbo06:32.369+2:01.864PS4
1758 DazzirikRenault 5 Turbo06:32.618+2:02.113Xbox
1759 Dracos1982Renault 5 Turbo06:32.834+2:02.329PS4
1760 alexxtwoRenault 5 Turbo06:33.268+2:02.763Xbox
1761 HandSilverzRenault 5 Turbo06:33.318+2:02.813PS4
1762 oldestofmonksRenault 5 Turbo06:33.634+2:03.129Steam
1763 Jady Renault 5 Turbo06:33.634+2:03.129Steam
1764 bokeron_206Renault 5 Turbo06:33.801+2:03.296PS4
1765 marcomateRenault 5 Turbo06:33.818+2:03.313PS4
1766 Risbob89400Renault 5 Turbo06:34.650+2:04.145PS4
1767 azumi754Renault 5 Turbo06:35.200+2:04.695PS4
1768 Jbenito23Renault 5 Turbo06:35.250+2:04.745Steam
1769 Diziette Renault 5 Turbo06:35.968+2:05.463Steam
1770 XXmac59XXRenault 5 Turbo06:36.052+2:05.547Xbox
1771 Not linkedRenault 5 Turbo06:36.534+2:06.290Xbox
1772 piepert03Renault 5 Turbo06:37.285+2:06.780PS4
1773 damien568956Renault 5 Turbo06:38.135+2:07.630Steam
1774 fuegolatino88Renault 5 Turbo06:38.434+2:07.929Steam
1775 franck7075Renault 5 Turbo06:39.267+2:08.762PS4
1776 MatCat2CombretRenault 5 Turbo06:39.301+2:08.796PS4
1777 taubicgtrRenault 5 Turbo06:39.417+2:08.912PS4
1778 SkolmRenault 5 Turbo06:39.901+2:09.396PS4
1779 Not linkedRenault 5 Turbo06:39.984+2:09.479Xbox
1780 jimmy_clipRenault 5 Turbo06:40.201+2:09.696PS4
1781 eriknyberg_999Renault 5 Turbo06:40.435+2:09.930Steam
1782 boydhmRenault 5 Turbo06:40.551+2:10.460Xbox
1783 KingOfTarmacRenault 5 Turbo06:40.817+2:10.312PS4
1784 stevedkiwiRenault 5 Turbo06:41.251+2:10.746Steam
1785 mike-w0wRenault 5 Turbo06:41.251+2:10.746PS4
1786 josecarlosjsRenault 5 Turbo06:41.318+2:10.813PS4
1787 MohawkMarkus Renault 5 Turbo06:41.367+2:10.862Steam
1788 Winnie the JoohRenault 5 Turbo06:41.835+2:11.330Steam
1789 pawelszymansk815Renault 5 Turbo06:42.533+2:12.280PS4
1790 gil.marcin16Renault 5 Turbo06:43.018+2:12.513Steam
1791 pepe5803Renault 5 Turbo06:43.183+2:12.678Xbox
1792 NevorionRenault 5 Turbo06:43.585+2:13.800Steam
1793 CoskeLiveRenault 5 Turbo06:43.817+2:13.312PS4
1794 foxlkc Renault 5 Turbo06:44.150+2:13.645Steam
1795 marc_drsRenault 5 Turbo06:44.817+2:14.312Steam
1796 krisztian.koszoruRenault 5 Turbo06:45.101+2:14.596Steam
1797 GMark2Renault 5 Turbo06:45.318+2:14.813Xbox
1798 boomer129krRenault 5 Turbo06:45.467+2:14.962PS4
1799 Karanosh Renault 5 Turbo06:45.567+2:15.620Steam
1800 dylan42091Renault 5 Turbo06:46.034+2:15.529PS4
1801 stacy.rendallRenault 5 Turbo06:46.035+2:15.530Steam
1802 rules_z Renault 5 Turbo06:47.233+2:16.728Steam
1803 ROBOJASERenault 5 Turbo06:47.784+2:17.279PS4
1804 rambo13010Renault 5 Turbo06:48.900+2:18.395PS4
1805 00pellopaRenault 5 Turbo06:48.950+2:18.445Steam
1806 Lcfc444everRenault 5 Turbo06:49.017+2:18.512PS4
1807 LordJunkRenault 5 Turbo06:49.067+2:18.562Steam
1808 transamw1Renault 5 Turbo06:49.167+2:18.662PS4
1809 Markelen98Renault 5 Turbo06:49.250+2:18.745PS4
1810 Not linkedRenault 5 Turbo06:50.150+2:19.645Xbox
1811 tsgarp73Renault 5 Turbo06:50.318+2:19.813PS4
1812 GroovikeRenault 5 Turbo06:51.168+2:20.663Steam
1813 Benderp Renault 5 Turbo06:51.801+2:21.296Steam
1814 jekku-joreRenault 5 Turbo06:53.167+2:22.662PS4
1815 mikeharvey01Renault 5 Turbo06:53.185+2:22.680PS4
1816 bleifuss-46Renault 5 Turbo06:54.133+2:23.628PS4
1817 santersCARPRenault 5 Turbo06:54.750+2:24.245PS4
1818 Not linkedRenault 5 Turbo06:55.301+2:24.796Xbox
1819 sebastien4710Renault 5 Turbo06:56.767+2:26.262PS4
1820 BIFI73Renault 5 Turbo06:57.101+2:26.596PS4
1821 Not linkedRenault 5 Turbo06:57.218+2:26.713Xbox
1822 MarsihesRenault 5 Turbo06:58.070+2:27.565Steam
1823 djfab22Renault 5 Turbo06:58.201+2:27.696Steam
1824 BEAMER231Renault 5 Turbo06:58.251+2:27.746PS4
1825 ken-touchRenault 5 Turbo06:59.150+2:28.645PS4
1826 ??Renault 5 Turbo06:59.633+2:29.128Steam
1827 sinigrally30Renault 5 Turbo07:00.534+2:30.290Xbox
1828 Kali_Kush15Renault 5 Turbo07:01.649+2:31.144PS4
1829 darknight291987Renault 5 Turbo07:02.883+2:32.378PS4
1830 catchaRenault 5 Turbo07:03.501+2:32.996PS4
1831 jandeneweth Renault 5 Turbo07:04.117+2:33.612Steam
1832 *****Renault 5 Turbo07:06.484+2:35.979Steam
1833 jfk1266Renault 5 Turbo07:07.400+2:36.895PS4
1834 arttu4Renault 5 Turbo07:08.467+2:37.962PS4
1835 ZibiComplRenault 5 Turbo07:10.117+2:39.612PS4
1836 squalo1963astiRenault 5 Turbo07:10.833+2:40.328PS4
1837 satijn_zonder_aRenault 5 Turbo07:11.182+2:40.677Steam
1838 Not linkedRenault 5 Turbo07:11.799+2:41.294Xbox
1839 KingOfTheCakes Renault 5 Turbo07:12.836+2:42.331Steam
1840 ANDREYS1989Renault 5 Turbo07:13.584+2:43.790PS4
1841 tonio12991Renault 5 Turbo07:16.551+2:46.460PS4
1842 team_sayersRenault 5 Turbo07:18.249+2:47.744PS4
1843 okakug0Renault 5 Turbo07:18.436+2:47.931Steam
1844 Mickle613Renault 5 Turbo07:19.117+2:48.612PS4
1845 Not linkedRenault 5 Turbo07:19.665+2:49.160Xbox
1846 allelippaRenault 5 Turbo07:19.917+2:49.412PS4
1847 Karneol981Renault 5 Turbo07:21.799+2:51.294PS4
1848 MGSTID Renault 5 Turbo07:21.899+2:51.394Steam
1849 mollinedo92Renault 5 Turbo07:21.999+2:51.494PS4
1850 ggBlackPearlggRenault 5 Turbo07:22.149+2:51.644PS4
1851 ErrandBoyJP Renault 5 Turbo07:22.402+2:51.897Steam
1852 busterg128 Renault 5 Turbo07:23.002+2:52.497Steam
1853 MoqvistRenault 5 Turbo07:24.117+2:53.612Xbox
1854 silomaniaRenault 5 Turbo07:24.316+2:53.811PS4
1855 cozy_circleRenault 5 Turbo07:25.799+2:55.294PS4
1856 WhoaRenault 5 Turbo07:25.916+2:55.411Steam
1857 JC_AwingRenault 5 Turbo07:28.333+2:57.828PS4
1858 Not linkedRenault 5 Turbo07:29.048+2:58.543Xbox
1859 r99Renault 5 Turbo07:29.549+2:59.440Xbox
1860 geordie_cheeseRenault 5 Turbo07:30.052+2:59.547Steam
1861 KestilenceRenault 5 Turbo07:31.335+3:00.830Steam
1862 holmesRenault 5 Turbo07:31.833+3:01.328Steam
1863 mister535Renault 5 Turbo07:32.733+3:02.228PS4
1864 Joker-GER Renault 5 Turbo07:33.018+3:02.513Steam
1865 OlyacyRenault 5 Turbo07:33.966+3:03.461PS4
1866 Not linkedRenault 5 Turbo07:33.986+3:03.481Xbox
1867 Sbulien16Renault 5 Turbo07:34.332+3:03.827PS4
1868 there is no self Renault 5 Turbo07:36.350+3:05.845Steam
1869 traceymoseley2009 Renault 5 Turbo07:36.816+3:06.311Steam
1870 nag40422 Renault 5 Turbo07:39.184+3:08.679Steam
1871 jeremuratuRenault 5 Turbo07:41.416+3:10.911PS4
1872 Candevil_24Renault 5 Turbo07:42.766+3:12.261PS4
1873 Xzeqter Renault 5 Turbo07:43.786+3:13.281Steam
1874 ??Renault 5 Turbo07:44.116+3:13.611Steam
1875 pierre1979Renault 5 Turbo07:45.565+3:15.600Xbox
1876 duncanlo31 Renault 5 Turbo07:45.968+3:15.463Steam
1877 bobas639Renault 5 Turbo07:49.015+3:18.510PS4
1878 m0rd3_f0c45Renault 5 Turbo07:49.152+3:18.647PS4
1879 Xxjeffrey12xXRenault 5 Turbo07:51.198+3:20.693PS4
1880 PatolasGRRenault 5 Turbo07:52.800+3:22.295PS4
1881 FebustlsRenault 5 Turbo07:53.331+3:22.826PS4
1882 flernissrbijaRenault 5 Turbo07:54.118+3:23.613PS4
1883 LOVERIE73Renault 5 Turbo07:55.065+3:24.560PS4
1884 filtro84Renault 5 Turbo08:03.219+3:32.714PS4
1885 MrMastarRenault 5 Turbo08:06.764+3:36.259Xbox
1886 RaynigainenRenault 5 Turbo08:23.950+3:53.445PS4
1887 wgedwegRenault 5 Turbo08:26.533+3:56.280PS4
1888 Not linkedRenault 5 Turbo08:28.049+3:57.544Xbox
1889 kai.turnschuhRenault 5 Turbo08:42.849+4:12.344Steam
1890 ryohazuki21Renault 5 Turbo08:47.700+4:17.195PS4
1891 stuk23978Renault 5 Turbo09:02.016+4:31.511PS4
1892 KimianeRenault 5 Turbo09:15.797+4:45.292PS4
1893 narisa103Renault 5 Turbo09:32.951+5:02.446PS4
1894 justinfinlandRenault 5 Turbo09:57.014+5:26.509PS4
1895 AbdullahRenault 5 Turbo10:09.231+5:38.726Steam
1896 paire456Renault 5 Turbo10:15.632+5:45.127PS4
1897 Naglepus Renault 5 Turbo15:00.000+10:29.495Steam
1898 xXxN0sc0peF4taLitY420blazeITxXx Renault 5 Turbo15:00.000+10:29.495Steam
1899 ZendaRenault 5 Turbo15:00.000+10:29.495Steam
1900 lomixteam Renault 5 Turbo15:00.000+10:29.495Steam
1901 GooglePlexRenault 5 Turbo15:00.000+10:29.495Steam
1902 Zlu Renault 5 Turbo15:00.000+10:29.495Steam
1903 barneymitchell Renault 5 Turbo15:00.000+10:29.495Steam
1904 HOOTSMONRenault 5 Turbo15:00.000+10:29.495Steam
1905 vulture13 Renault 5 Turbo15:00.000+10:29.495Steam
1906 RealjuRenault 5 Turbo15:00.000+10:29.495Steam
1907 Moises Carvalho Renault 5 Turbo15:00.000+10:29.495Steam
1908 kyoseonkRenault 5 Turbo15:00.000+10:29.495Steam
1909 simon.cloutierRenault 5 Turbo15:00.000+10:29.495Steam
1910 RehtoriRenault 5 Turbo15:00.000+10:29.495Steam
1911 NavitoriRenault 5 Turbo15:00.000+10:29.495Steam
1912 Benoit96 Renault 5 Turbo15:00.000+10:29.495Steam
1913 Michael.Nielsen Renault 5 Turbo15:00.000+10:29.495Steam
1914 EdRenault 5 Turbo15:00.000+10:29.495Steam
1915 Et Ipsum IngeniumRenault 5 Turbo15:00.000+10:29.495Steam
1916 SusoNoviC ?Renault 5 Turbo15:00.000+10:29.495Steam
1917 salxs13Renault 5 Turbo15:00.000+10:29.495Steam
1918 Bwoah Renault 5 Turbo15:00.000+10:29.495Steam
1919 zipgleamer Renault 5 Turbo15:00.000+10:29.495Steam
1920 piiz Renault 5 Turbo15:00.000+10:29.495Steam
1921 ApocalYpseRenault 5 Turbo15:00.000+10:29.495Steam
1922 jmrs000Renault 5 Turbo15:00.000+10:29.495Steam
1923 MarsausRenault 5 Turbo15:00.000+10:29.495Steam
1924 sterazRenault 5 Turbo15:00.000+10:29.495Steam
1925 kabanosikRenault 5 Turbo15:00.000+10:29.495Steam
1926 OcelotRenault 5 Turbo15:00.000+10:29.495Steam
1927 Tarako0KaRenault 5 Turbo15:00.000+10:29.495Steam
1928 StoryVS ( ° ???°)?n?Renault 5 Turbo15:00.000+10:29.495Steam
1929 ab3lRenault 5 Turbo15:00.000+10:29.495Steam
1930 uno6Renault 5 Turbo15:00.000+10:29.495Steam
1931 ALIEN nicoRenault 5 Turbo15:00.000+10:29.495Steam
1932 drakar Renault 5 Turbo15:00.000+10:29.495Steam
1933 kakudouh.8053Renault 5 Turbo15:00.000+10:29.495Steam
1934 puppukupuu(jp) Renault 5 Turbo15:00.000+10:29.495Steam
1935 [NRT]NarembyRenault 5 Turbo15:00.000+10:29.495Steam
1936 Ville Renault 5 Turbo15:00.000+10:29.495Steam
1937 gekochte suelzwurst Renault 5 Turbo15:00.000+10:29.495Steam
1938 Vostaros Renault 5 Turbo15:00.000+10:29.495Steam
1939 AngRenault 5 Turbo15:00.000+10:29.495Steam
1940 micmal1980 Renault 5 Turbo15:00.000+10:29.495Steam
1941 jon_i634 Renault 5 Turbo15:00.000+10:29.495Steam
1942 EbersbachRenault 5 Turbo15:00.000+10:29.495Steam
1943 stiertje27Renault 5 Turbo15:00.000+10:29.495Steam
1944 Arya Starkova Renault 5 Turbo15:00.000+10:29.495Steam
1945 smk5526Renault 5 Turbo15:00.000+10:29.495Steam
1946 Wata Renault 5 Turbo15:00.000+10:29.495Steam
1947 TRANECORenault 5 Turbo15:00.000+10:29.495Steam
1948 wolfsmond73Renault 5 Turbo15:00.000+10:29.495Steam
1949 PlanetgroxRenault 5 Turbo15:00.000+10:29.495Steam
1950 10. Danne FriskRenault 5 Turbo15:00.000+10:29.495Steam
1951 endingisnearRenault 5 Turbo15:00.000+10:29.495Steam
1952 JuanPaGT™ Renault 5 Turbo15:00.000+10:29.495Steam
1953 Mau Max Renault 5 Turbo15:00.000+10:29.495Steam
1954 Puyke1Renault 5 Turbo15:00.000+10:29.495Steam
1955 soboog Renault 5 Turbo15:00.000+10:29.495Steam
1956 rrknnemuRenault 5 Turbo15:00.000+10:29.495Steam
1957 Flavster Renault 5 Turbo15:00.000+10:29.495Steam
1958 Marek1Renault 5 Turbo15:00.000+10:29.495Steam
1959 Erlendur Renault 5 Turbo15:00.000+10:29.495Steam
1960 greg39 Renault 5 Turbo15:00.000+10:29.495Steam
1961 Dannyboy Renault 5 Turbo15:00.000+10:29.495Steam
1962 dogriverrunner Renault 5 Turbo15:00.000+10:29.495Steam
1963 e447Renault 5 Turbo15:00.000+10:29.495Steam
1964 NeoRenault 5 Turbo15:00.000+10:29.495Steam
1965 hu-koelsch Renault 5 Turbo15:00.000+10:29.495Steam
1966 rico.molaroRenault 5 Turbo15:00.000+10:29.495Steam
1967 Valletta Meme MasterRenault 5 Turbo15:00.000+10:29.495Steam
1968 MuelizRenault 5 Turbo15:00.000+10:29.495Steam
1969 EdBoy WW Renault 5 Turbo15:00.000+10:29.495Steam
1970 gianodriver1Renault 5 Turbo15:00.000+10:29.495Steam
1971 Ozwizard6Renault 5 Turbo15:00.000+10:29.495Steam
1972 Greenthumb_BERenault 5 Turbo15:00.000+10:29.495Steam
1973 SpatialDragon Renault 5 Turbo15:00.000+10:29.495Steam
1974 sedahell Renault 5 Turbo15:00.000+10:29.495Steam
1975 SlowMo??Phlegmatix Renault 5 Turbo15:00.000+10:29.495Steam
1976 Brotux Renault 5 Turbo15:00.000+10:29.495Steam
1977 pitthekid44 Renault 5 Turbo15:00.000+10:29.495Steam
1978 Guybrush Renault 5 Turbo15:00.000+10:29.495Steam
1979 ftnmgkRenault 5 Turbo15:00.000+10:29.495Steam
1980 tomasz.xxxxxRenault 5 Turbo15:00.000+10:29.495Steam
1981 dvduquesne Renault 5 Turbo15:00.000+10:29.495Steam
1982 s-tsenRenault 5 Turbo15:00.000+10:29.495Steam
1983 bobidul Renault 5 Turbo15:00.000+10:29.495Steam
1984 touquet.julienRenault 5 Turbo15:00.000+10:29.495Steam
1985 Je@nPh1Renault 5 Turbo15:00.000+10:29.495Steam
1986 SnafuRenault 5 Turbo15:00.000+10:29.495Steam
1987 OldStag3rRenault 5 Turbo15:00.000+10:29.495Steam
1988 Jultomtetris Renault 5 Turbo15:00.000+10:29.495Steam
1989 Ruben18 Renault 5 Turbo15:00.000+10:29.495Steam
1990 Sniker One Renault 5 Turbo15:00.000+10:29.495Steam
1991 B. SoffenRenault 5 Turbo15:00.000+10:29.495Steam
1992 Nobody Ti Guarda Renault 5 Turbo15:00.000+10:29.495Steam
1993 manos23 Renault 5 Turbo15:00.000+10:29.495Steam
1994 Marviva2808Renault 5 Turbo15:00.000+10:29.495Steam
1995 Krsta Renault 5 Turbo15:00.000+10:29.495Steam
1996 Revelation Renault 5 Turbo15:00.000+10:29.495Steam
1997 Joker Junior Renault 5 Turbo15:00.000+10:29.495Steam
1998 E.Calcagno Renault 5 Turbo15:00.000+10:29.495Steam
1999 (=VvV=)BLAST Renault 5 Turbo15:00.000+10:29.495Steam
2000 Keule Renault 5 Turbo15:00.000+10:29.495Steam
2001 KARASAWA Renault 5 Turbo15:00.000+10:29.495Steam
2002 HrodgarRenault 5 Turbo15:00.000+10:29.495Steam
2003 arto.ollikainenRenault 5 Turbo15:00.000+10:29.495Steam
2004 stepennacchioRenault 5 Turbo15:00.000+10:29.495Steam
2005 cOne!Renault 5 Turbo15:00.000+10:29.495Steam
2006 EIkumina Renault 5 Turbo15:00.000+10:29.495Steam
2007 fragles70Renault 5 Turbo15:00.000+10:29.495Steam
2008 Sindaco106Renault 5 Turbo15:00.000+10:29.495Steam
2009 Shark21Renault 5 Turbo15:00.000+10:29.495Steam
2010 X-calibr-8 Renault 5 Turbo15:00.000+10:29.495Steam
2011 lamaug Renault 5 Turbo15:00.000+10:29.495Steam
2012 sarlsolamaRenault 5 Turbo15:00.000+10:29.495Steam
2013 joerg.wiesmann Renault 5 Turbo15:00.000+10:29.495Steam
2014 masuatRenault 5 Turbo15:00.000+10:29.495Steam
2015 Fide Renault 5 Turbo15:00.000+10:29.495Steam
2016 Perejil69 Renault 5 Turbo15:00.000+10:29.495Steam
2017 1.21 GigawattRenault 5 Turbo15:00.000+10:29.495Steam
2018 PW?XRenault 5 Turbo15:00.000+10:29.495Steam
2019 DatamancerRenault 5 Turbo15:00.000+10:29.495Steam
2020 GTC Renault 5 Turbo15:00.000+10:29.495Steam
2021 A_Vulgar_Picture Renault 5 Turbo15:00.000+10:29.495Steam
2022 drYnduS csgo-dope.comRenault 5 Turbo15:00.000+10:29.495Steam
2023 Costich Renault 5 Turbo15:00.000+10:29.495Steam
2024 Bipbip972 Renault 5 Turbo15:00.000+10:29.495Steam
2025 laricojohnRenault 5 Turbo15:00.000+10:29.495Steam
2026 awkdyqd1Renault 5 Turbo15:00.000+10:29.495Steam
2027 Nosferatu Renault 5 Turbo15:00.000+10:29.495Steam
2028 jakobjordrup Renault 5 Turbo15:00.000+10:29.495Steam
2029 SlowpokeRenault 5 Turbo15:00.000+10:29.495Steam
2030 kolax77 Renault 5 Turbo15:00.000+10:29.495Steam
2031 sanderjarv5Renault 5 Turbo15:00.000+10:29.495Steam
2032 riccardocandidiRenault 5 Turbo15:00.000+10:29.495Steam
2033 Ralf WRCRenault 5 Turbo15:00.000+10:29.495Steam
2034 ( ?o? )?Renault 5 Turbo15:00.000+10:29.495Steam
2035 jpierre 7 Renault 5 Turbo15:00.000+10:29.495Steam
2036 ZenoRenault 5 Turbo15:00.000+10:29.495Steam
2037 SoulReiver Renault 5 Turbo15:00.000+10:29.495Steam
2038 Heino Hinterseer Renault 5 Turbo15:00.000+10:29.495Steam
2039 harri.lattuRenault 5 Turbo15:00.000+10:29.495Steam
2040 gabo4830 Renault 5 Turbo15:00.000+10:29.495Steam
2041 Michiage Renault 5 Turbo15:00.000+10:29.495Steam
2042 max Renault 5 Turbo15:00.000+10:29.495Steam
2043 markoBicepsRenault 5 Turbo15:00.000+10:29.495Steam
2044 DG301Renault 5 Turbo15:00.000+10:29.495Steam
2045 bughonda22Renault 5 Turbo15:00.000+10:29.495Steam
2046 Psycho69Renault 5 Turbo15:00.000+10:29.495Steam
2047 poxoracingRenault 5 Turbo15:00.000+10:29.495Steam
2048 Fr34kfrag Renault 5 Turbo15:00.000+10:29.495Steam
2049 JonesRenault 5 Turbo15:00.000+10:29.495Steam
2050 na-suRenault 5 Turbo15:00.000+10:29.495Steam
2051 krashokkRenault 5 Turbo15:00.000+10:29.495Steam
2052 c4svRenault 5 Turbo15:00.000+10:29.495Steam
2053 Pear PenRenault 5 Turbo15:00.000+10:29.495Steam
2054 [DNP] Sweaty Tryhard™Renault 5 Turbo15:00.000+10:29.495Steam
2055 Babar Renault 5 Turbo15:00.000+10:29.495Steam
2056 jdktooRenault 5 Turbo15:00.000+10:29.495Steam
2057 4554551N Renault 5 Turbo15:00.000+10:29.495Steam
2058 Winnie35 Renault 5 Turbo15:00.000+10:29.495Steam
2059 cactus62Renault 5 Turbo15:00.000+10:29.495Steam
2060 zimmerst86Renault 5 Turbo15:00.000+10:29.495Steam
2061 sebbtab Renault 5 Turbo15:00.000+10:29.495Steam
2062 troopersingerRenault 5 Turbo15:00.000+10:29.495Steam
2063 ExGenRenault 5 Turbo15:00.000+10:29.495Steam
2064 OppaiRenault 5 Turbo15:00.000+10:29.495Steam
2065 Toto Renault 5 Turbo15:00.000+10:29.495Steam
2066 VuleRenault 5 Turbo15:00.000+10:29.495Steam
2067 llienzo Renault 5 Turbo15:00.000+10:29.495Steam
2068 krzo69 | kickback.comRenault 5 Turbo15:00.000+10:29.495Steam
2069 Cavernous Ennui Renault 5 Turbo15:00.000+10:29.495Steam
2070 mmm pancakesRenault 5 Turbo15:00.000+10:29.495Steam
2071 tpeticolas Renault 5 Turbo15:00.000+10:29.495Steam
2072 d4z_gRenault 5 Turbo15:00.000+10:29.495Steam
2073 YankeizRenault 5 Turbo15:00.000+10:29.495Steam
2074 guenther Renault 5 Turbo15:00.000+10:29.495Steam
2075 Motörhead 2112Renault 5 Turbo15:00.000+10:29.495Steam
2076 BlackCorbakRenault 5 Turbo15:00.000+10:29.495Steam
2077 Tin Man Renault 5 Turbo15:00.000+10:29.495Steam
2078 Derek_the_Viking Renault 5 Turbo15:00.000+10:29.495Steam
2079 luckily Renault 5 Turbo15:00.000+10:29.495Steam
2080 Lulu29 Renault 5 Turbo15:00.000+10:29.495Steam
2081 GT3Mark2 Renault 5 Turbo15:00.000+10:29.495Steam
2082 onvivleRenault 5 Turbo15:00.000+10:29.495Steam
2083 GeorgyRenault 5 Turbo15:00.000+10:29.495Steam
2084 ysnr510Renault 5 Turbo15:00.000+10:29.495Steam
2085 fatkayaker Renault 5 Turbo15:00.000+10:29.495Steam
2086 ale.ricciardielloRenault 5 Turbo15:00.000+10:29.495Steam
2087 LowolfRenault 5 Turbo15:00.000+10:29.495Steam
2088 Parnassus Renault 5 Turbo15:00.000+10:29.495Steam
2089 Tone KatanoRenault 5 Turbo15:00.000+10:29.495Steam
2090 ladose.lebelge Renault 5 Turbo15:00.000+10:29.495Steam
2091 mirkko059 Renault 5 Turbo15:00.000+10:29.495Steam
2092 SOUSA Renault 5 Turbo15:00.000+10:29.495Steam
2093 sechi71 Renault 5 Turbo15:00.000+10:29.495Steam
2094 astil Renault 5 Turbo15:00.000+10:29.495Steam
2095 siimplangi Renault 5 Turbo15:00.000+10:29.495Steam
2096 ravRenault 5 Turbo15:00.000+10:29.495Steam
2097 AlvarSsonN Renault 5 Turbo15:00.000+10:29.495Steam
2098 [TMP]Buzzle84Renault 5 Turbo15:00.000+10:29.495Steam
2099 12. L Backlund Renault 5 Turbo15:00.000+10:29.495Steam
2100 ribey51Renault 5 Turbo15:00.000+10:29.495Steam
2101 safetytorch2Renault 5 Turbo15:00.000+10:29.495Steam
2102 Moo Renault 5 Turbo15:00.000+10:29.495Steam
2103 papinade.comRenault 5 Turbo15:00.000+10:29.495Steam
2104 hUm3xRenault 5 Turbo15:00.000+10:29.495Steam
2105 LuziferRenault 5 Turbo15:00.000+10:29.495Steam
2106 magicwise Renault 5 Turbo15:00.000+10:29.495Steam
2107 Againsthomer Renault 5 Turbo15:00.000+10:29.495Steam
2108 Fennek Renault 5 Turbo15:00.000+10:29.495Steam
2109 alexandre8763Renault 5 Turbo15:00.000+10:29.495Steam
2110 NOARBULL Renault 5 Turbo15:00.000+10:29.495Steam
2111 HoschtenRenault 5 Turbo15:00.000+10:29.495Steam
2112 carlos_baeza1 Renault 5 Turbo15:00.000+10:29.495Steam
2113 ((-=Zwaffie=-))Renault 5 Turbo15:00.000+10:29.495Steam
2114 Verkehrt Renault 5 Turbo15:00.000+10:29.495Steam
2115 Dr. HeisenbergRenault 5 Turbo15:00.000+10:29.495Steam
2116 noro2712 Renault 5 Turbo15:00.000+10:29.495Steam
2117 osmank38Renault 5 Turbo15:00.000+10:29.495Steam
2118 pueluempueluemRenault 5 Turbo15:00.000+10:29.495Steam
2119 anthony.brou6Renault 5 Turbo15:00.000+10:29.495Steam
2120 Arkh3nRenault 5 Turbo15:00.000+10:29.495Steam
2121 TORNADORenault 5 Turbo15:00.000+10:29.495Steam
2122 TheMotorz Renault 5 Turbo15:00.000+10:29.495Steam
2123 Alibi89Renault 5 Turbo15:00.000+10:29.495Steam
2124 orka!! Renault 5 Turbo15:00.000+10:29.495Steam
2125 Raccoon Renault 5 Turbo15:00.000+10:29.495Steam
2126 BeastyMcBeast Renault 5 Turbo15:00.000+10:29.495Steam
2127 AlexRenault 5 Turbo15:00.000+10:29.495Steam
2128 BigbudRenault 5 Turbo15:00.000+10:29.495Steam
2129 IlMielExtremeRenault 5 Turbo15:00.000+10:29.495Steam
2130 fasthammer Renault 5 Turbo15:00.000+10:29.495Steam
2131 ™?KYOKILLER!?™ ? Renault 5 Turbo15:00.000+10:29.495Steam
2132 dadou34270Renault 5 Turbo15:00.000+10:29.495Steam
2133 Eero Renault 5 Turbo15:00.000+10:29.495Steam
2134 DaniVTEC Renault 5 Turbo15:00.000+10:29.495Steam
2135 Bilyalov_iRenault 5 Turbo15:00.000+10:29.495Steam
2136 Wyatt earpRenault 5 Turbo15:00.000+10:29.495Steam
2137 anakondis Renault 5 Turbo15:00.000+10:29.495Steam
2138 UmbembweTumwemumbeKuemuvenveOsas Renault 5 Turbo15:00.000+10:29.495Steam
2139 OnionJack Renault 5 Turbo15:00.000+10:29.495Steam
2140 tileman1956 Renault 5 Turbo15:00.000+10:29.495Steam
2141 crazymotors Renault 5 Turbo15:00.000+10:29.495Steam
2142 CobraRenault 5 Turbo15:00.000+10:29.495Steam
2143 GekisokuRenault 5 Turbo15:00.000+10:29.495Steam
2144 Almanzor90 Renault 5 Turbo15:00.000+10:29.495Steam
2145 tessert Renault 5 Turbo15:00.000+10:29.495Steam
2146 Mosfos Renault 5 Turbo15:00.000+10:29.495Steam
2147 PirrohRenault 5 Turbo15:00.000+10:29.495Steam
2148 Anna Nimfomanova(Luxury)Renault 5 Turbo15:00.000+10:29.495Steam
2149 hei-huRenault 5 Turbo15:00.000+10:29.495Steam
2150 lurchiRenault 5 Turbo15:00.000+10:29.495Steam
2151 TumeK5 Renault 5 Turbo15:00.000+10:29.495Steam
2152 A.Ascari Renault 5 Turbo15:00.000+10:29.495Steam
2153 Miedzinš[K-REISS]Renault 5 Turbo15:00.000+10:29.495Steam
2154 Mr.DarkTown [DPT] Renault 5 Turbo15:00.000+10:29.495Steam
2155 Nemocyst Renault 5 Turbo15:00.000+10:29.495Steam
2156 BetterDay Renault 5 Turbo15:00.000+10:29.495Steam
2157 Sepe ! Renault 5 Turbo15:00.000+10:29.495Steam
2158 GrougnafRenault 5 Turbo15:00.000+10:29.495Steam
2159 metal spider Renault 5 Turbo15:00.000+10:29.495Steam
2160 IntrinsicRenault 5 Turbo15:00.000+10:29.495Steam
2161 tytusRenault 5 Turbo15:00.000+10:29.495Steam
2162 3a?Pa3??pRenault 5 Turbo15:00.000+10:29.495Steam
2163 ANDYRenault 5 Turbo15:00.000+10:29.495Steam
2164 Oni40 Renault 5 Turbo15:00.000+10:29.495Steam
2165 Gaz: Take the pissRenault 5 Turbo15:00.000+10:29.495Steam
2166 Robotic_Banana Renault 5 Turbo15:00.000+10:29.495Steam
2167 hannu.kilpelainenRenault 5 Turbo15:00.000+10:29.495Steam
2168 EriishRenault 5 Turbo15:00.000+10:29.495Steam
2169 AstrafreakRenault 5 Turbo15:00.000+10:29.495Steam
2170 jpeixeRenault 5 Turbo15:00.000+10:29.495Steam
2171 Grobatar Renault 5 Turbo15:00.000+10:29.495Steam
2172 Hoeny YOO Renault 5 Turbo15:00.000+10:29.495Steam
2173 ctiv-gpf1psRenault 5 Turbo15:00.000+10:29.495PS4
2174 juanitomazdarx8Renault 5 Turbo15:00.000+10:29.495PS4
2175 nanoNananteRenault 5 Turbo15:00.000+10:29.495PS4
2176 ZAI_ZAIBATSURenault 5 Turbo15:00.000+10:29.495PS4
2177 strasse2Renault 5 Turbo15:00.000+10:29.495PS4
2178 Thrill_Of_SpeedRenault 5 Turbo15:00.000+10:29.495PS4
2179 nalon5Renault 5 Turbo15:00.000+10:29.495PS4
2180 Xurao22Renault 5 Turbo15:00.000+10:29.495PS4
2181 AC-DELCO-3carRenault 5 Turbo15:00.000+10:29.495PS4
2182 SOELVSTEN_DKRenault 5 Turbo15:00.000+10:29.495PS4
2183 misterpewRenault 5 Turbo15:00.000+10:29.495PS4
2184 tiranna-89Renault 5 Turbo15:00.000+10:29.495PS4
2185 Leandrin34Renault 5 Turbo15:00.000+10:29.495PS4
2186 PortercapRenault 5 Turbo15:00.000+10:29.495PS4
2187 fun-66Renault 5 Turbo15:00.000+10:29.495PS4
2188 editLaterRenault 5 Turbo15:00.000+10:29.495PS4
2189 RonnieSennaRenault 5 Turbo15:00.000+10:29.495PS4
2190 fdr7375Renault 5 Turbo15:00.000+10:29.495PS4
2191 edwarsfireblastRenault 5 Turbo15:00.000+10:29.495PS4
2192 BankzeRRenault 5 Turbo15:00.000+10:29.495PS4
2193 manuturbor5Renault 5 Turbo15:00.000+10:29.495PS4
2194 LX29DAFT1Renault 5 Turbo15:00.000+10:29.495PS4
2195 sutrakRenault 5 Turbo15:00.000+10:29.495PS4
2196 Akira_FujiyoshiRenault 5 Turbo15:00.000+10:29.495PS4
2197 puppytdiRenault 5 Turbo15:00.000+10:29.495PS4
2198 lametrouxationRenault 5 Turbo15:00.000+10:29.495PS4
2199 ITz_Dio_ZeuS_zZzRenault 5 Turbo15:00.000+10:29.495PS4
2200 pradosgzRenault 5 Turbo15:00.000+10:29.495PS4
2201 taaciste18Renault 5 Turbo15:00.000+10:29.495PS4
2202 j2p2001frRenault 5 Turbo15:00.000+10:29.495PS4
2203 jwpaleRenault 5 Turbo15:00.000+10:29.495PS4
2204 hakulinen85Renault 5 Turbo15:00.000+10:29.495PS4
2205 ICWat_UDidTherRenault 5 Turbo15:00.000+10:29.495PS4
2206 BeberinhoTheKidRenault 5 Turbo15:00.000+10:29.495PS4
2207 kentaya84Renault 5 Turbo15:00.000+10:29.495PS4
2208 crossimichelRenault 5 Turbo15:00.000+10:29.495PS4
2209 cricri622211Renault 5 Turbo15:00.000+10:29.495PS4
2210 harry81202Renault 5 Turbo15:00.000+10:29.495PS4
2211 T0y74r1Renault 5 Turbo15:00.000+10:29.495PS4
2212 MirINgunRenault 5 Turbo15:00.000+10:29.495PS4
2213 elias-boca12Renault 5 Turbo15:00.000+10:29.495PS4
2214 pajaman2000Renault 5 Turbo15:00.000+10:29.495PS4
2215 Filous548Renault 5 Turbo15:00.000+10:29.495PS4
2216 fehomeRenault 5 Turbo15:00.000+10:29.495PS4
2217 ghomer0726Renault 5 Turbo15:00.000+10:29.495PS4
2218 titi-rallyRenault 5 Turbo15:00.000+10:29.495PS4
2219 Fred-CobraRenault 5 Turbo15:00.000+10:29.495PS4
2220 CB-106S16-N2Renault 5 Turbo15:00.000+10:29.495PS4
2221 anthoo_oooRenault 5 Turbo15:00.000+10:29.495PS4
2222 PrudentBearRenault 5 Turbo15:00.000+10:29.495PS4
2223 Rulo_GomzRenault 5 Turbo15:00.000+10:29.495PS4
2224 jonivejRenault 5 Turbo15:00.000+10:29.495PS4
2225 wrc83f183Renault 5 Turbo15:00.000+10:29.495PS4
2226 Takumi19Renault 5 Turbo15:00.000+10:29.495PS4
2227 jonnyu420Renault 5 Turbo15:00.000+10:29.495PS4
2228 sylmax087Renault 5 Turbo15:00.000+10:29.495PS4
2229 HipposTasteGoodRenault 5 Turbo15:00.000+10:29.495PS4
2230 Lyricson74Renault 5 Turbo15:00.000+10:29.495PS4
2231 ShinobiBananaRenault 5 Turbo15:00.000+10:29.495PS4
2232 papy63Renault 5 Turbo15:00.000+10:29.495PS4
2233 USACSPRINTRenault 5 Turbo15:00.000+10:29.495PS4
2234 xenonxyanideRenault 5 Turbo15:00.000+10:29.495PS4
2235 BILL_G_63Renault 5 Turbo15:00.000+10:29.495PS4
2236 Mario199500Renault 5 Turbo15:00.000+10:29.495PS4
2237 toad16Renault 5 Turbo15:00.000+10:29.495PS4
2238 saminojd84Renault 5 Turbo15:00.000+10:29.495PS4
2239 Tami3731Renault 5 Turbo15:00.000+10:29.495PS4
2240 belgianblitzRenault 5 Turbo15:00.000+10:29.495PS4
2241 crazysteve0101Renault 5 Turbo15:00.000+10:29.495PS4
2242 Caze14Renault 5 Turbo15:00.000+10:29.495PS4
2243 tonaveliRenault 5 Turbo15:00.000+10:29.495PS4
2244 MikeBeaslosRenault 5 Turbo15:00.000+10:29.495PS4
2245 SuperGeeks34Renault 5 Turbo15:00.000+10:29.495PS4
2246 Driver15-9Renault 5 Turbo15:00.000+10:29.495PS4
2247 Martin-Number-10Renault 5 Turbo15:00.000+10:29.495PS4
2248 IVR_OmarLLC46Renault 5 Turbo15:00.000+10:29.495PS4
2249 atard83Renault 5 Turbo15:00.000+10:29.495PS4
2250 DadeArdu2000Renault 5 Turbo15:00.000+10:29.495PS4
2251 chap69Renault 5 Turbo15:00.000+10:29.495PS4
2252 SfDkonscienCiaRenault 5 Turbo15:00.000+10:29.495PS4
2253 Garagou2aRenault 5 Turbo15:00.000+10:29.495PS4
2254 jeeppy40Renault 5 Turbo15:00.000+10:29.495PS4
2255 dodokarting18Renault 5 Turbo15:00.000+10:29.495PS4
2256 decojfmRenault 5 Turbo15:00.000+10:29.495PS4
2257 Verdawg71Renault 5 Turbo15:00.000+10:29.495PS4
2258 LanMiCervRenault 5 Turbo15:00.000+10:29.495PS4
2259 g2jasonRenault 5 Turbo15:00.000+10:29.495PS4
2260 Looky868Renault 5 Turbo15:00.000+10:29.495PS4
2261 SkerpetRenault 5 Turbo15:00.000+10:29.495PS4
2262 johnniewalker05Renault 5 Turbo15:00.000+10:29.495PS4
2263 Xflav83XRenault 5 Turbo15:00.000+10:29.495PS4
2264 funebre666Renault 5 Turbo15:00.000+10:29.495PS4
2265 markfe97Renault 5 Turbo15:00.000+10:29.495PS4
2266 Treezman70Renault 5 Turbo15:00.000+10:29.495PS4
2267 kin-nunRenault 5 Turbo15:00.000+10:29.495PS4
2268 kostasrallyman1Renault 5 Turbo15:00.000+10:29.495PS4
2269 skizo31270Renault 5 Turbo15:00.000+10:29.495PS4
2270 juanqui016Renault 5 Turbo15:00.000+10:29.495PS4
2271 GalandivendRenault 5 Turbo15:00.000+10:29.495PS4
2272 fcnyellow95Renault 5 Turbo15:00.000+10:29.495PS4
2273 dalejr8819Renault 5 Turbo15:00.000+10:29.495PS4
2274 daviyo7Renault 5 Turbo15:00.000+10:29.495PS4
2275 marius9198Renault 5 Turbo15:00.000+10:29.495PS4
2276 kero2003Renault 5 Turbo15:00.000+10:29.495PS4
2277 philtoscaniRenault 5 Turbo15:00.000+10:29.495PS4
2278 abbe-backhouseRenault 5 Turbo15:00.000+10:29.495PS4
2279 GPracing2bRenault 5 Turbo15:00.000+10:29.495PS4
2280 julienrallye122Renault 5 Turbo15:00.000+10:29.495PS4
2281 BFN13ls3Renault 5 Turbo15:00.000+10:29.495PS4
2282 WIMBIRenault 5 Turbo15:00.000+10:29.495PS4
2283 NicoMothetRenault 5 Turbo15:00.000+10:29.495PS4
2284 miguelmazda3Renault 5 Turbo15:00.000+10:29.495PS4
2285 maliDjuroRenault 5 Turbo15:00.000+10:29.495PS4
2286 MazzokieRenault 5 Turbo15:00.000+10:29.495PS4
2287 Alexpitu2001Renault 5 Turbo15:00.000+10:29.495PS4
2288 ISHTAR7769Renault 5 Turbo15:00.000+10:29.495PS4
2289 chiarababboRenault 5 Turbo15:00.000+10:29.495PS4
2290 HugoBestManRenault 5 Turbo15:00.000+10:29.495PS4
2291 olkiara317Renault 5 Turbo15:00.000+10:29.495PS4
2292 teamkronos88Renault 5 Turbo15:00.000+10:29.495PS4
2293 DJBouletteRenault 5 Turbo15:00.000+10:29.495PS4
2294 BartarakRenault 5 Turbo15:00.000+10:29.495PS4
2295 munrolewisRenault 5 Turbo15:00.000+10:29.495PS4
2296 MarcelarcRenault 5 Turbo15:00.000+10:29.495PS4
2297 fredo-lamotheRenault 5 Turbo15:00.000+10:29.495PS4
2298 XoniC1986Renault 5 Turbo15:00.000+10:29.495PS4
2299 Chris41061Renault 5 Turbo15:00.000+10:29.495PS4
2300 PITBULL03600Renault 5 Turbo15:00.000+10:29.495PS4
2301 ramkoteRenault 5 Turbo15:00.000+10:29.495PS4
2302 Aleexis_FuryRenault 5 Turbo15:00.000+10:29.495PS4
2303 exZacary1Renault 5 Turbo15:00.000+10:29.495PS4
2304 katzer96frontRenault 5 Turbo15:00.000+10:29.495PS4
2305 Mat_ps_4Renault 5 Turbo15:00.000+10:29.495PS4
2306 damiandechnikRenault 5 Turbo15:00.000+10:29.495PS4
2307 bounty38Renault 5 Turbo15:00.000+10:29.495PS4
2308 Keviiin46Renault 5 Turbo15:00.000+10:29.495PS4
2309 Luis2482Renault 5 Turbo15:00.000+10:29.495PS4
2310 Sberatel-dusiRenault 5 Turbo15:00.000+10:29.495PS4
2311 YungMizaRenault 5 Turbo15:00.000+10:29.495PS4
2312 meisterp1977Renault 5 Turbo15:00.000+10:29.495PS4
2313 bortulhomeRenault 5 Turbo15:00.000+10:29.495PS4
2314 Niko__14Renault 5 Turbo15:00.000+10:29.495PS4
2315 nerdzi37Renault 5 Turbo15:00.000+10:29.495PS4
2316 burnoutfireitupRenault 5 Turbo15:00.000+10:29.495PS4
2317 pf70300Renault 5 Turbo15:00.000+10:29.495PS4
2318 garyjamesvannerRenault 5 Turbo15:00.000+10:29.495PS4
2319 CeceCece79Renault 5 Turbo15:00.000+10:29.495PS4
2320 Crazyy-BonBonRenault 5 Turbo15:00.000+10:29.495PS4
2321 rallylover21Renault 5 Turbo15:00.000+10:29.495PS4
2322 compaqratRenault 5 Turbo15:00.000+10:29.495PS4
2323 jjotarRenault 5 Turbo15:00.000+10:29.495PS4
2324 WuerdeloserWurmRenault 5 Turbo15:00.000+10:29.495PS4
2325 Cosworthnut___69Renault 5 Turbo15:00.000+10:29.495PS4
2326 SinkaablakRenault 5 Turbo15:00.000+10:29.495PS4
2327 fargatteRenault 5 Turbo15:00.000+10:29.495PS4
2328 Wojcisz24Renault 5 Turbo15:00.000+10:29.495PS4
2329 Xx_bOuLe2Pu_xXRenault 5 Turbo15:00.000+10:29.495PS4
2330 PLinszterRenault 5 Turbo15:00.000+10:29.495PS4
2331 madbull-34-Renault 5 Turbo15:00.000+10:29.495PS4
2332 Berhane_MarleyRenault 5 Turbo15:00.000+10:29.495PS4
2333 mickeyrutsRenault 5 Turbo15:00.000+10:29.495PS4
2334 felelepRenault 5 Turbo15:00.000+10:29.495PS4
2335 GuilluuRenault 5 Turbo15:00.000+10:29.495PS4
2336 Merc2k10Renault 5 Turbo15:00.000+10:29.495PS4
2337 OLDF150Renault 5 Turbo15:00.000+10:29.495PS4
2338 ItsTimmyyyRenault 5 Turbo15:00.000+10:29.495PS4
2339 Giggle-ManiacRenault 5 Turbo15:00.000+10:29.495PS4
2340 DanLuca2010Renault 5 Turbo15:00.000+10:29.495PS4
2341 rollie_wedge1Renault 5 Turbo15:00.000+10:29.495PS4
2342 bast43600Renault 5 Turbo15:00.000+10:29.495PS4
2343 levieuxdu54620Renault 5 Turbo15:00.000+10:29.495PS4
2344 danizufiRenault 5 Turbo15:00.000+10:29.495PS4
2345 SonnentanzRenault 5 Turbo15:00.000+10:29.495PS4
2346 admiralkld60Renault 5 Turbo15:00.000+10:29.495PS4
2347 ZygmantovichRenault 5 Turbo15:00.000+10:29.495PS4
2348 Quentin-RallyeRenault 5 Turbo15:00.000+10:29.495PS4
2349 baipotrukRenault 5 Turbo15:00.000+10:29.495PS4
2350 romano27750Renault 5 Turbo15:00.000+10:29.495PS4
2351 PascalBrinkhausRenault 5 Turbo15:00.000+10:29.495PS4
2352 FuMarrrioRenault 5 Turbo15:00.000+10:29.495PS4
2353 hameen1Renault 5 Turbo15:00.000+10:29.495PS4
2354 Yannick417Renault 5 Turbo15:00.000+10:29.495PS4
2355 hobsgrgRenault 5 Turbo15:00.000+10:29.495PS4
2356 Nacho_2912Renault 5 Turbo15:00.000+10:29.495PS4
2357 hairikkoRenault 5 Turbo15:00.000+10:29.495PS4
2358 fredo_lagachetteRenault 5 Turbo15:00.000+10:29.495PS4
2359 Bommels195Renault 5 Turbo15:00.000+10:29.495PS4
2360 Schulzinger77Renault 5 Turbo15:00.000+10:29.495PS4
2361 ErnyonRenault 5 Turbo15:00.000+10:29.495PS4
2362 soilentdRenault 5 Turbo15:00.000+10:29.495PS4
2363 bellazapRenault 5 Turbo15:00.000+10:29.495PS4
2364 Racecraft15Renault 5 Turbo15:00.000+10:29.495PS4
2365 nteraoRenault 5 Turbo15:00.000+10:29.495PS4
2366 SockenmollieRenault 5 Turbo15:00.000+10:29.495PS4
2367 skyhai08Renault 5 Turbo15:00.000+10:29.495PS4
2368 ThomasSCRATCH39Renault 5 Turbo15:00.000+10:29.495PS4
2369 alvarojavier444Renault 5 Turbo15:00.000+10:29.495PS4
2370 Peltsi92Renault 5 Turbo15:00.000+10:29.495PS4
2371 jasonp8383Renault 5 Turbo15:00.000+10:29.495PS4
2372 tonycanijoRenault 5 Turbo15:00.000+10:29.495PS4
2373 PanagiotisPatraRenault 5 Turbo15:00.000+10:29.495PS4
2374 highspeedturnRenault 5 Turbo15:00.000+10:29.495PS4
2375 vdbuzRenault 5 Turbo15:00.000+10:29.495PS4
2376 andresgonza993Renault 5 Turbo15:00.000+10:29.495PS4
2377 fred29tyrexRenault 5 Turbo15:00.000+10:29.495PS4
2378 zornostiRenault 5 Turbo15:00.000+10:29.495PS4
2379 flaschi774Renault 5 Turbo15:00.000+10:29.495PS4
2380 vicenlu71Renault 5 Turbo15:00.000+10:29.495PS4
2381 realcefaluRenault 5 Turbo15:00.000+10:29.495PS4
2382 stamina_joshRenault 5 Turbo15:00.000+10:29.495PS4
2383 Noe77FerFalRenault 5 Turbo15:00.000+10:29.495PS4
2384 Phil_the_SlugRenault 5 Turbo15:00.000+10:29.495PS4
2385 OpaPietRenault 5 Turbo15:00.000+10:29.495PS4
2386 stephan3828Renault 5 Turbo15:00.000+10:29.495PS4
2387 robersson84Renault 5 Turbo15:00.000+10:29.495PS4
2388 TFG_ZrTRenault 5 Turbo15:00.000+10:29.495PS4
2389 alex_jgilRenault 5 Turbo15:00.000+10:29.495PS4
2390 hansi0406Renault 5 Turbo15:00.000+10:29.495PS4
2391 toms05000Renault 5 Turbo15:00.000+10:29.495PS4
2392 mathiasrussowRenault 5 Turbo15:00.000+10:29.495PS4
2393 xcyclo1Renault 5 Turbo15:00.000+10:29.495PS4
2394 gentis666Renault 5 Turbo15:00.000+10:29.495PS4
2395 DavidTauchoRenault 5 Turbo15:00.000+10:29.495PS4
2396 TouK26Renault 5 Turbo15:00.000+10:29.495PS4
2397 Spike1910GizmoRenault 5 Turbo15:00.000+10:29.495PS4
2398 PIE_PEDRORenault 5 Turbo15:00.000+10:29.495PS4
2399 Patate-beurreRenault 5 Turbo15:00.000+10:29.495PS4
2400 Melea_27Renault 5 Turbo15:00.000+10:29.495PS4
2401 CycoterminatorRenault 5 Turbo15:00.000+10:29.495PS4
2402 paulminton101Renault 5 Turbo15:00.000+10:29.495PS4
2403 wenjoylifeRenault 5 Turbo15:00.000+10:29.495PS4
2404 ptitdjo74Renault 5 Turbo15:00.000+10:29.495PS4
2405 pedrokazioRenault 5 Turbo15:00.000+10:29.495PS4
2406 Titi39110Renault 5 Turbo15:00.000+10:29.495PS4
2407 hapychapRenault 5 Turbo15:00.000+10:29.495PS4
2408 anto-vr6Renault 5 Turbo15:00.000+10:29.495PS4
2409 woodywollerRenault 5 Turbo15:00.000+10:29.495PS4
2410 gabmanu--Renault 5 Turbo15:00.000+10:29.495PS4
2411 Josecap2bRenault 5 Turbo15:00.000+10:29.495PS4
2412 FvK-ChirriSRenault 5 Turbo15:00.000+10:29.495PS4
2413 K_mcgee1992Renault 5 Turbo15:00.000+10:29.495PS4
2414 xXMaxitXxRenault 5 Turbo15:00.000+10:29.495PS4
2415 matthias-weber89Renault 5 Turbo15:00.000+10:29.495PS4
2416 vik8282626Renault 5 Turbo15:00.000+10:29.495PS4
2417 mozzo221290Renault 5 Turbo15:00.000+10:29.495PS4
2418 FatanicTeRenault 5 Turbo15:00.000+10:29.495PS4
2419 raul99946Renault 5 Turbo15:00.000+10:29.495PS4
2420 ONANllll990lllllRenault 5 Turbo15:00.000+10:29.495PS4
2421 guaouardRenault 5 Turbo15:00.000+10:29.495PS4
2422 UncleHammondRenault 5 Turbo15:00.000+10:29.495PS4
2423 QhrishtohZRenault 5 Turbo15:00.000+10:29.495PS4
2424 bella25398Renault 5 Turbo15:00.000+10:29.495PS4
2425 Wtal_RipleyRenault 5 Turbo15:00.000+10:29.495PS4
2426 corpscop43Renault 5 Turbo15:00.000+10:29.495PS4
2427 Painkiller144Renault 5 Turbo15:00.000+10:29.495PS4
2428 SkinnyTalls2ESRenault 5 Turbo15:00.000+10:29.495PS4
2429 follow-me-77Renault 5 Turbo15:00.000+10:29.495PS4
2430 Honey_PapamaniacRenault 5 Turbo15:00.000+10:29.495PS4
2431 EMRAM81Renault 5 Turbo15:00.000+10:29.495PS4
2432 kevinholtz22Renault 5 Turbo15:00.000+10:29.495PS4
2433 Reverend_GerRenault 5 Turbo15:00.000+10:29.495PS4
2434 newmoraureRenault 5 Turbo15:00.000+10:29.495PS4
2435 varo_182Renault 5 Turbo15:00.000+10:29.495PS4
2436 valentinradiguetRenault 5 Turbo15:00.000+10:29.495PS4
2437 DirtPaulRenault 5 Turbo15:00.000+10:29.495PS4
2438 PouceMagiqueRenault 5 Turbo15:00.000+10:29.495PS4
2439 sushiflashRenault 5 Turbo15:00.000+10:29.495PS4
2440 ruubsuubRenault 5 Turbo15:00.000+10:29.495PS4
2441 roropiumRenault 5 Turbo15:00.000+10:29.495PS4
2442 TJ-ArchinoRenault 5 Turbo15:00.000+10:29.495PS4
2443 bungal99Renault 5 Turbo15:00.000+10:29.495PS4
2444 rallyeman34Renault 5 Turbo15:00.000+10:29.495PS4
2445 guzag20Renault 5 Turbo15:00.000+10:29.495PS4
2446 KAZevo4Renault 5 Turbo15:00.000+10:29.495PS4
2447 N1KKERenault 5 Turbo15:00.000+10:29.495PS4
2448 tanne42Renault 5 Turbo15:00.000+10:29.495PS4
2449 Bpzjuanito834Renault 5 Turbo15:00.000+10:29.495PS4
2450 OOOLEGABRenault 5 Turbo15:00.000+10:29.495PS4
2451 seb14071968Renault 5 Turbo15:00.000+10:29.495PS4
2452 bussssse-leclairRenault 5 Turbo15:00.000+10:29.495PS4
2453 matcam29Renault 5 Turbo15:00.000+10:29.495PS4
2454 jasou35Renault 5 Turbo15:00.000+10:29.495PS4
2455 Teoteo81Renault 5 Turbo15:00.000+10:29.495PS4
2456 jonny10046Renault 5 Turbo15:00.000+10:29.495PS4
2457 Tommi_84Renault 5 Turbo15:00.000+10:29.495PS4
2458 Antikoerper87Renault 5 Turbo15:00.000+10:29.495PS4
2459 cozy350Renault 5 Turbo15:00.000+10:29.495PS4
2460 hammy4Renault 5 Turbo15:00.000+10:29.495PS4
2461 raffier72Renault 5 Turbo15:00.000+10:29.495PS4
2462 Gerli86gRenault 5 Turbo15:00.000+10:29.495PS4
2463 PipiR6Renault 5 Turbo15:00.000+10:29.495PS4
2464 kiliman007Renault 5 Turbo15:00.000+10:29.495PS4
2465 SquatSperlRenault 5 Turbo15:00.000+10:29.495PS4
2466 TeeKoo80Renault 5 Turbo15:00.000+10:29.495PS4
2467 SimuzDarkuzRenault 5 Turbo15:00.000+10:29.495PS4
2468 Stonefish74Renault 5 Turbo15:00.000+10:29.495PS4
2469 SYMBIOTICJUSTINRenault 5 Turbo15:00.000+10:29.495PS4
2470 Jeje_l-aspiRenault 5 Turbo15:00.000+10:29.495PS4
2471 Enzo_90_EnzoRenault 5 Turbo15:00.000+10:29.495PS4
2472 hjumanboyaRenault 5 Turbo15:00.000+10:29.495PS4
2473 wutangloveRenault 5 Turbo15:00.000+10:29.495PS4
2474 BeardyBraveRenault 5 Turbo15:00.000+10:29.495PS4
2475 aule993Renault 5 Turbo15:00.000+10:29.495PS4
2476 ervis21Renault 5 Turbo15:00.000+10:29.495PS4
2477 AVFracing06Renault 5 Turbo15:00.000+10:29.495PS4
2478 andyscone202Renault 5 Turbo15:00.000+10:29.495PS4
2479 LexLathorRenault 5 Turbo15:00.000+10:29.495PS4
2480 Ken_4343Renault 5 Turbo15:00.000+10:29.495PS4
2481 madDigitRenault 5 Turbo15:00.000+10:29.495PS4
2482 tekkenwydRenault 5 Turbo15:00.000+10:29.495PS4
2483 hellZfirEJPRenault 5 Turbo15:00.000+10:29.495PS4
2484 joffe311Renault 5 Turbo15:00.000+10:29.495PS4
2485 suzuki81dnRenault 5 Turbo15:00.000+10:29.495PS4
2486 ibe0510Renault 5 Turbo15:00.000+10:29.495PS4
2487 jeanlouis-87Renault 5 Turbo15:00.000+10:29.495PS4
2488 Xx_Ayos_XxRenault 5 Turbo15:00.000+10:29.495PS4
2489 ShadowSniperS11Renault 5 Turbo15:00.000+10:29.495PS4
2490 Tao_37Renault 5 Turbo15:00.000+10:29.495PS4
2491 ChonasRenault 5 Turbo15:00.000+10:29.495PS4
2492 reder1Renault 5 Turbo15:00.000+10:29.495PS4
2493 blackvicking696Renault 5 Turbo15:00.000+10:29.495PS4
2494 iSilverbowRenault 5 Turbo15:00.000+10:29.495PS4
2495 ICE-MEN555Renault 5 Turbo15:00.000+10:29.495PS4
2496 Yes_AyeeeRenault 5 Turbo15:00.000+10:29.495PS4
2497 szymon81Renault 5 Turbo15:00.000+10:29.495PS4
2498 Mateo_j01Renault 5 Turbo15:00.000+10:29.495PS4
2499 AlreimRenault 5 Turbo15:00.000+10:29.495PS4
2500 Janis8_SRenault 5 Turbo15:00.000+10:29.495PS4
2501 ZubodetoteraaaRenault 5 Turbo15:00.000+10:29.495PS4
2502 Panzercorps_Renault 5 Turbo15:00.000+10:29.495PS4
2503 ozzdog53Renault 5 Turbo15:00.000+10:29.495PS4
2504 cruiser_akRenault 5 Turbo15:00.000+10:29.495PS4
2505 FORD_RACING_02Renault 5 Turbo15:00.000+10:29.495PS4
2506 Robin_NorrlanderRenault 5 Turbo15:00.000+10:29.495PS4
2507 bertjuh28488Renault 5 Turbo15:00.000+10:29.495PS4
2508 david106n1Renault 5 Turbo15:00.000+10:29.495PS4
2509 GiantWheel231Renault 5 Turbo15:00.000+10:29.495PS4
2510 OLTSCHINGRenault 5 Turbo15:00.000+10:29.495PS4
2511 WaRzZ__-OpTiCcRenault 5 Turbo15:00.000+10:29.495PS4
2512 tomo_celeste_usRenault 5 Turbo15:00.000+10:29.495PS4
2513 viikstRenault 5 Turbo15:00.000+10:29.495PS4
2514 jyrg86Renault 5 Turbo15:00.000+10:29.495PS4
2515 nikos17320Renault 5 Turbo15:00.000+10:29.495PS4
2516 samsara79Renault 5 Turbo15:00.000+10:29.495PS4
2517 xX_Bjorn_72_XxRenault 5 Turbo15:00.000+10:29.495PS4
2518 welshboyuk76Renault 5 Turbo15:00.000+10:29.495PS4
2519 luisparenteRenault 5 Turbo15:00.000+10:29.495PS4
2520 xmorpheus84Renault 5 Turbo15:00.000+10:29.495PS4
2521 macco37Renault 5 Turbo15:00.000+10:29.495PS4
2522 kaycee49Renault 5 Turbo15:00.000+10:29.495PS4
2523 CoBlackRhinoRenault 5 Turbo15:00.000+10:29.495PS4
2524 mick-300Renault 5 Turbo15:00.000+10:29.495PS4
2525 aporellos82Renault 5 Turbo15:00.000+10:29.495PS4
2526 dirtywarriorsRenault 5 Turbo15:00.000+10:29.495PS4
2527 moorgas0Renault 5 Turbo15:00.000+10:29.495PS4
2528 osirsiaRenault 5 Turbo15:00.000+10:29.495PS4
2529 beniamean8Renault 5 Turbo15:00.000+10:29.495PS4
2530 bigeddy12Renault 5 Turbo15:00.000+10:29.495PS4
2531 new_kids_91Renault 5 Turbo15:00.000+10:29.495PS4
2532 mrc-99Renault 5 Turbo15:00.000+10:29.495PS4
2533 madmanmaloyRenault 5 Turbo15:00.000+10:29.495PS4
2534 TeoSenna1982Renault 5 Turbo15:00.000+10:29.495PS4
2535 zepequenosssRenault 5 Turbo15:00.000+10:29.495PS4
2536 RastafreddyRenault 5 Turbo15:00.000+10:29.495PS4
2537 Cardillo86ITRenault 5 Turbo15:00.000+10:29.495PS4
2538 baumelGT3Renault 5 Turbo15:00.000+10:29.495PS4
2539 SachcRenault 5 Turbo15:00.000+10:29.495PS4
2540 TreculRenault 5 Turbo15:00.000+10:29.495PS4
2541 takmaki84Renault 5 Turbo15:00.000+10:29.495PS4
2542 LY334Renault 5 Turbo15:00.000+10:29.495PS4
2543 TSCortiRenault 5 Turbo15:00.000+10:29.495PS4
2544 jordih29Renault 5 Turbo15:00.000+10:29.495PS4
2545 jbrederRenault 5 Turbo15:00.000+10:29.495PS4
2546 mca456Renault 5 Turbo15:00.000+10:29.495PS4
2547 HIJOSDELMALRenault 5 Turbo15:00.000+10:29.495PS4
2548 ced5482Renault 5 Turbo15:00.000+10:29.495PS4
2549 stylegino92Renault 5 Turbo15:00.000+10:29.495PS4
2550 mrred16PLRenault 5 Turbo15:00.000+10:29.495PS4
2551 stoner4twenty823Renault 5 Turbo15:00.000+10:29.495PS4
2552 adapTECHRenault 5 Turbo15:00.000+10:29.495PS4
2553 antwerp141074Renault 5 Turbo15:00.000+10:29.495PS4
2554 littlejt28Renault 5 Turbo15:00.000+10:29.495PS4
2555 lolod66Renault 5 Turbo15:00.000+10:29.495PS4
2556 Twd08Renault 5 Turbo15:00.000+10:29.495PS4
2557 n1k_944Renault 5 Turbo15:00.000+10:29.495PS4
2558 BAJi1988Renault 5 Turbo15:00.000+10:29.495PS4
2559 PeteStuttgart711Renault 5 Turbo15:00.000+10:29.495PS4
2560 dav1dmejutoRenault 5 Turbo15:00.000+10:29.495PS4
2561 MONLAPIN33Renault 5 Turbo15:00.000+10:29.495PS4
2562 VNS75Renault 5 Turbo15:00.000+10:29.495PS4
2563 KYE1995Renault 5 Turbo15:00.000+10:29.495PS4
2564 blackmamba12000Renault 5 Turbo15:00.000+10:29.495PS4
2565 corredor_1972Renault 5 Turbo15:00.000+10:29.495PS4
2566 renifer_grafmixRenault 5 Turbo15:00.000+10:29.495PS4
2567 ParreiraaaRenault 5 Turbo15:00.000+10:29.495PS4
2568 Klingenwirbel87Renault 5 Turbo15:00.000+10:29.495PS4
2569 tayco83Renault 5 Turbo15:00.000+10:29.495PS4
2570 dylaan_238Renault 5 Turbo15:00.000+10:29.495PS4
2571 Motorsport46fanRenault 5 Turbo15:00.000+10:29.495PS4
2572 damism00tRenault 5 Turbo15:00.000+10:29.495PS4
2573 Feroz771Renault 5 Turbo15:00.000+10:29.495PS4
2574 OxfordmenRenault 5 Turbo15:00.000+10:29.495PS4
2575 Julio16artRenault 5 Turbo15:00.000+10:29.495PS4
2576 PinkPantisRenault 5 Turbo15:00.000+10:29.495PS4
2577 butch394Renault 5 Turbo15:00.000+10:29.495PS4
2578 p908hdiRenault 5 Turbo15:00.000+10:29.495PS4
2579 CaptainRothRenault 5 Turbo15:00.000+10:29.495PS4
2580 jereaatu90Renault 5 Turbo15:00.000+10:29.495PS4
2581 iNiscayaRenault 5 Turbo15:00.000+10:29.495PS4
2582 mikeage85Renault 5 Turbo15:00.000+10:29.495PS4
2583 schlenkerERenault 5 Turbo15:00.000+10:29.495PS4
2584 BFaustino21Renault 5 Turbo15:00.000+10:29.495PS4
2585 ale81udineRenault 5 Turbo15:00.000+10:29.495PS4
2586 FinekPLRenault 5 Turbo15:00.000+10:29.495PS4
2587 Lew_Walsh97Renault 5 Turbo15:00.000+10:29.495PS4
2588 Wazza307Renault 5 Turbo15:00.000+10:29.495PS4
2589 j120678Renault 5 Turbo15:00.000+10:29.495PS4
2590 TeoRaffaRenault 5 Turbo15:00.000+10:29.495PS4
2591 petekivinen2Renault 5 Turbo15:00.000+10:29.495PS4
2592 ale19sevillaRenault 5 Turbo15:00.000+10:29.495PS4
2593 re-rasingerRenault 5 Turbo15:00.000+10:29.495PS4
2594 ridgid-I0-carRenault 5 Turbo15:00.000+10:29.495PS4
2595 Kiwouts78Renault 5 Turbo15:00.000+10:29.495PS4
2596 GoundiChaRenault 5 Turbo15:00.000+10:29.495PS4
2597 Zalikcharles182Renault 5 Turbo15:00.000+10:29.495PS4
2598 zoraver95Renault 5 Turbo15:00.000+10:29.495PS4
2599 Meanux9Renault 5 Turbo15:00.000+10:29.495PS4
2600 HebbesNLRenault 5 Turbo15:00.000+10:29.495PS4
2601 sada_k2Renault 5 Turbo15:00.000+10:29.495PS4
2602 McVM12Renault 5 Turbo15:00.000+10:29.495PS4
2603 murdch1O1Renault 5 Turbo15:00.000+10:29.495PS4
2604 bosquitossRenault 5 Turbo15:00.000+10:29.495PS4
2605 y_not__zoidbergRenault 5 Turbo15:00.000+10:29.495PS4
2606 RutkulaRenault 5 Turbo15:00.000+10:29.495PS4
2607 TomB_1903Renault 5 Turbo15:00.000+10:29.495PS4
2608 Ham_947Renault 5 Turbo15:00.000+10:29.495PS4
2609 danielofifiRenault 5 Turbo15:00.000+10:29.495PS4
2610 I-dotar-sojat-IRenault 5 Turbo15:00.000+10:29.495PS4
2611 Not linkedRenault 5 Turbo15:00.000+10:29.495Xbox
2612 beppezonta205Renault 5 Turbo15:00.000+10:29.495Xbox
2613 Not linkedRenault 5 Turbo15:00.000+10:29.495Xbox
2614 037spectreRenault 5 Turbo15:00.000+10:29.495Xbox
2615 Not linkedRenault 5 Turbo15:00.000+10:29.495Xbox
2616 IIIAdamaIIIRenault 5 Turbo15:00.000+10:29.495Xbox
2617 FRzombiePKMRenault 5 Turbo15:00.000+10:29.495Xbox
2618 Not linkedRenault 5 Turbo15:00.000+10:29.495Xbox
2619 zx9420Renault 5 Turbo15:00.000+10:29.495Xbox
2620 Not linkedRenault 5 Turbo15:00.000+10:29.495Xbox
2621 baggierstream16Renault 5 Turbo15:00.000+10:29.495Xbox
2622 rallyvr4Renault 5 Turbo15:00.000+10:29.495Xbox
2623 Not linkedRenault 5 Turbo15:00.000+10:29.495Xbox
2624 Not linkedRenault 5 Turbo15:00.000+10:29.495Xbox
2625 Not linkedRenault 5 Turbo15:00.000+10:29.495Xbox
2626 Not linkedRenault 5 Turbo15:00.000+10:29.495Xbox
2627 Not linkedRenault 5 Turbo15:00.000+10:29.495Xbox
2628 gilphishRenault 5 Turbo15:00.000+10:29.495Xbox
2629 Not linkedRenault 5 Turbo15:00.000+10:29.495Xbox
2630 DaveHustaffaRenault 5 Turbo15:00.000+10:29.495Xbox
2631 lbconceptRenault 5 Turbo15:00.000+10:29.495Xbox
2632 Mattdog209Renault 5 Turbo15:00.000+10:29.495Xbox
2633 Not linkedRenault 5 Turbo15:00.000+10:29.495Xbox
2634 Not linkedRenault 5 Turbo15:00.000+10:29.495Xbox
2635 pads38Renault 5 Turbo15:00.000+10:29.495Xbox
2636 Not linkedRenault 5 Turbo15:00.000+10:29.495Xbox
2637 JuanCarlosToledRenault 5 Turbo15:00.000+10:29.495Xbox
2638 KAKamikazeRenault 5 Turbo15:00.000+10:29.495Xbox
2639 Not linkedRenault 5 Turbo15:00.000+10:29.495Xbox
2640 Not linkedRenault 5 Turbo15:00.000+10:29.495Xbox
2641 JoeRogan67Renault 5 Turbo15:00.000+10:29.495Xbox
2642 MuddyfoxxWRCRenault 5 Turbo15:00.000+10:29.495Xbox
2643 MikkoVRenault 5 Turbo15:00.000+10:29.495Xbox
2644 Not linkedRenault 5 Turbo15:00.000+10:29.495Xbox
2645 misteredjohnsonRenault 5 Turbo15:00.000+10:29.495Xbox
2646 66stingrayRenault 5 Turbo15:00.000+10:29.495Xbox
2647 ElRube88Renault 5 Turbo15:00.000+10:29.495Xbox
2648 Not linkedRenault 5 Turbo15:00.000+10:29.495Xbox
2649 Not linkedRenault 5 Turbo15:00.000+10:29.495Xbox
2650 Not linkedRenault 5 Turbo15:00.000+10:29.495Xbox
2651 Not linkedRenault 5 Turbo15:00.000+10:29.495Xbox
2652 kandymann4758Renault 5 Turbo15:00.000+10:29.495Xbox
2653 Not linkedRenault 5 Turbo15:00.000+10:29.495Xbox
2654 olivierragnottiRenault 5 Turbo15:00.000+10:29.495Xbox
2655 daz4239Renault 5 Turbo15:00.000+10:29.495Xbox
2656 chrispalkoRenault 5 Turbo15:00.000+10:29.495Xbox
2657 tferna20Renault 5 Turbo15:00.000+10:29.495Xbox
2658 Börni99Renault 5 Turbo15:00.000+10:29.495Xbox
2659 strangewood13Renault 5 Turbo15:00.000+10:29.495Xbox
2660 d0ct0rnRenault 5 Turbo15:00.000+10:29.495Xbox
2661 actionklestilRenault 5 Turbo15:00.000+10:29.495Xbox
2662 pccrashRenault 5 Turbo15:00.000+10:29.495Xbox
2663 Not linkedRenault 5 Turbo15:00.000+10:29.495Xbox
2664 MPerreaultRenault 5 Turbo15:00.000+10:29.495Xbox
2665 Not linkedRenault 5 Turbo15:00.000+10:29.495Xbox
2666 Not linkedRenault 5 Turbo15:00.000+10:29.495Xbox
2667 kris10an94Renault 5 Turbo15:00.000+10:29.495Xbox
2668 Rowdy2ReckalotRenault 5 Turbo15:00.000+10:29.495Xbox
2669 rebbyRenault 5 Turbo15:00.000+10:29.495Xbox
2670 REDpearceRenault 5 Turbo15:00.000+10:29.495Xbox
2671 flashgordon3001Renault 5 Turbo15:00.000+10:29.495Xbox
2672 mulatronicRenault 5 Turbo15:00.000+10:29.495Xbox
2673 ivoryhazeRenault 5 Turbo15:00.000+10:29.495Xbox
2674 Not linkedRenault 5 Turbo15:00.000+10:29.495Xbox
2675 Not linkedRenault 5 Turbo15:00.000+10:29.495Xbox
2676 G0ALB0UNDRenault 5 Turbo15:00.000+10:29.495Xbox
2677 Mattspeed96Renault 5 Turbo15:00.000+10:29.495Xbox
2678 141bennyRenault 5 Turbo15:00.000+10:29.495Xbox
2679 drinkwaterjasonRenault 5 Turbo15:00.000+10:29.495Xbox
2680 gigboyRenault 5 Turbo15:00.000+10:29.495Xbox
2681 TomDevilHUNRenault 5 Turbo15:00.000+10:29.495Xbox
2682 3CharactersRenault 5 Turbo15:00.000+10:29.495Xbox
2683 sambacon1Renault 5 Turbo15:00.000+10:29.495Xbox
2684 Not linkedRenault 5 Turbo15:00.000+10:29.495Xbox
2685 gui79Renault 5 Turbo15:00.000+10:29.495Xbox
2686 BUFFNIFFRenault 5 Turbo15:00.000+10:29.495Xbox
2687 Not linkedRenault 5 Turbo15:00.000+10:29.495Xbox
2688 jaquenhgharRenault 5 Turbo15:00.000+10:29.495Xbox
2689 LebaronrougeRenault 5 Turbo15:00.000+10:29.495Xbox
2690 emacyclistRenault 5 Turbo15:00.000+10:29.495Xbox
2691 adde8Renault 5 Turbo15:00.000+10:29.495Xbox
2692 swampdogbluesRenault 5 Turbo15:00.000+10:29.495Xbox
2693 Not linkedRenault 5 Turbo15:00.000+10:29.495Xbox
2694 anthovideo17Renault 5 Turbo15:00.000+10:29.495Xbox
2695 SankaBadRenault 5 Turbo15:00.000+10:29.495Xbox
2696 Not linkedRenault 5 Turbo15:00.000+10:29.495Xbox
2697 Not linkedRenault 5 Turbo15:00.000+10:29.495Xbox
2698 Diogopt17Renault 5 Turbo15:00.000+10:29.495Xbox
2699 KevynBZHRenault 5 Turbo15:00.000+10:29.495Xbox
2700 Not linkedRenault 5 Turbo15:00.000+10:29.495Xbox
2701 Not linkedRenault 5 Turbo15:00.000+10:29.495Xbox
2702 Not linkedRenault 5 Turbo15:00.000+10:29.495Xbox
2703 Not linkedRenault 5 Turbo15:00.000+10:29.495Xbox
2704 juracingRenault 5 Turbo15:00.000+10:29.495Xbox
2705 luca99712Renault 5 Turbo15:00.000+10:29.495Xbox
2706 raidelRenault 5 Turbo15:00.000+10:29.495Xbox
2707 afootCascade606Renault 5 Turbo15:00.000+10:29.495Xbox
2708 Not linkedRenault 5 Turbo15:00.000+10:29.495Xbox
2709 juliensuneRenault 5 Turbo15:00.000+10:29.495Xbox
2710 Not linkedRenault 5 Turbo15:00.000+10:29.495Xbox
2711 VictorVonVicRenault 5 Turbo15:00.000+10:29.495Xbox
2712 AsierbutoRenault 5 Turbo15:00.000+10:29.495Xbox
2713 kamrolsenRenault 5 Turbo15:00.000+10:29.495Xbox